<?xml version="1.0" encoding="UTF-8"?>
<gpx version="1.0" creator="Trackator" xmlns:xsi="http://www.w3.org/2001/XMLSchema-instance" xmlns="http://www.topografix.com/GPX/1/0" xmlns:topografix="http://www.topografix.com/GPX/Private/TopoGrafix/0/1" xsi:schemaLocation="http://www.topografix.com/GPX/1/0 http://www.topografix.com/GPX/1/0/gpx.xsd http://www.topografix.com/GPX/Private/TopoGrafix/0/1 http://www.topografix.com/GPX/Private/TopoGrafix/0/1/topografix.xsd">
<metadata>
<link href="http://www.trackalia.com/trackatorweb.php">
<text>Trackator</text>
</link>
</metadata>
<time>2017-12-19T14:46:25Z</time>
<trk>
<name>Track: </name>
<desc></desc>
<trkseg>
<trkpt lat="53.9350276" lon="16.2749081">
<ele>110</ele>
<time>2017-12-19T14:46:25Z</time>
</trkpt>
<trkpt lat="53.9354849" lon="16.2762944">
<ele>113</ele>
<time>2017-12-19T14:46:31Z</time>
</trkpt>
<trkpt lat="53.9360166" lon="16.2777884">
<ele>114</ele>
<time>2017-12-19T14:46:37Z</time>
</trkpt>
<trkpt lat="53.9364476" lon="16.2793139">
<ele>119</ele>
<time>2017-12-19T14:46:43Z</time>
</trkpt>
<trkpt lat="53.9367970" lon="16.2810063">
<ele>120</ele>
<time>2017-12-19T14:46:49Z</time>
</trkpt>
<trkpt lat="53.9371487" lon="16.2828020">
<ele>123</ele>
<time>2017-12-19T14:46:55Z</time>
</trkpt>
<trkpt lat="53.9375343" lon="16.2846360">
<ele>126</ele>
<time>2017-12-19T14:47:01Z</time>
</trkpt>
<trkpt lat="53.9379515" lon="16.2865606">
<ele>127</ele>
<time>2017-12-19T14:47:07Z</time>
</trkpt>
<trkpt lat="53.9383676" lon="16.2885537">
<ele>127</ele>
<time>2017-12-19T14:47:13Z</time>
</trkpt>
<trkpt lat="53.9387906" lon="16.2905446">
<ele>125</ele>
<time>2017-12-19T14:47:19Z</time>
</trkpt>
<trkpt lat="53.9392113" lon="16.2925790">
<ele>125</ele>
<time>2017-12-19T14:47:25Z</time>
</trkpt>
<trkpt lat="53.9396258" lon="16.2945903">
<ele>126</ele>
<time>2017-12-19T14:47:31Z</time>
</trkpt>
<trkpt lat="53.9404718" lon="16.2986469">
<ele>123</ele>
<time>2017-12-19T14:47:43Z</time>
</trkpt>
<trkpt lat="53.9408789" lon="16.3007225">
<ele>123</ele>
<time>2017-12-19T14:47:49Z</time>
</trkpt>
<trkpt lat="53.9413176" lon="16.3027576">
<ele>125</ele>
<time>2017-12-19T14:47:55Z</time>
</trkpt>
<trkpt lat="53.9417496" lon="16.3047889">
<ele>126</ele>
<time>2017-12-19T14:48:01Z</time>
</trkpt>
<trkpt lat="53.9421710" lon="16.3068342">
<ele>126</ele>
<time>2017-12-19T14:48:07Z</time>
</trkpt>
<trkpt lat="53.9425974" lon="16.3088834">
<ele>127</ele>
<time>2017-12-19T14:48:13Z</time>
</trkpt>
<trkpt lat="53.9430105" lon="16.3109274">
<ele>129</ele>
<time>2017-12-19T14:48:19Z</time>
</trkpt>
<trkpt lat="53.9434595" lon="16.3129411">
<ele>129</ele>
<time>2017-12-19T14:48:25Z</time>
</trkpt>
<trkpt lat="53.9438855" lon="16.3149307">
<ele>135</ele>
<time>2017-12-19T14:48:31Z</time>
</trkpt>
<trkpt lat="53.9442835" lon="16.3168905">
<ele>133</ele>
<time>2017-12-19T14:48:37Z</time>
</trkpt>
<trkpt lat="53.9446850" lon="16.3188578">
<ele>130</ele>
<time>2017-12-19T14:48:43Z</time>
</trkpt>
<trkpt lat="53.9450892" lon="16.3208368">
<ele>133</ele>
<time>2017-12-19T14:48:49Z</time>
</trkpt>
<trkpt lat="53.9454136" lon="16.3228537">
<ele>134</ele>
<time>2017-12-19T14:48:55Z</time>
</trkpt>
<trkpt lat="53.9456642" lon="16.3249574">
<ele>136</ele>
<time>2017-12-19T14:49:01Z</time>
</trkpt>
<trkpt lat="53.9459311" lon="16.3271199">
<ele>138</ele>
<time>2017-12-19T14:49:07Z</time>
</trkpt>
<trkpt lat="53.9461990" lon="16.3293124">
<ele>140</ele>
<time>2017-12-19T14:49:13Z</time>
</trkpt>
<trkpt lat="53.9464426" lon="16.3314620">
<ele>144</ele>
<time>2017-12-19T14:49:19Z</time>
</trkpt>
<trkpt lat="53.9467803" lon="16.3333996">
<ele>144</ele>
<time>2017-12-19T14:49:25Z</time>
</trkpt>
<trkpt lat="53.9473714" lon="16.3352601">
<ele>145</ele>
<time>2017-12-19T14:49:31Z</time>
</trkpt>
<trkpt lat="53.9479907" lon="16.3370966">
<ele>145</ele>
<time>2017-12-19T14:49:37Z</time>
</trkpt>
<trkpt lat="53.9485562" lon="16.3389017">
<ele>146</ele>
<time>2017-12-19T14:49:43Z</time>
</trkpt>
<trkpt lat="53.9490785" lon="16.3406883">
<ele>144</ele>
<time>2017-12-19T14:49:49Z</time>
</trkpt>
<trkpt lat="53.9492828" lon="16.3426459">
<ele>142</ele>
<time>2017-12-19T14:49:55Z</time>
</trkpt>
<trkpt lat="53.9494677" lon="16.3446676">
<ele>142</ele>
<time>2017-12-19T14:50:01Z</time>
</trkpt>
<trkpt lat="53.9496553" lon="16.3467414">
<ele>142</ele>
<time>2017-12-19T14:50:07Z</time>
</trkpt>
<trkpt lat="53.9497704" lon="16.3488742">
<ele>142</ele>
<time>2017-12-19T14:50:13Z</time>
</trkpt>
<trkpt lat="53.9498405" lon="16.3510162">
<ele>141</ele>
<time>2017-12-19T14:50:19Z</time>
</trkpt>
<trkpt lat="53.9499158" lon="16.3531254">
<ele>143</ele>
<time>2017-12-19T14:50:25Z</time>
</trkpt>
<trkpt lat="53.9499806" lon="16.3552248">
<ele>146</ele>
<time>2017-12-19T14:50:31Z</time>
</trkpt>
<trkpt lat="53.9500809" lon="16.3573530">
<ele>147</ele>
<time>2017-12-19T14:50:37Z</time>
</trkpt>
<trkpt lat="53.9502325" lon="16.3596135">
<ele>149</ele>
<time>2017-12-19T14:50:43Z</time>
</trkpt>
<trkpt lat="53.9505095" lon="16.3618260">
<ele>151</ele>
<time>2017-12-19T14:50:49Z</time>
</trkpt>
<trkpt lat="53.9507900" lon="16.3640438">
<ele>153</ele>
<time>2017-12-19T14:50:55Z</time>
</trkpt>
<trkpt lat="53.9510554" lon="16.3663078">
<ele>156</ele>
<time>2017-12-19T14:51:01Z</time>
</trkpt>
<trkpt lat="53.9513380" lon="16.3685378">
<ele>154</ele>
<time>2017-12-19T14:51:07Z</time>
</trkpt>
<trkpt lat="53.9515845" lon="16.3708337">
<ele>160</ele>
<time>2017-12-19T14:51:13Z</time>
</trkpt>
<trkpt lat="53.9517732" lon="16.3731359">
<ele>166</ele>
<time>2017-12-19T14:51:19Z</time>
</trkpt>
<trkpt lat="53.9519885" lon="16.3754041">
<ele>162</ele>
<time>2017-12-19T14:51:25Z</time>
</trkpt>
<trkpt lat="53.9521958" lon="16.3777221">
<ele>160</ele>
<time>2017-12-19T14:51:31Z</time>
</trkpt>
<trkpt lat="53.9523934" lon="16.3800787">
<ele>161</ele>
<time>2017-12-19T14:51:37Z</time>
</trkpt>
<trkpt lat="53.9526002" lon="16.3823998">
<ele>161</ele>
<time>2017-12-19T14:51:43Z</time>
</trkpt>
<trkpt lat="53.9527724" lon="16.3847720">
<ele>161</ele>
<time>2017-12-19T14:51:49Z</time>
</trkpt>
<trkpt lat="53.9529457" lon="16.3870634">
<ele>162</ele>
<time>2017-12-19T14:51:55Z</time>
</trkpt>
<trkpt lat="53.9531044" lon="16.3893250">
<ele>163</ele>
<time>2017-12-19T14:52:01Z</time>
</trkpt>
<trkpt lat="53.9532984" lon="16.3916058">
<ele>165</ele>
<time>2017-12-19T14:52:07Z</time>
</trkpt>
<trkpt lat="53.9534791" lon="16.3938014">
<ele>167</ele>
<time>2017-12-19T14:52:13Z</time>
</trkpt>
<trkpt lat="53.9537323" lon="16.3959062">
<ele>169</ele>
<time>2017-12-19T14:52:19Z</time>
</trkpt>
<trkpt lat="53.9543578" lon="16.3976826">
<ele>170</ele>
<time>2017-12-19T14:52:25Z</time>
</trkpt>
<trkpt lat="53.9550687" lon="16.3993401">
<ele>174</ele>
<time>2017-12-19T14:52:31Z</time>
</trkpt>
<trkpt lat="53.9557763" lon="16.4009130">
<ele>174</ele>
<time>2017-12-19T14:52:37Z</time>
</trkpt>
<trkpt lat="53.9565814" lon="16.4021368">
<ele>170</ele>
<time>2017-12-19T14:52:43Z</time>
</trkpt>
<trkpt lat="53.9572620" lon="16.4035805">
<ele>173</ele>
<time>2017-12-19T14:52:49Z</time>
</trkpt>
<trkpt lat="53.9579814" lon="16.4050180">
<ele>174</ele>
<time>2017-12-19T14:52:55Z</time>
</trkpt>
<trkpt lat="53.9587495" lon="16.4064152">
<ele>177</ele>
<time>2017-12-19T14:53:01Z</time>
</trkpt>
<trkpt lat="53.9596147" lon="16.4075994">
<ele>179</ele>
<time>2017-12-19T14:53:07Z</time>
</trkpt>
<trkpt lat="53.9605008" lon="16.4088172">
<ele>179</ele>
<time>2017-12-19T14:53:13Z</time>
</trkpt>
<trkpt lat="53.9613989" lon="16.4100316">
<ele>179</ele>
<time>2017-12-19T14:53:19Z</time>
</trkpt>
<trkpt lat="53.9623094" lon="16.4112326">
<ele>180</ele>
<time>2017-12-19T14:53:25Z</time>
</trkpt>
<trkpt lat="53.9632272" lon="16.4124628">
<ele>180</ele>
<time>2017-12-19T14:53:31Z</time>
</trkpt>
<trkpt lat="53.9641606" lon="16.4137138">
<ele>182</ele>
<time>2017-12-19T14:53:37Z</time>
</trkpt>
<trkpt lat="53.9651036" lon="16.4149604">
<ele>183</ele>
<time>2017-12-19T14:53:43Z</time>
</trkpt>
<trkpt lat="53.9660883" lon="16.4161834">
<ele>182</ele>
<time>2017-12-19T14:53:49Z</time>
</trkpt>
<trkpt lat="53.9670972" lon="16.4173567">
<ele>182</ele>
<time>2017-12-19T14:53:55Z</time>
</trkpt>
<trkpt lat="53.9680944" lon="16.4185644">
<ele>180</ele>
<time>2017-12-19T14:54:01Z</time>
</trkpt>
<trkpt lat="53.9690864" lon="16.4197765">
<ele>180</ele>
<time>2017-12-19T14:54:07Z</time>
</trkpt>
<trkpt lat="53.9701015" lon="16.4209402">
<ele>180</ele>
<time>2017-12-19T14:54:13Z</time>
</trkpt>
<trkpt lat="53.9711044" lon="16.4221813">
<ele>181</ele>
<time>2017-12-19T14:54:19Z</time>
</trkpt>
<trkpt lat="53.9721287" lon="16.4234184">
<ele>181</ele>
<time>2017-12-19T14:54:25Z</time>
</trkpt>
<trkpt lat="53.9731415" lon="16.4246878">
<ele>181</ele>
<time>2017-12-19T14:54:31Z</time>
</trkpt>
<trkpt lat="53.9739048" lon="16.4264165">
<ele>184</ele>
<time>2017-12-19T14:54:37Z</time>
</trkpt>
<trkpt lat="53.9746235" lon="16.4282632">
<ele>188</ele>
<time>2017-12-19T14:54:43Z</time>
</trkpt>
<trkpt lat="53.9753874" lon="16.4300784">
<ele>189</ele>
<time>2017-12-19T14:54:49Z</time>
</trkpt>
<trkpt lat="53.9761489" lon="16.4318961">
<ele>192</ele>
<time>2017-12-19T14:54:55Z</time>
</trkpt>
<trkpt lat="53.9768976" lon="16.4337472">
<ele>191</ele>
<time>2017-12-19T14:55:01Z</time>
</trkpt>
<trkpt lat="53.9776602" lon="16.4356260">
<ele>192</ele>
<time>2017-12-19T14:55:07Z</time>
</trkpt>
<trkpt lat="53.9784423" lon="16.4374973">
<ele>191</ele>
<time>2017-12-19T14:55:13Z</time>
</trkpt>
<trkpt lat="53.9792261" lon="16.4394135">
<ele>188</ele>
<time>2017-12-19T14:55:19Z</time>
</trkpt>
<trkpt lat="53.9799781" lon="16.4412925">
<ele>191</ele>
<time>2017-12-19T14:55:25Z</time>
</trkpt>
<trkpt lat="53.9807055" lon="16.4430593">
<ele>195</ele>
<time>2017-12-19T14:55:31Z</time>
</trkpt>
<trkpt lat="53.9814183" lon="16.4448038">
<ele>197</ele>
<time>2017-12-19T14:55:37Z</time>
</trkpt>
<trkpt lat="53.9821852" lon="16.4465869">
<ele>197</ele>
<time>2017-12-19T14:55:43Z</time>
</trkpt>
<trkpt lat="53.9829467" lon="16.4484130">
<ele>193</ele>
<time>2017-12-19T14:55:49Z</time>
</trkpt>
<trkpt lat="53.9837363" lon="16.4503087">
<ele>191</ele>
<time>2017-12-19T14:55:55Z</time>
</trkpt>
<trkpt lat="53.9845300" lon="16.4522012">
<ele>189</ele>
<time>2017-12-19T14:56:01Z</time>
</trkpt>
<trkpt lat="53.9851720" lon="16.4541971">
<ele>187</ele>
<time>2017-12-19T14:56:07Z</time>
</trkpt>
<trkpt lat="53.9856863" lon="16.4563021">
<ele>185</ele>
<time>2017-12-19T14:56:13Z</time>
</trkpt>
<trkpt lat="53.9862583" lon="16.4583932">
<ele>186</ele>
<time>2017-12-19T14:56:19Z</time>
</trkpt>
<trkpt lat="53.9867697" lon="16.4604978">
<ele>187</ele>
<time>2017-12-19T14:56:25Z</time>
</trkpt>
<trkpt lat="53.9872994" lon="16.4626897">
<ele>188</ele>
<time>2017-12-19T14:56:31Z</time>
</trkpt>
<trkpt lat="53.9878681" lon="16.4648805">
<ele>182</ele>
<time>2017-12-19T14:56:37Z</time>
</trkpt>
<trkpt lat="53.9883823" lon="16.4669184">
<ele>174</ele>
<time>2017-12-19T14:56:43Z</time>
</trkpt>
<trkpt lat="53.9889257" lon="16.4688928">
<ele>169</ele>
<time>2017-12-19T14:56:49Z</time>
</trkpt>
<trkpt lat="53.9894310" lon="16.4708081">
<ele>168</ele>
<time>2017-12-19T14:56:55Z</time>
</trkpt>
<trkpt lat="53.9899002" lon="16.4725667">
<ele>168</ele>
<time>2017-12-19T14:57:01Z</time>
</trkpt>
<trkpt lat="53.9903407" lon="16.4742781">
<ele>163</ele>
<time>2017-12-19T14:57:07Z</time>
</trkpt>
<trkpt lat="53.9907818" lon="16.4759160">
<ele>159</ele>
<time>2017-12-19T14:57:13Z</time>
</trkpt>
<trkpt lat="53.9910646" lon="16.4769790">
<ele>157</ele>
<time>2017-12-19T14:57:19Z</time>
</trkpt>
<trkpt lat="53.9909574" lon="16.4778612">
<ele>155</ele>
<time>2017-12-19T14:57:25Z</time>
</trkpt>
<trkpt lat="53.9907059" lon="16.4789150">
<ele>154</ele>
<time>2017-12-19T14:57:31Z</time>
</trkpt>
<trkpt lat="53.9904202" lon="16.4801971">
<ele>156</ele>
<time>2017-12-19T14:57:37Z</time>
</trkpt>
<trkpt lat="53.9901189" lon="16.4816411">
<ele>157</ele>
<time>2017-12-19T14:57:43Z</time>
</trkpt>
<trkpt lat="53.9896184" lon="16.4830285">
<ele>156</ele>
<time>2017-12-19T14:57:49Z</time>
</trkpt>
<trkpt lat="53.9889515" lon="16.4842723">
<ele>157</ele>
<time>2017-12-19T14:57:55Z</time>
</trkpt>
<trkpt lat="53.9885315" lon="16.4856697">
<ele>159</ele>
<time>2017-12-19T14:58:01Z</time>
</trkpt>
<trkpt lat="53.9883790" lon="16.4873174">
<ele>163</ele>
<time>2017-12-19T14:58:07Z</time>
</trkpt>
<trkpt lat="53.9881766" lon="16.4890271">
<ele>166</ele>
<time>2017-12-19T14:58:13Z</time>
</trkpt>
<trkpt lat="53.9878336" lon="16.4907602">
<ele>167</ele>
<time>2017-12-19T14:58:19Z</time>
</trkpt>
<trkpt lat="53.9874627" lon="16.4925538">
<ele>166</ele>
<time>2017-12-19T14:58:25Z</time>
</trkpt>
<trkpt lat="53.9871050" lon="16.4943443">
<ele>166</ele>
<time>2017-12-19T14:58:31Z</time>
</trkpt>
<trkpt lat="53.9867218" lon="16.4962026">
<ele>166</ele>
<time>2017-12-19T14:58:37Z</time>
</trkpt>
<trkpt lat="53.9863272" lon="16.4981199">
<ele>166</ele>
<time>2017-12-19T14:58:43Z</time>
</trkpt>
<trkpt lat="53.9859390" lon="16.5000391">
<ele>167</ele>
<time>2017-12-19T14:58:49Z</time>
</trkpt>
<trkpt lat="53.9855739" lon="16.5019396">
<ele>168</ele>
<time>2017-12-19T14:58:55Z</time>
</trkpt>
<trkpt lat="53.9852047" lon="16.5037985">
<ele>169</ele>
<time>2017-12-19T14:59:01Z</time>
</trkpt>
<trkpt lat="53.9848247" lon="16.5056771">
<ele>170</ele>
<time>2017-12-19T14:59:07Z</time>
</trkpt>
<trkpt lat="53.9844102" lon="16.5075436">
<ele>172</ele>
<time>2017-12-19T14:59:13Z</time>
</trkpt>
<trkpt lat="53.9839025" lon="16.5093585">
<ele>172</ele>
<time>2017-12-19T14:59:19Z</time>
</trkpt>
<trkpt lat="53.9833960" lon="16.5111883">
<ele>174</ele>
<time>2017-12-19T14:59:25Z</time>
</trkpt>
<trkpt lat="53.9828795" lon="16.5130391">
<ele>174</ele>
<time>2017-12-19T14:59:31Z</time>
</trkpt>
<trkpt lat="53.9823771" lon="16.5149630">
<ele>172</ele>
<time>2017-12-19T14:59:37Z</time>
</trkpt>
<trkpt lat="53.9818581" lon="16.5169121">
<ele>171</ele>
<time>2017-12-19T14:59:43Z</time>
</trkpt>
<trkpt lat="53.9813740" lon="16.5187525">
<ele>170</ele>
<time>2017-12-19T14:59:49Z</time>
</trkpt>
<trkpt lat="53.9811671" lon="16.5207289">
<ele>169</ele>
<time>2017-12-19T14:59:55Z</time>
</trkpt>
<trkpt lat="53.9809784" lon="16.5227139">
<ele>168</ele>
<time>2017-12-19T15:00:01Z</time>
</trkpt>
<trkpt lat="53.9807870" lon="16.5246416">
<ele>167</ele>
<time>2017-12-19T15:00:07Z</time>
</trkpt>
<trkpt lat="53.9806243" lon="16.5262932">
<ele>166</ele>
<time>2017-12-19T15:00:13Z</time>
</trkpt>
<trkpt lat="53.9804587" lon="16.5279566">
<ele>165</ele>
<time>2017-12-19T15:00:19Z</time>
</trkpt>
<trkpt lat="53.9802886" lon="16.5296430">
<ele>165</ele>
<time>2017-12-19T15:00:25Z</time>
</trkpt>
<trkpt lat="53.9801191" lon="16.5313126">
<ele>163</ele>
<time>2017-12-19T15:00:31Z</time>
</trkpt>
<trkpt lat="53.9799445" lon="16.5329909">
<ele>162</ele>
<time>2017-12-19T15:00:37Z</time>
</trkpt>
<trkpt lat="53.9797718" lon="16.5346773">
<ele>161</ele>
<time>2017-12-19T15:00:43Z</time>
</trkpt>
<trkpt lat="53.9795913" lon="16.5362487">
<ele>161</ele>
<time>2017-12-19T15:00:49Z</time>
</trkpt>
<trkpt lat="53.9794552" lon="16.5375581">
<ele>158</ele>
<time>2017-12-19T15:00:55Z</time>
</trkpt>
<trkpt lat="53.9794454" lon="16.5384309">
<ele>159</ele>
<time>2017-12-19T15:01:01Z</time>
</trkpt>
<trkpt lat="53.9792531" lon="16.5389764">
<ele>159</ele>
<time>2017-12-19T15:01:07Z</time>
</trkpt>
<trkpt lat="53.9787112" lon="16.5390314">
<ele>159</ele>
<time>2017-12-19T15:01:13Z</time>
</trkpt>
<trkpt lat="53.9780334" lon="16.5391075">
<ele>159</ele>
<time>2017-12-19T15:01:19Z</time>
</trkpt>
<trkpt lat="53.9772892" lon="16.5394629">
<ele>161</ele>
<time>2017-12-19T15:01:25Z</time>
</trkpt>
<trkpt lat="53.9765100" lon="16.5397952">
<ele>162</ele>
<time>2017-12-19T15:01:31Z</time>
</trkpt>
<trkpt lat="53.9757939" lon="16.5400774">
<ele>163</ele>
<time>2017-12-19T15:01:37Z</time>
</trkpt>
<trkpt lat="53.9752548" lon="16.5406413">
<ele>165</ele>
<time>2017-12-19T15:01:43Z</time>
</trkpt>
<trkpt lat="53.9751330" lon="16.5419819">
<ele>167</ele>
<time>2017-12-19T15:01:49Z</time>
</trkpt>
<trkpt lat="53.9749679" lon="16.5435189">
<ele>168</ele>
<time>2017-12-19T15:01:55Z</time>
</trkpt>
<trkpt lat="53.9745437" lon="16.5450661">
<ele>162</ele>
<time>2017-12-19T15:02:01Z</time>
</trkpt>
<trkpt lat="53.9741576" lon="16.5466585">
<ele>160</ele>
<time>2017-12-19T15:02:07Z</time>
</trkpt>
<trkpt lat="53.9740432" lon="16.5484464">
<ele>151</ele>
<time>2017-12-19T15:02:13Z</time>
</trkpt>
<trkpt lat="53.9739609" lon="16.5502310">
<ele>150</ele>
<time>2017-12-19T15:02:19Z</time>
</trkpt>
<trkpt lat="53.9739011" lon="16.5517279">
<ele>150</ele>
<time>2017-12-19T15:02:25Z</time>
</trkpt>
<trkpt lat="53.9739924" lon="16.5524086">
<ele>150</ele>
<time>2017-12-19T15:02:31Z</time>
</trkpt>
<trkpt lat="53.9737723" lon="16.5529495">
<ele>151</ele>
<time>2017-12-19T15:02:37Z</time>
</trkpt>
<trkpt lat="53.9733450" lon="16.5536543">
<ele>151</ele>
<time>2017-12-19T15:02:43Z</time>
</trkpt>
<trkpt lat="53.9728526" lon="16.5547183">
<ele>149</ele>
<time>2017-12-19T15:02:49Z</time>
</trkpt>
<trkpt lat="53.9722956" lon="16.5561444">
<ele>147</ele>
<time>2017-12-19T15:02:55Z</time>
</trkpt>
<trkpt lat="53.9715956" lon="16.5577293">
<ele>144</ele>
<time>2017-12-19T15:03:01Z</time>
</trkpt>
<trkpt lat="53.9707132" lon="16.5593098">
<ele>144</ele>
<time>2017-12-19T15:03:07Z</time>
</trkpt>
<trkpt lat="53.9697737" lon="16.5608318">
<ele>145</ele>
<time>2017-12-19T15:03:13Z</time>
</trkpt>
<trkpt lat="53.9688246" lon="16.5623857">
<ele>148</ele>
<time>2017-12-19T15:03:19Z</time>
</trkpt>
<trkpt lat="53.9680799" lon="16.5641571">
<ele>150</ele>
<time>2017-12-19T15:03:25Z</time>
</trkpt>
<trkpt lat="53.9676663" lon="16.5662782">
<ele>151</ele>
<time>2017-12-19T15:03:31Z</time>
</trkpt>
<trkpt lat="53.9672567" lon="16.5684491">
<ele>147</ele>
<time>2017-12-19T15:03:37Z</time>
</trkpt>
<trkpt lat="53.9666875" lon="16.5704737">
<ele>143</ele>
<time>2017-12-19T15:03:43Z</time>
</trkpt>
<trkpt lat="53.9659831" lon="16.5723556">
<ele>139</ele>
<time>2017-12-19T15:03:49Z</time>
</trkpt>
<trkpt lat="53.9653424" lon="16.5741751">
<ele>143</ele>
<time>2017-12-19T15:03:55Z</time>
</trkpt>
<trkpt lat="53.9647323" lon="16.5759324">
<ele>148</ele>
<time>2017-12-19T15:04:01Z</time>
</trkpt>
<trkpt lat="53.9641690" lon="16.5775116">
<ele>153</ele>
<time>2017-12-19T15:04:07Z</time>
</trkpt>
<trkpt lat="53.9636545" lon="16.5787072">
<ele>157</ele>
<time>2017-12-19T15:04:13Z</time>
</trkpt>
<trkpt lat="53.9630060" lon="16.5796887">
<ele>157</ele>
<time>2017-12-19T15:04:19Z</time>
</trkpt>
<trkpt lat="53.9623528" lon="16.5806958">
<ele>158</ele>
<time>2017-12-19T15:04:25Z</time>
</trkpt>
<trkpt lat="53.9617128" lon="16.5817160">
<ele>159</ele>
<time>2017-12-19T15:04:31Z</time>
</trkpt>
<trkpt lat="53.9610484" lon="16.5826726">
<ele>161</ele>
<time>2017-12-19T15:04:37Z</time>
</trkpt>
<trkpt lat="53.9602751" lon="16.5834274">
<ele>162</ele>
<time>2017-12-19T15:04:43Z</time>
</trkpt>
<trkpt lat="53.9595024" lon="16.5841105">
<ele>161</ele>
<time>2017-12-19T15:04:49Z</time>
</trkpt>
<trkpt lat="53.9587827" lon="16.5847553">
<ele>160</ele>
<time>2017-12-19T15:04:55Z</time>
</trkpt>
<trkpt lat="53.9582370" lon="16.5851951">
<ele>159</ele>
<time>2017-12-19T15:05:01Z</time>
</trkpt>
<trkpt lat="53.9577026" lon="16.5850980">
<ele>157</ele>
<time>2017-12-19T15:05:07Z</time>
</trkpt>
<trkpt lat="53.9571035" lon="16.5849359">
<ele>155</ele>
<time>2017-12-19T15:05:13Z</time>
</trkpt>
<trkpt lat="53.9565102" lon="16.5851189">
<ele>151</ele>
<time>2017-12-19T15:05:19Z</time>
</trkpt>
<trkpt lat="53.9559268" lon="16.5856922">
<ele>153</ele>
<time>2017-12-19T15:05:25Z</time>
</trkpt>
<trkpt lat="53.9554991" lon="16.5864188">
<ele>153</ele>
<time>2017-12-19T15:05:31Z</time>
</trkpt>
<trkpt lat="53.9551914" lon="16.5870313">
<ele>155</ele>
<time>2017-12-19T15:05:37Z</time>
</trkpt>
<trkpt lat="53.9549642" lon="16.5874720">
<ele>156</ele>
<time>2017-12-19T15:05:43Z</time>
</trkpt>
<trkpt lat="53.9546942" lon="16.5876810">
<ele>155</ele>
<time>2017-12-19T15:05:49Z</time>
</trkpt>
<trkpt lat="53.9545375" lon="16.5881663">
<ele>156</ele>
<time>2017-12-19T15:05:55Z</time>
</trkpt>
<trkpt lat="53.9542922" lon="16.5884731">
<ele>154</ele>
<time>2017-12-19T15:06:01Z</time>
</trkpt>
<trkpt lat="53.9532085" lon="16.5881502">
<ele>151</ele>
<time>2017-12-19T15:06:13Z</time>
</trkpt>
<trkpt lat="53.9526901" lon="16.5876108">
<ele>151</ele>
<time>2017-12-19T15:06:19Z</time>
</trkpt>
<trkpt lat="53.9524057" lon="16.5874308">
<ele>149</ele>
<time>2017-12-19T15:06:25Z</time>
</trkpt>
<trkpt lat="53.9523556" lon="16.5880013">
<ele>150</ele>
<time>2017-12-19T15:06:31Z</time>
</trkpt>
<trkpt lat="53.9520383" lon="16.5886712">
<ele>148</ele>
<time>2017-12-19T15:06:37Z</time>
</trkpt>
<trkpt lat="53.9516432" lon="16.5895714">
<ele>147</ele>
<time>2017-12-19T15:06:43Z</time>
</trkpt>
<trkpt lat="53.9511678" lon="16.5907938">
<ele>147</ele>
<time>2017-12-19T15:06:49Z</time>
</trkpt>
<trkpt lat="53.9510896" lon="16.5922460">
<ele>146</ele>
<time>2017-12-19T15:06:55Z</time>
</trkpt>
<trkpt lat="53.9508113" lon="16.5937598">
<ele>147</ele>
<time>2017-12-19T15:07:01Z</time>
</trkpt>
<trkpt lat="53.9502800" lon="16.5952004">
<ele>151</ele>
<time>2017-12-19T15:07:07Z</time>
</trkpt>
<trkpt lat="53.9497605" lon="16.5966827">
<ele>154</ele>
<time>2017-12-19T15:07:13Z</time>
</trkpt>
<trkpt lat="53.9492570" lon="16.5981111">
<ele>159</ele>
<time>2017-12-19T15:07:19Z</time>
</trkpt>
<trkpt lat="53.9488347" lon="16.5993172">
<ele>163</ele>
<time>2017-12-19T15:07:25Z</time>
</trkpt>
<trkpt lat="53.9485528" lon="16.6001220">
<ele>164</ele>
<time>2017-12-19T15:07:31Z</time>
</trkpt>
<trkpt lat="53.9483867" lon="16.6001850">
<ele>163</ele>
<time>2017-12-19T15:07:37Z</time>
</trkpt>
<trkpt lat="53.9482603" lon="16.6001629">
<ele>162</ele>
<time>2017-12-19T15:07:43Z</time>
</trkpt>
<trkpt lat="53.9481483" lon="16.6003777">
<ele>162</ele>
<time>2017-12-19T15:07:49Z</time>
</trkpt>
<trkpt lat="53.9481275" lon="16.6004506">
<ele>162</ele>
<time>2017-12-19T15:07:55Z</time>
</trkpt>
<trkpt lat="53.9481275" lon="16.6004506">
<ele>162</ele>
<time>2017-12-19T15:08:01Z</time>
</trkpt>
<trkpt lat="53.9481275" lon="16.6004506">
<ele>162</ele>
<time>2017-12-19T15:08:07Z</time>
</trkpt>
<trkpt lat="53.9481275" lon="16.6004506">
<ele>162</ele>
<time>2017-12-19T15:08:13Z</time>
</trkpt>
<trkpt lat="53.9481275" lon="16.6004506">
<ele>162</ele>
<time>2017-12-19T15:08:19Z</time>
</trkpt>
<trkpt lat="53.9481275" lon="16.6004506">
<ele>162</ele>
<time>2017-12-19T15:08:25Z</time>
</trkpt>
<trkpt lat="53.9481405" lon="16.6004360">
<ele>162</ele>
<time>2017-12-19T15:08:31Z</time>
</trkpt>
<trkpt lat="53.9481473" lon="16.6004268">
<ele>161</ele>
<time>2017-12-19T15:08:37Z</time>
</trkpt>
<trkpt lat="53.9481473" lon="16.6004268">
<ele>161</ele>
<time>2017-12-19T15:08:43Z</time>
</trkpt>
<trkpt lat="53.9481473" lon="16.6004268">
<ele>161</ele>
<time>2017-12-19T15:08:49Z</time>
</trkpt>
<trkpt lat="53.9481473" lon="16.6004268">
<ele>161</ele>
<time>2017-12-19T15:08:55Z</time>
</trkpt>
<trkpt lat="53.9481473" lon="16.6004268">
<ele>161</ele>
<time>2017-12-19T15:09:01Z</time>
</trkpt>
<trkpt lat="53.9481241" lon="16.6004073">
<ele>161</ele>
<time>2017-12-19T15:09:07Z</time>
</trkpt>
<trkpt lat="53.9481238" lon="16.6003959">
<ele>161</ele>
<time>2017-12-19T15:09:13Z</time>
</trkpt>
<trkpt lat="53.9480881" lon="16.6004023">
<ele>161</ele>
<time>2017-12-19T15:09:19Z</time>
</trkpt>
<trkpt lat="53.9480554" lon="16.6004072">
<ele>161</ele>
<time>2017-12-19T15:09:25Z</time>
</trkpt>
<trkpt lat="53.9480423" lon="16.6004066">
<ele>161</ele>
<time>2017-12-19T15:09:31Z</time>
</trkpt>
<trkpt lat="53.9480498" lon="16.6003983">
<ele>162</ele>
<time>2017-12-19T15:09:37Z</time>
</trkpt>
<trkpt lat="53.9480514" lon="16.6003926">
<ele>162</ele>
<time>2017-12-19T15:09:43Z</time>
</trkpt>
<trkpt lat="53.9480514" lon="16.6003926">
<ele>162</ele>
<time>2017-12-19T15:09:49Z</time>
</trkpt>
<trkpt lat="53.9480514" lon="16.6003926">
<ele>162</ele>
<time>2017-12-19T15:09:55Z</time>
</trkpt>
<trkpt lat="53.9480514" lon="16.6003926">
<ele>162</ele>
<time>2017-12-19T15:10:01Z</time>
</trkpt>
<trkpt lat="53.9480514" lon="16.6003926">
<ele>162</ele>
<time>2017-12-19T15:10:07Z</time>
</trkpt>
<trkpt lat="53.9480514" lon="16.6003926">
<ele>162</ele>
<time>2017-12-19T15:10:13Z</time>
</trkpt>
<trkpt lat="53.9480514" lon="16.6003926">
<ele>162</ele>
<time>2017-12-19T15:10:19Z</time>
</trkpt>
<trkpt lat="53.9480514" lon="16.6003926">
<ele>162</ele>
<time>2017-12-19T15:10:25Z</time>
</trkpt>
<trkpt lat="53.9480514" lon="16.6003926">
<ele>162</ele>
<time>2017-12-19T15:10:31Z</time>
</trkpt>
<trkpt lat="53.9480514" lon="16.6003926">
<ele>162</ele>
<time>2017-12-19T15:10:37Z</time>
</trkpt>
<trkpt lat="53.9480514" lon="16.6003926">
<ele>162</ele>
<time>2017-12-19T15:10:43Z</time>
</trkpt>
<trkpt lat="53.9480514" lon="16.6003926">
<ele>162</ele>
<time>2017-12-19T15:10:49Z</time>
</trkpt>
<trkpt lat="53.9480514" lon="16.6003926">
<ele>162</ele>
<time>2017-12-19T15:10:55Z</time>
</trkpt>
<trkpt lat="53.9480514" lon="16.6003926">
<ele>162</ele>
<time>2017-12-19T15:11:01Z</time>
</trkpt>
<trkpt lat="53.9480648" lon="16.6003750">
<ele>162</ele>
<time>2017-12-19T15:11:07Z</time>
</trkpt>
<trkpt lat="53.9480648" lon="16.6003750">
<ele>162</ele>
<time>2017-12-19T15:11:13Z</time>
</trkpt>
<trkpt lat="53.9480648" lon="16.6003750">
<ele>162</ele>
<time>2017-12-19T15:11:19Z</time>
</trkpt>
<trkpt lat="53.9480648" lon="16.6003750">
<ele>162</ele>
<time>2017-12-19T15:11:25Z</time>
</trkpt>
<trkpt lat="53.9480648" lon="16.6003750">
<ele>162</ele>
<time>2017-12-19T15:11:31Z</time>
</trkpt>
<trkpt lat="53.9480648" lon="16.6003750">
<ele>162</ele>
<time>2017-12-19T15:11:37Z</time>
</trkpt>
<trkpt lat="53.9480648" lon="16.6003750">
<ele>162</ele>
<time>2017-12-19T15:11:43Z</time>
</trkpt>
<trkpt lat="53.9480648" lon="16.6003750">
<ele>162</ele>
<time>2017-12-19T15:11:49Z</time>
</trkpt>
<trkpt lat="53.9480648" lon="16.6003750">
<ele>162</ele>
<time>2017-12-19T15:11:55Z</time>
</trkpt>
<trkpt lat="53.9480648" lon="16.6003750">
<ele>162</ele>
<time>2017-12-19T15:12:01Z</time>
</trkpt>
<trkpt lat="53.9480648" lon="16.6003750">
<ele>162</ele>
<time>2017-12-19T15:12:07Z</time>
</trkpt>
<trkpt lat="53.9480648" lon="16.6003750">
<ele>162</ele>
<time>2017-12-19T15:12:13Z</time>
</trkpt>
<trkpt lat="53.9480648" lon="16.6003750">
<ele>162</ele>
<time>2017-12-19T15:12:19Z</time>
</trkpt>
<trkpt lat="53.9480648" lon="16.6003750">
<ele>162</ele>
<time>2017-12-19T15:12:25Z</time>
</trkpt>
<trkpt lat="53.9480648" lon="16.6003750">
<ele>162</ele>
<time>2017-12-19T15:12:31Z</time>
</trkpt>
<trkpt lat="53.9480648" lon="16.6003750">
<ele>162</ele>
<time>2017-12-19T15:12:37Z</time>
</trkpt>
<trkpt lat="53.9480648" lon="16.6003750">
<ele>162</ele>
<time>2017-12-19T15:12:43Z</time>
</trkpt>
<trkpt lat="53.9480648" lon="16.6003750">
<ele>162</ele>
<time>2017-12-19T15:12:49Z</time>
</trkpt>
<trkpt lat="53.9480648" lon="16.6003750">
<ele>162</ele>
<time>2017-12-19T15:12:55Z</time>
</trkpt>
<trkpt lat="53.9480648" lon="16.6003750">
<ele>162</ele>
<time>2017-12-19T15:13:01Z</time>
</trkpt>
<trkpt lat="53.9480648" lon="16.6003750">
<ele>162</ele>
<time>2017-12-19T15:13:07Z</time>
</trkpt>
<trkpt lat="53.9480648" lon="16.6003750">
<ele>162</ele>
<time>2017-12-19T15:13:13Z</time>
</trkpt>
<trkpt lat="53.9480648" lon="16.6003750">
<ele>162</ele>
<time>2017-12-19T15:13:19Z</time>
</trkpt>
<trkpt lat="53.9480648" lon="16.6003750">
<ele>162</ele>
<time>2017-12-19T15:13:25Z</time>
</trkpt>
<trkpt lat="53.9480648" lon="16.6003750">
<ele>162</ele>
<time>2017-12-19T15:13:31Z</time>
</trkpt>
<trkpt lat="53.9480648" lon="16.6003750">
<ele>162</ele>
<time>2017-12-19T15:13:37Z</time>
</trkpt>
<trkpt lat="53.9480937" lon="16.6003559">
<ele>161</ele>
<time>2017-12-19T15:13:43Z</time>
</trkpt>
<trkpt lat="53.9481057" lon="16.6003181">
<ele>160</ele>
<time>2017-12-19T15:13:49Z</time>
</trkpt>
<trkpt lat="53.9481172" lon="16.6002828">
<ele>160</ele>
<time>2017-12-19T15:13:55Z</time>
</trkpt>
<trkpt lat="53.9481313" lon="16.6002556">
<ele>159</ele>
<time>2017-12-19T15:14:01Z</time>
</trkpt>
<trkpt lat="53.9481313" lon="16.6002556">
<ele>159</ele>
<time>2017-12-19T15:14:07Z</time>
</trkpt>
<trkpt lat="53.9481313" lon="16.6002556">
<ele>159</ele>
<time>2017-12-19T15:14:13Z</time>
</trkpt>
<trkpt lat="53.9481313" lon="16.6002556">
<ele>159</ele>
<time>2017-12-19T15:14:19Z</time>
</trkpt>
<trkpt lat="53.9481313" lon="16.6002556">
<ele>159</ele>
<time>2017-12-19T15:14:25Z</time>
</trkpt>
<trkpt lat="53.9481313" lon="16.6002556">
<ele>159</ele>
<time>2017-12-19T15:14:31Z</time>
</trkpt>
<trkpt lat="53.9481313" lon="16.6002556">
<ele>159</ele>
<time>2017-12-19T15:14:37Z</time>
</trkpt>
<trkpt lat="53.9481313" lon="16.6002556">
<ele>159</ele>
<time>2017-12-19T15:14:43Z</time>
</trkpt>
<trkpt lat="53.9481313" lon="16.6002556">
<ele>159</ele>
<time>2017-12-19T15:14:49Z</time>
</trkpt>
<trkpt lat="53.9481313" lon="16.6002556">
<ele>159</ele>
<time>2017-12-19T15:14:55Z</time>
</trkpt>
<trkpt lat="53.9481331" lon="16.6002660">
<ele>159</ele>
<time>2017-12-19T15:15:01Z</time>
</trkpt>
<trkpt lat="53.9481206" lon="16.6002444">
<ele>159</ele>
<time>2017-12-19T15:15:07Z</time>
</trkpt>
<trkpt lat="53.9480948" lon="16.6002472">
<ele>158</ele>
<time>2017-12-19T15:15:13Z</time>
</trkpt>
<trkpt lat="53.9480948" lon="16.6002472">
<ele>158</ele>
<time>2017-12-19T15:15:19Z</time>
</trkpt>
<trkpt lat="53.9480948" lon="16.6002472">
<ele>158</ele>
<time>2017-12-19T15:15:25Z</time>
</trkpt>
<trkpt lat="53.9480866" lon="16.6002337">
<ele>157</ele>
<time>2017-12-19T15:15:31Z</time>
</trkpt>
<trkpt lat="53.9480866" lon="16.6002337">
<ele>157</ele>
<time>2017-12-19T15:15:37Z</time>
</trkpt>
<trkpt lat="53.9480870" lon="16.6002344">
<ele>157</ele>
<time>2017-12-19T15:15:43Z</time>
</trkpt>
<trkpt lat="53.9480870" lon="16.6002344">
<ele>157</ele>
<time>2017-12-19T15:15:49Z</time>
</trkpt>
<trkpt lat="53.9480870" lon="16.6002344">
<ele>157</ele>
<time>2017-12-19T15:15:55Z</time>
</trkpt>
<trkpt lat="53.9480870" lon="16.6002344">
<ele>157</ele>
<time>2017-12-19T15:16:01Z</time>
</trkpt>
<trkpt lat="53.9480870" lon="16.6002344">
<ele>157</ele>
<time>2017-12-19T15:16:07Z</time>
</trkpt>
<trkpt lat="53.9480699" lon="16.6002308">
<ele>157</ele>
<time>2017-12-19T15:16:13Z</time>
</trkpt>
<trkpt lat="53.9480409" lon="16.6002288">
<ele>159</ele>
<time>2017-12-19T15:16:25Z</time>
</trkpt>
<trkpt lat="53.9480277" lon="16.6002243">
<ele>159</ele>
<time>2017-12-19T15:16:31Z</time>
</trkpt>
<trkpt lat="53.9480184" lon="16.6002196">
<ele>159</ele>
<time>2017-12-19T15:16:37Z</time>
</trkpt>
<trkpt lat="53.9480218" lon="16.6002236">
<ele>159</ele>
<time>2017-12-19T15:16:43Z</time>
</trkpt>
<trkpt lat="53.9480207" lon="16.6002287">
<ele>159</ele>
<time>2017-12-19T15:16:49Z</time>
</trkpt>
<trkpt lat="53.9480183" lon="16.6002285">
<ele>159</ele>
<time>2017-12-19T15:16:55Z</time>
</trkpt>
<trkpt lat="53.9480183" lon="16.6002285">
<ele>159</ele>
<time>2017-12-19T15:17:01Z</time>
</trkpt>
<trkpt lat="53.9480183" lon="16.6002285">
<ele>159</ele>
<time>2017-12-19T15:17:07Z</time>
</trkpt>
<trkpt lat="53.9480175" lon="16.6002234">
<ele>159</ele>
<time>2017-12-19T15:17:13Z</time>
</trkpt>
<trkpt lat="53.9480175" lon="16.6002234">
<ele>159</ele>
<time>2017-12-19T15:17:19Z</time>
</trkpt>
<trkpt lat="53.9480175" lon="16.6002234">
<ele>159</ele>
<time>2017-12-19T15:17:25Z</time>
</trkpt>
<trkpt lat="53.9480175" lon="16.6002234">
<ele>159</ele>
<time>2017-12-19T15:17:31Z</time>
</trkpt>
<trkpt lat="53.9480181" lon="16.6002282">
<ele>160</ele>
<time>2017-12-19T15:17:37Z</time>
</trkpt>
<trkpt lat="53.9480536" lon="16.6002605">
<ele>161</ele>
<time>2017-12-19T15:17:43Z</time>
</trkpt>
<trkpt lat="53.9480721" lon="16.6002787">
<ele>163</ele>
<time>2017-12-19T15:17:49Z</time>
</trkpt>
<trkpt lat="53.9480721" lon="16.6002787">
<ele>163</ele>
<time>2017-12-19T15:17:55Z</time>
</trkpt>
<trkpt lat="53.9480721" lon="16.6002787">
<ele>163</ele>
<time>2017-12-19T15:18:01Z</time>
</trkpt>
<trkpt lat="53.9480721" lon="16.6002787">
<ele>163</ele>
<time>2017-12-19T15:18:07Z</time>
</trkpt>
<trkpt lat="53.9480721" lon="16.6002787">
<ele>163</ele>
<time>2017-12-19T15:18:13Z</time>
</trkpt>
<trkpt lat="53.9480721" lon="16.6002787">
<ele>163</ele>
<time>2017-12-19T15:18:19Z</time>
</trkpt>
<trkpt lat="53.9480721" lon="16.6002787">
<ele>163</ele>
<time>2017-12-19T15:18:25Z</time>
</trkpt>
<trkpt lat="53.9480721" lon="16.6002787">
<ele>163</ele>
<time>2017-12-19T15:18:31Z</time>
</trkpt>
<trkpt lat="53.9480721" lon="16.6002787">
<ele>163</ele>
<time>2017-12-19T15:18:37Z</time>
</trkpt>
<trkpt lat="53.9480721" lon="16.6002787">
<ele>163</ele>
<time>2017-12-19T15:18:43Z</time>
</trkpt>
<trkpt lat="53.9480112" lon="16.6002495">
<ele>161</ele>
<time>2017-12-19T15:18:49Z</time>
</trkpt>
<trkpt lat="53.9480112" lon="16.6002495">
<ele>161</ele>
<time>2017-12-19T15:18:55Z</time>
</trkpt>
<trkpt lat="53.9480112" lon="16.6002495">
<ele>161</ele>
<time>2017-12-19T15:19:01Z</time>
</trkpt>
<trkpt lat="53.9480112" lon="16.6002495">
<ele>161</ele>
<time>2017-12-19T15:19:07Z</time>
</trkpt>
<trkpt lat="53.9480112" lon="16.6002495">
<ele>161</ele>
<time>2017-12-19T15:19:13Z</time>
</trkpt>
<trkpt lat="53.9480112" lon="16.6002495">
<ele>161</ele>
<time>2017-12-19T15:19:19Z</time>
</trkpt>
<trkpt lat="53.9480112" lon="16.6002495">
<ele>161</ele>
<time>2017-12-19T15:19:25Z</time>
</trkpt>
<trkpt lat="53.9480112" lon="16.6002495">
<ele>161</ele>
<time>2017-12-19T15:19:31Z</time>
</trkpt>
<trkpt lat="53.9479935" lon="16.6002405">
<ele>162</ele>
<time>2017-12-19T15:19:37Z</time>
</trkpt>
<trkpt lat="53.9479926" lon="16.6002388">
<ele>162</ele>
<time>2017-12-19T15:19:43Z</time>
</trkpt>
<trkpt lat="53.9479926" lon="16.6002388">
<ele>162</ele>
<time>2017-12-19T15:19:49Z</time>
</trkpt>
<trkpt lat="53.9479926" lon="16.6002388">
<ele>162</ele>
<time>2017-12-19T15:19:55Z</time>
</trkpt>
<trkpt lat="53.9481789" lon="16.6002853">
<ele>153</ele>
<time>2017-12-19T15:20:01Z</time>
</trkpt>
<trkpt lat="53.9482128" lon="16.6003303">
<ele>161</ele>
<time>2017-12-19T15:20:07Z</time>
</trkpt>
<trkpt lat="53.9481642" lon="16.6004149">
<ele>161</ele>
<time>2017-12-19T15:20:13Z</time>
</trkpt>
<trkpt lat="53.9481622" lon="16.6004381">
<ele>160</ele>
<time>2017-12-19T15:20:19Z</time>
</trkpt>
<trkpt lat="53.9481622" lon="16.6004381">
<ele>160</ele>
<time>2017-12-19T15:20:25Z</time>
</trkpt>
<trkpt lat="53.9481588" lon="16.6004232">
<ele>160</ele>
<time>2017-12-19T15:20:31Z</time>
</trkpt>
<trkpt lat="53.9481633" lon="16.6004382">
<ele>160</ele>
<time>2017-12-19T15:20:37Z</time>
</trkpt>
<trkpt lat="53.9481633" lon="16.6004382">
<ele>160</ele>
<time>2017-12-19T15:20:43Z</time>
</trkpt>
<trkpt lat="53.9481633" lon="16.6004382">
<ele>160</ele>
<time>2017-12-19T15:20:49Z</time>
</trkpt>
<trkpt lat="53.9481633" lon="16.6004382">
<ele>160</ele>
<time>2017-12-19T15:20:55Z</time>
</trkpt>
<trkpt lat="53.9481633" lon="16.6004382">
<ele>160</ele>
<time>2017-12-19T15:21:01Z</time>
</trkpt>
<trkpt lat="53.9481633" lon="16.6004382">
<ele>160</ele>
<time>2017-12-19T15:21:07Z</time>
</trkpt>
<trkpt lat="53.9481633" lon="16.6004382">
<ele>160</ele>
<time>2017-12-19T15:21:13Z</time>
</trkpt>
<trkpt lat="53.9481633" lon="16.6004382">
<ele>160</ele>
<time>2017-12-19T15:21:19Z</time>
</trkpt>
<trkpt lat="53.9481633" lon="16.6004382">
<ele>160</ele>
<time>2017-12-19T15:21:25Z</time>
</trkpt>
<trkpt lat="53.9481633" lon="16.6004382">
<ele>160</ele>
<time>2017-12-19T15:21:31Z</time>
</trkpt>
<trkpt lat="53.9481633" lon="16.6004382">
<ele>160</ele>
<time>2017-12-19T15:21:37Z</time>
</trkpt>
<trkpt lat="53.9481633" lon="16.6004382">
<ele>160</ele>
<time>2017-12-19T15:21:43Z</time>
</trkpt>
<trkpt lat="53.9481633" lon="16.6004382">
<ele>160</ele>
<time>2017-12-19T15:21:49Z</time>
</trkpt>
<trkpt lat="53.9481633" lon="16.6004382">
<ele>160</ele>
<time>2017-12-19T15:21:55Z</time>
</trkpt>
<trkpt lat="53.9481633" lon="16.6004382">
<ele>160</ele>
<time>2017-12-19T15:22:01Z</time>
</trkpt>
<trkpt lat="53.9481554" lon="16.6004591">
<ele>160</ele>
<time>2017-12-19T15:22:07Z</time>
</trkpt>
<trkpt lat="53.9481653" lon="16.6005856">
<ele>163</ele>
<time>2017-12-19T15:22:13Z</time>
</trkpt>
<trkpt lat="53.9482492" lon="16.6003755">
<ele>163</ele>
<time>2017-12-19T15:22:19Z</time>
</trkpt>
<trkpt lat="53.9483267" lon="16.6001794">
<ele>163</ele>
<time>2017-12-19T15:22:25Z</time>
</trkpt>
<trkpt lat="53.9484191" lon="16.6002200">
<ele>164</ele>
<time>2017-12-19T15:22:31Z</time>
</trkpt>
<trkpt lat="53.9484898" lon="16.6004414">
<ele>167</ele>
<time>2017-12-19T15:22:37Z</time>
</trkpt>
<trkpt lat="53.9483116" lon="16.6009223">
<ele>169</ele>
<time>2017-12-19T15:22:43Z</time>
</trkpt>
<trkpt lat="53.9480148" lon="16.6016958">
<ele>171</ele>
<time>2017-12-19T15:22:49Z</time>
</trkpt>
<trkpt lat="53.9476588" lon="16.6026205">
<ele>173</ele>
<time>2017-12-19T15:22:55Z</time>
</trkpt>
<trkpt lat="53.9471817" lon="16.6038189">
<ele>173</ele>
<time>2017-12-19T15:23:01Z</time>
</trkpt>
<trkpt lat="53.9466435" lon="16.6051022">
<ele>172</ele>
<time>2017-12-19T15:23:07Z</time>
</trkpt>
<trkpt lat="53.9460957" lon="16.6064893">
<ele>170</ele>
<time>2017-12-19T15:23:13Z</time>
</trkpt>
<trkpt lat="53.9454353" lon="16.6077912">
<ele>169</ele>
<time>2017-12-19T15:23:19Z</time>
</trkpt>
<trkpt lat="53.9445408" lon="16.6087656">
<ele>168</ele>
<time>2017-12-19T15:23:25Z</time>
</trkpt>
<trkpt lat="53.9435619" lon="16.6096964">
<ele>168</ele>
<time>2017-12-19T15:23:31Z</time>
</trkpt>
<trkpt lat="53.9425736" lon="16.6106078">
<ele>168</ele>
<time>2017-12-19T15:23:37Z</time>
</trkpt>
<trkpt lat="53.9417661" lon="16.6115992">
<ele>168</ele>
<time>2017-12-19T15:23:43Z</time>
</trkpt>
<trkpt lat="53.9413441" lon="16.6130700">
<ele>168</ele>
<time>2017-12-19T15:23:49Z</time>
</trkpt>
<trkpt lat="53.9411210" lon="16.6145908">
<ele>168</ele>
<time>2017-12-19T15:23:55Z</time>
</trkpt>
<trkpt lat="53.9408910" lon="16.6161467">
<ele>168</ele>
<time>2017-12-19T15:24:01Z</time>
</trkpt>
<trkpt lat="53.9406538" lon="16.6177073">
<ele>168</ele>
<time>2017-12-19T15:24:07Z</time>
</trkpt>
<trkpt lat="53.9405859" lon="16.6192828">
<ele>166</ele>
<time>2017-12-19T15:24:13Z</time>
</trkpt>
<trkpt lat="53.9405979" lon="16.6209028">
<ele>166</ele>
<time>2017-12-19T15:24:19Z</time>
</trkpt>
<trkpt lat="53.9405395" lon="16.6225754">
<ele>165</ele>
<time>2017-12-19T15:24:25Z</time>
</trkpt>
<trkpt lat="53.9403789" lon="16.6242138">
<ele>165</ele>
<time>2017-12-19T15:24:31Z</time>
</trkpt>
<trkpt lat="53.9401287" lon="16.6256630">
<ele>164</ele>
<time>2017-12-19T15:24:37Z</time>
</trkpt>
<trkpt lat="53.9395491" lon="16.6267255">
<ele>163</ele>
<time>2017-12-19T15:24:43Z</time>
</trkpt>
<trkpt lat="53.9387366" lon="16.6273471">
<ele>164</ele>
<time>2017-12-19T15:24:49Z</time>
</trkpt>
<trkpt lat="53.9379396" lon="16.6280435">
<ele>169</ele>
<time>2017-12-19T15:24:55Z</time>
</trkpt>
<trkpt lat="53.9373932" lon="16.6293457">
<ele>172</ele>
<time>2017-12-19T15:25:01Z</time>
</trkpt>
<trkpt lat="53.9371743" lon="16.6309851">
<ele>174</ele>
<time>2017-12-19T15:25:07Z</time>
</trkpt>
<trkpt lat="53.9369413" lon="16.6326813">
<ele>177</ele>
<time>2017-12-19T15:25:13Z</time>
</trkpt>
<trkpt lat="53.9365041" lon="16.6343096">
<ele>180</ele>
<time>2017-12-19T15:25:19Z</time>
</trkpt>
<trkpt lat="53.9357996" lon="16.6356933">
<ele>185</ele>
<time>2017-12-19T15:25:25Z</time>
</trkpt>
<trkpt lat="53.9352294" lon="16.6372214">
<ele>190</ele>
<time>2017-12-19T15:25:31Z</time>
</trkpt>
<trkpt lat="53.9347744" lon="16.6387932">
<ele>194</ele>
<time>2017-12-19T15:25:37Z</time>
</trkpt>
<trkpt lat="53.9343724" lon="16.6400037">
<ele>194</ele>
<time>2017-12-19T15:25:43Z</time>
</trkpt>
<trkpt lat="53.9340708" lon="16.6411979">
<ele>193</ele>
<time>2017-12-19T15:25:49Z</time>
</trkpt>
<trkpt lat="53.9338472" lon="16.6427113">
<ele>191</ele>
<time>2017-12-19T15:25:55Z</time>
</trkpt>
<trkpt lat="53.9333821" lon="16.6442807">
<ele>191</ele>
<time>2017-12-19T15:26:01Z</time>
</trkpt>
<trkpt lat="53.9328879" lon="16.6458899">
<ele>194</ele>
<time>2017-12-19T15:26:07Z</time>
</trkpt>
<trkpt lat="53.9323896" lon="16.6474220">
<ele>198</ele>
<time>2017-12-19T15:26:13Z</time>
</trkpt>
<trkpt lat="53.9318092" lon="16.6487628">
<ele>197</ele>
<time>2017-12-19T15:26:19Z</time>
</trkpt>
<trkpt lat="53.9312135" lon="16.6502075">
<ele>193</ele>
<time>2017-12-19T15:26:25Z</time>
</trkpt>
<trkpt lat="53.9307677" lon="16.6519066">
<ele>193</ele>
<time>2017-12-19T15:26:31Z</time>
</trkpt>
<trkpt lat="53.9305611" lon="16.6537542">
<ele>198</ele>
<time>2017-12-19T15:26:37Z</time>
</trkpt>
<trkpt lat="53.9305172" lon="16.6555771">
<ele>202</ele>
<time>2017-12-19T15:26:43Z</time>
</trkpt>
<trkpt lat="53.9304869" lon="16.6574296">
<ele>205</ele>
<time>2017-12-19T15:26:49Z</time>
</trkpt>
<trkpt lat="53.9302626" lon="16.6592508">
<ele>203</ele>
<time>2017-12-19T15:26:55Z</time>
</trkpt>
<trkpt lat="53.9296529" lon="16.6608791">
<ele>202</ele>
<time>2017-12-19T15:27:01Z</time>
</trkpt>
<trkpt lat="53.9288099" lon="16.6624165">
<ele>199</ele>
<time>2017-12-19T15:27:07Z</time>
</trkpt>
<trkpt lat="53.9280917" lon="16.6641506">
<ele>199</ele>
<time>2017-12-19T15:27:13Z</time>
</trkpt>
<trkpt lat="53.9276946" lon="16.6662244">
<ele>197</ele>
<time>2017-12-19T15:27:19Z</time>
</trkpt>
<trkpt lat="53.9272930" lon="16.6683069">
<ele>196</ele>
<time>2017-12-19T15:27:25Z</time>
</trkpt>
<trkpt lat="53.9268567" lon="16.6704323">
<ele>196</ele>
<time>2017-12-19T15:27:31Z</time>
</trkpt>
<trkpt lat="53.9264270" lon="16.6725922">
<ele>196</ele>
<time>2017-12-19T15:27:37Z</time>
</trkpt>
<trkpt lat="53.9260041" lon="16.6747809">
<ele>198</ele>
<time>2017-12-19T15:27:43Z</time>
</trkpt>
<trkpt lat="53.9255571" lon="16.6769692">
<ele>201</ele>
<time>2017-12-19T15:27:49Z</time>
</trkpt>
<trkpt lat="53.9251087" lon="16.6791452">
<ele>205</ele>
<time>2017-12-19T15:27:55Z</time>
</trkpt>
<trkpt lat="53.9246681" lon="16.6813250">
<ele>209</ele>
<time>2017-12-19T15:28:01Z</time>
</trkpt>
<trkpt lat="53.9242488" lon="16.6835076">
<ele>214</ele>
<time>2017-12-19T15:28:07Z</time>
</trkpt>
<trkpt lat="53.9238111" lon="16.6856459">
<ele>214</ele>
<time>2017-12-19T15:28:13Z</time>
</trkpt>
<trkpt lat="53.9233760" lon="16.6878073">
<ele>214</ele>
<time>2017-12-19T15:28:19Z</time>
</trkpt>
<trkpt lat="53.9229351" lon="16.6899577">
<ele>216</ele>
<time>2017-12-19T15:28:25Z</time>
</trkpt>
<trkpt lat="53.9225049" lon="16.6920594">
<ele>216</ele>
<time>2017-12-19T15:28:31Z</time>
</trkpt>
<trkpt lat="53.9220643" lon="16.6942050">
<ele>213</ele>
<time>2017-12-19T15:28:37Z</time>
</trkpt>
<trkpt lat="53.9216081" lon="16.6964036">
<ele>210</ele>
<time>2017-12-19T15:28:43Z</time>
</trkpt>
<trkpt lat="53.9211686" lon="16.6985497">
<ele>210</ele>
<time>2017-12-19T15:28:49Z</time>
</trkpt>
<trkpt lat="53.9207769" lon="16.7005512">
<ele>213</ele>
<time>2017-12-19T15:28:55Z</time>
</trkpt>
<trkpt lat="53.9203911" lon="16.7024780">
<ele>214</ele>
<time>2017-12-19T15:29:01Z</time>
</trkpt>
<trkpt lat="53.9201051" lon="16.7038140">
<ele>215</ele>
<time>2017-12-19T15:29:07Z</time>
</trkpt>
<trkpt lat="53.9199583" lon="16.7043016">
<ele>215</ele>
<time>2017-12-19T15:29:13Z</time>
</trkpt>
<trkpt lat="53.9199546" lon="16.7043139">
<ele>215</ele>
<time>2017-12-19T15:29:19Z</time>
</trkpt>
<trkpt lat="53.9199546" lon="16.7043139">
<ele>215</ele>
<time>2017-12-19T15:29:25Z</time>
</trkpt>
<trkpt lat="53.9199546" lon="16.7043139">
<ele>215</ele>
<time>2017-12-19T15:29:31Z</time>
</trkpt>
<trkpt lat="53.9199546" lon="16.7043139">
<ele>215</ele>
<time>2017-12-19T15:29:37Z</time>
</trkpt>
<trkpt lat="53.9199546" lon="16.7043139">
<ele>215</ele>
<time>2017-12-19T15:29:43Z</time>
</trkpt>
<trkpt lat="53.9199546" lon="16.7043139">
<ele>215</ele>
<time>2017-12-19T15:29:49Z</time>
</trkpt>
<trkpt lat="53.9199546" lon="16.7043139">
<ele>215</ele>
<time>2017-12-19T15:29:55Z</time>
</trkpt>
<trkpt lat="53.9199546" lon="16.7043139">
<ele>215</ele>
<time>2017-12-19T15:30:01Z</time>
</trkpt>
<trkpt lat="53.9199636" lon="16.7043310">
<ele>216</ele>
<time>2017-12-19T15:30:07Z</time>
</trkpt>
<trkpt lat="53.9199650" lon="16.7043552">
<ele>216</ele>
<time>2017-12-19T15:30:13Z</time>
</trkpt>
<trkpt lat="53.9199856" lon="16.7043690">
<ele>216</ele>
<time>2017-12-19T15:30:19Z</time>
</trkpt>
<trkpt lat="53.9199865" lon="16.7043717">
<ele>217</ele>
<time>2017-12-19T15:30:25Z</time>
</trkpt>
<trkpt lat="53.9199865" lon="16.7043717">
<ele>217</ele>
<time>2017-12-19T15:30:31Z</time>
</trkpt>
<trkpt lat="53.9199865" lon="16.7043717">
<ele>217</ele>
<time>2017-12-19T15:30:37Z</time>
</trkpt>
<trkpt lat="53.9199865" lon="16.7043717">
<ele>217</ele>
<time>2017-12-19T15:30:43Z</time>
</trkpt>
<trkpt lat="53.9199865" lon="16.7043717">
<ele>217</ele>
<time>2017-12-19T15:30:49Z</time>
</trkpt>
<trkpt lat="53.9199865" lon="16.7043717">
<ele>217</ele>
<time>2017-12-19T15:30:55Z</time>
</trkpt>
<trkpt lat="53.9199865" lon="16.7043717">
<ele>217</ele>
<time>2017-12-19T15:31:01Z</time>
</trkpt>
<trkpt lat="53.9199865" lon="16.7043717">
<ele>217</ele>
<time>2017-12-19T15:31:07Z</time>
</trkpt>
<trkpt lat="53.9199865" lon="16.7043717">
<ele>217</ele>
<time>2017-12-19T15:31:13Z</time>
</trkpt>
<trkpt lat="53.9199751" lon="16.7044103">
<ele>216</ele>
<time>2017-12-19T15:31:19Z</time>
</trkpt>
<trkpt lat="53.9199311" lon="16.7048405">
<ele>214</ele>
<time>2017-12-19T15:31:25Z</time>
</trkpt>
<trkpt lat="53.9198033" lon="16.7056050">
<ele>215</ele>
<time>2017-12-19T15:31:31Z</time>
</trkpt>
<trkpt lat="53.9196260" lon="16.7066502">
<ele>212</ele>
<time>2017-12-19T15:31:37Z</time>
</trkpt>
<trkpt lat="53.9193779" lon="16.7079955">
<ele>211</ele>
<time>2017-12-19T15:31:43Z</time>
</trkpt>
<trkpt lat="53.9190762" lon="16.7095083">
<ele>212</ele>
<time>2017-12-19T15:31:49Z</time>
</trkpt>
<trkpt lat="53.9187086" lon="16.7112855">
<ele>212</ele>
<time>2017-12-19T15:31:55Z</time>
</trkpt>
<trkpt lat="53.9183270" lon="16.7130574">
<ele>215</ele>
<time>2017-12-19T15:32:01Z</time>
</trkpt>
<trkpt lat="53.9179444" lon="16.7149197">
<ele>216</ele>
<time>2017-12-19T15:32:07Z</time>
</trkpt>
<trkpt lat="53.9175673" lon="16.7168430">
<ele>215</ele>
<time>2017-12-19T15:32:13Z</time>
</trkpt>
<trkpt lat="53.9171547" lon="16.7188055">
<ele>215</ele>
<time>2017-12-19T15:32:19Z</time>
</trkpt>
<trkpt lat="53.9167484" lon="16.7207012">
<ele>214</ele>
<time>2017-12-19T15:32:25Z</time>
</trkpt>
<trkpt lat="53.9163762" lon="16.7225906">
<ele>214</ele>
<time>2017-12-19T15:32:31Z</time>
</trkpt>
<trkpt lat="53.9159936" lon="16.7245166">
<ele>214</ele>
<time>2017-12-19T15:32:37Z</time>
</trkpt>
<trkpt lat="53.9156206" lon="16.7264014">
<ele>215</ele>
<time>2017-12-19T15:32:43Z</time>
</trkpt>
<trkpt lat="53.9152467" lon="16.7282567">
<ele>214</ele>
<time>2017-12-19T15:32:49Z</time>
</trkpt>
<trkpt lat="53.9148277" lon="16.7300853">
<ele>215</ele>
<time>2017-12-19T15:32:55Z</time>
</trkpt>
<trkpt lat="53.9142673" lon="16.7317865">
<ele>215</ele>
<time>2017-12-19T15:33:01Z</time>
</trkpt>
<trkpt lat="53.9137122" lon="16.7335076">
<ele>213</ele>
<time>2017-12-19T15:33:07Z</time>
</trkpt>
<trkpt lat="53.9131815" lon="16.7352473">
<ele>213</ele>
<time>2017-12-19T15:33:13Z</time>
</trkpt>
<trkpt lat="53.9126606" lon="16.7369437">
<ele>216</ele>
<time>2017-12-19T15:33:19Z</time>
</trkpt>
<trkpt lat="53.9121473" lon="16.7386227">
<ele>218</ele>
<time>2017-12-19T15:33:25Z</time>
</trkpt>
<trkpt lat="53.9116035" lon="16.7403742">
<ele>216</ele>
<time>2017-12-19T15:33:31Z</time>
</trkpt>
<trkpt lat="53.9110265" lon="16.7421384">
<ele>216</ele>
<time>2017-12-19T15:33:37Z</time>
</trkpt>
<trkpt lat="53.9104719" lon="16.7438888">
<ele>215</ele>
<time>2017-12-19T15:33:43Z</time>
</trkpt>
<trkpt lat="53.9097937" lon="16.7454617">
<ele>215</ele>
<time>2017-12-19T15:33:49Z</time>
</trkpt>
<trkpt lat="53.9089767" lon="16.7468132">
<ele>216</ele>
<time>2017-12-19T15:33:55Z</time>
</trkpt>
<trkpt lat="53.9081792" lon="16.7481477">
<ele>216</ele>
<time>2017-12-19T15:34:01Z</time>
</trkpt>
<trkpt lat="53.9074049" lon="16.7494637">
<ele>215</ele>
<time>2017-12-19T15:34:07Z</time>
</trkpt>
<trkpt lat="53.9068446" lon="16.7510133">
<ele>213</ele>
<time>2017-12-19T15:34:13Z</time>
</trkpt>
<trkpt lat="53.9066415" lon="16.7527427">
<ele>213</ele>
<time>2017-12-19T15:34:19Z</time>
</trkpt>
<trkpt lat="53.9064229" lon="16.7545438">
<ele>213</ele>
<time>2017-12-19T15:34:25Z</time>
</trkpt>
<trkpt lat="53.9062008" lon="16.7564031">
<ele>215</ele>
<time>2017-12-19T15:34:31Z</time>
</trkpt>
<trkpt lat="53.9059788" lon="16.7582883">
<ele>216</ele>
<time>2017-12-19T15:34:37Z</time>
</trkpt>
<trkpt lat="53.9057480" lon="16.7602038">
<ele>216</ele>
<time>2017-12-19T15:34:43Z</time>
</trkpt>
<trkpt lat="53.9055097" lon="16.7621570">
<ele>214</ele>
<time>2017-12-19T15:34:49Z</time>
</trkpt>
<trkpt lat="53.9052703" lon="16.7641410">
<ele>213</ele>
<time>2017-12-19T15:34:55Z</time>
</trkpt>
<trkpt lat="53.9050241" lon="16.7661295">
<ele>212</ele>
<time>2017-12-19T15:35:01Z</time>
</trkpt>
<trkpt lat="53.9047814" lon="16.7681386">
<ele>212</ele>
<time>2017-12-19T15:35:07Z</time>
</trkpt>
<trkpt lat="53.9045634" lon="16.7701095">
<ele>212</ele>
<time>2017-12-19T15:35:13Z</time>
</trkpt>
<trkpt lat="53.9043538" lon="16.7719221">
<ele>210</ele>
<time>2017-12-19T15:35:19Z</time>
</trkpt>
<trkpt lat="53.9041303" lon="16.7737163">
<ele>210</ele>
<time>2017-12-19T15:35:25Z</time>
</trkpt>
<trkpt lat="53.9039108" lon="16.7755421">
<ele>209</ele>
<time>2017-12-19T15:35:31Z</time>
</trkpt>
<trkpt lat="53.9036872" lon="16.7774069">
<ele>208</ele>
<time>2017-12-19T15:35:37Z</time>
</trkpt>
<trkpt lat="53.9034544" lon="16.7793023">
<ele>208</ele>
<time>2017-12-19T15:35:43Z</time>
</trkpt>
<trkpt lat="53.9032238" lon="16.7812484">
<ele>207</ele>
<time>2017-12-19T15:35:49Z</time>
</trkpt>
<trkpt lat="53.9029783" lon="16.7832496">
<ele>206</ele>
<time>2017-12-19T15:35:55Z</time>
</trkpt>
<trkpt lat="53.9027400" lon="16.7852851">
<ele>206</ele>
<time>2017-12-19T15:36:01Z</time>
</trkpt>
<trkpt lat="53.9025085" lon="16.7873149">
<ele>207</ele>
<time>2017-12-19T15:36:07Z</time>
</trkpt>
<trkpt lat="53.9022644" lon="16.7893518">
<ele>206</ele>
<time>2017-12-19T15:36:13Z</time>
</trkpt>
<trkpt lat="53.9020044" lon="16.7914745">
<ele>202</ele>
<time>2017-12-19T15:36:19Z</time>
</trkpt>
<trkpt lat="53.9017386" lon="16.7936550">
<ele>200</ele>
<time>2017-12-19T15:36:25Z</time>
</trkpt>
<trkpt lat="53.9014782" lon="16.7958663">
<ele>200</ele>
<time>2017-12-19T15:36:31Z</time>
</trkpt>
<trkpt lat="53.9012183" lon="16.7980489">
<ele>201</ele>
<time>2017-12-19T15:36:37Z</time>
</trkpt>
<trkpt lat="53.9009618" lon="16.8002100">
<ele>206</ele>
<time>2017-12-19T15:36:43Z</time>
</trkpt>
<trkpt lat="53.9007084" lon="16.8023479">
<ele>208</ele>
<time>2017-12-19T15:36:49Z</time>
</trkpt>
<trkpt lat="53.9004574" lon="16.8045091">
<ele>207</ele>
<time>2017-12-19T15:36:55Z</time>
</trkpt>
<trkpt lat="53.9001860" lon="16.8067128">
<ele>209</ele>
<time>2017-12-19T15:37:01Z</time>
</trkpt>
<trkpt lat="53.8999221" lon="16.8088777">
<ele>210</ele>
<time>2017-12-19T15:37:07Z</time>
</trkpt>
<trkpt lat="53.8996649" lon="16.8110612">
<ele>210</ele>
<time>2017-12-19T15:37:13Z</time>
</trkpt>
<trkpt lat="53.8993978" lon="16.8132607">
<ele>211</ele>
<time>2017-12-19T15:37:19Z</time>
</trkpt>
<trkpt lat="53.8991337" lon="16.8154410">
<ele>211</ele>
<time>2017-12-19T15:37:25Z</time>
</trkpt>
<trkpt lat="53.8988721" lon="16.8175972">
<ele>212</ele>
<time>2017-12-19T15:37:31Z</time>
</trkpt>
<trkpt lat="53.8986172" lon="16.8197593">
<ele>212</ele>
<time>2017-12-19T15:37:37Z</time>
</trkpt>
<trkpt lat="53.8979" lon="16.826">
<ele>206</ele>
<time>2017-12-19T15:37:55Z</time>
</trkpt>
<trkpt lat="53.8977" lon="16.8277">
<ele>205</ele>
<time>2017-12-19T15:38:01Z</time>
</trkpt>
<trkpt lat="53.8975" lon="16.8289">
<ele>203</ele>
<time>2017-12-19T15:38:07Z</time>
</trkpt>
<trkpt lat="53.8973" lon="16.8299">
<ele>200</ele>
<time>2017-12-19T15:38:13Z</time>
</trkpt>
<trkpt lat="53.8970950" lon="16.8308121">
<ele>197</ele>
<time>2017-12-19T15:38:19Z</time>
</trkpt>
<trkpt lat="53.8966281" lon="16.8313968">
<ele>192</ele>
<time>2017-12-19T15:38:25Z</time>
</trkpt>
<trkpt lat="53.8960605" lon="16.8318696">
<ele>191</ele>
<time>2017-12-19T15:38:31Z</time>
</trkpt>
<trkpt lat="53.8957703" lon="16.8326199">
<ele>190</ele>
<time>2017-12-19T15:38:37Z</time>
</trkpt>
<trkpt lat="53.8959181" lon="16.8335101">
<ele>187</ele>
<time>2017-12-19T15:38:43Z</time>
</trkpt>
<trkpt lat="53.8961206" lon="16.8343848">
<ele>188</ele>
<time>2017-12-19T15:38:49Z</time>
</trkpt>
<trkpt lat="53.8963032" lon="16.8350922">
<ele>189</ele>
<time>2017-12-19T15:38:55Z</time>
</trkpt>
<trkpt lat="53.8963578" lon="16.8354499">
<ele>186</ele>
<time>2017-12-19T15:39:01Z</time>
</trkpt>
<trkpt lat="53.8960845" lon="16.8356238">
<ele>183</ele>
<time>2017-12-19T15:39:07Z</time>
</trkpt>
<trkpt lat="53.8958393" lon="16.8360572">
<ele>183</ele>
<time>2017-12-19T15:39:13Z</time>
</trkpt>
<trkpt lat="53.8958015" lon="16.8366498">
<ele>183</ele>
<time>2017-12-19T15:39:19Z</time>
</trkpt>
<trkpt lat="53.8957139" lon="16.8371331">
<ele>186</ele>
<time>2017-12-19T15:39:25Z</time>
</trkpt>
<trkpt lat="53.8954533" lon="16.8374349">
<ele>185</ele>
<time>2017-12-19T15:39:31Z</time>
</trkpt>
<trkpt lat="53.8949506" lon="16.8377142">
<ele>188</ele>
<time>2017-12-19T15:39:37Z</time>
</trkpt>
<trkpt lat="53.8943265" lon="16.8380596">
<ele>191</ele>
<time>2017-12-19T15:39:43Z</time>
</trkpt>
<trkpt lat="53.8937676" lon="16.8383655">
<ele>194</ele>
<time>2017-12-19T15:39:49Z</time>
</trkpt>
<trkpt lat="53.8935768" lon="16.8391502">
<ele>197</ele>
<time>2017-12-19T15:39:55Z</time>
</trkpt>
<trkpt lat="53.8939488" lon="16.8398014">
<ele>195</ele>
<time>2017-12-19T15:40:01Z</time>
</trkpt>
<trkpt lat="53.8945305" lon="16.8399084">
<ele>195</ele>
<time>2017-12-19T15:40:07Z</time>
</trkpt>
<trkpt lat="53.8949878" lon="16.8405628">
<ele>197</ele>
<time>2017-12-19T15:40:13Z</time>
</trkpt>
<trkpt lat="53.8951439" lon="16.8414645">
<ele>198</ele>
<time>2017-12-19T15:40:19Z</time>
</trkpt>
<trkpt lat="53.8950297" lon="16.8424320">
<ele>202</ele>
<time>2017-12-19T15:40:25Z</time>
</trkpt>
<trkpt lat="53.8947908" lon="16.8433718">
<ele>202</ele>
<time>2017-12-19T15:40:31Z</time>
</trkpt>
<trkpt lat="53.8945581" lon="16.8439832">
<ele>204</ele>
<time>2017-12-19T15:40:37Z</time>
</trkpt>
<trkpt lat="53.8943352" lon="16.8443358">
<ele>201</ele>
<time>2017-12-19T15:40:43Z</time>
</trkpt>
<trkpt lat="53.8938300" lon="16.8448821">
<ele>204</ele>
<time>2017-12-19T15:40:49Z</time>
</trkpt>
<trkpt lat="53.8931462" lon="16.8456137">
<ele>206</ele>
<time>2017-12-19T15:40:55Z</time>
</trkpt>
<trkpt lat="53.8924218" lon="16.8464128">
<ele>207</ele>
<time>2017-12-19T15:41:01Z</time>
</trkpt>
<trkpt lat="53.8915729" lon="16.8473278">
<ele>207</ele>
<time>2017-12-19T15:41:07Z</time>
</trkpt>
<trkpt lat="53.8906731" lon="16.8482809">
<ele>207</ele>
<time>2017-12-19T15:41:13Z</time>
</trkpt>
<trkpt lat="53.8896465" lon="16.8493550">
<ele>208</ele>
<time>2017-12-19T15:41:19Z</time>
</trkpt>
<trkpt lat="53.8885925" lon="16.8505128">
<ele>208</ele>
<time>2017-12-19T15:41:25Z</time>
</trkpt>
<trkpt lat="53.8875527" lon="16.8516437">
<ele>207</ele>
<time>2017-12-19T15:41:31Z</time>
</trkpt>
<trkpt lat="53.8865599" lon="16.8527036">
<ele>207</ele>
<time>2017-12-19T15:41:37Z</time>
</trkpt>
<trkpt lat="53.8856499" lon="16.8536978">
<ele>206</ele>
<time>2017-12-19T15:41:43Z</time>
</trkpt>
<trkpt lat="53.8848162" lon="16.8545993">
<ele>207</ele>
<time>2017-12-19T15:41:49Z</time>
</trkpt>
<trkpt lat="53.8840696" lon="16.8554233">
<ele>206</ele>
<time>2017-12-19T15:41:55Z</time>
</trkpt>
<trkpt lat="53.8832183" lon="16.8563420">
<ele>206</ele>
<time>2017-12-19T15:42:01Z</time>
</trkpt>
<trkpt lat="53.8822660" lon="16.8573781">
<ele>206</ele>
<time>2017-12-19T15:42:07Z</time>
</trkpt>
<trkpt lat="53.8812479" lon="16.8584657">
<ele>206</ele>
<time>2017-12-19T15:42:13Z</time>
</trkpt>
<trkpt lat="53.8801950" lon="16.8596016">
<ele>206</ele>
<time>2017-12-19T15:42:19Z</time>
</trkpt>
<trkpt lat="53.8791213" lon="16.8607559">
<ele>207</ele>
<time>2017-12-19T15:42:25Z</time>
</trkpt>
<trkpt lat="53.8780272" lon="16.8619380">
<ele>207</ele>
<time>2017-12-19T15:42:31Z</time>
</trkpt>
<trkpt lat="53.8769209" lon="16.8631387">
<ele>207</ele>
<time>2017-12-19T15:42:37Z</time>
</trkpt>
<trkpt lat="53.8758253" lon="16.8643331">
<ele>207</ele>
<time>2017-12-19T15:42:43Z</time>
</trkpt>
<trkpt lat="53.8747473" lon="16.8655055">
<ele>206</ele>
<time>2017-12-19T15:42:49Z</time>
</trkpt>
<trkpt lat="53.8736621" lon="16.8667084">
<ele>205</ele>
<time>2017-12-19T15:42:55Z</time>
</trkpt>
<trkpt lat="53.8725407" lon="16.8679298">
<ele>204</ele>
<time>2017-12-19T15:43:01Z</time>
</trkpt>
<trkpt lat="53.8714274" lon="16.8691450">
<ele>203</ele>
<time>2017-12-19T15:43:07Z</time>
</trkpt>
<trkpt lat="53.8703445" lon="16.8703424">
<ele>201</ele>
<time>2017-12-19T15:43:13Z</time>
</trkpt>
<trkpt lat="53.8692830" lon="16.8715194">
<ele>201</ele>
<time>2017-12-19T15:43:19Z</time>
</trkpt>
<trkpt lat="53.8682400" lon="16.8726749">
<ele>201</ele>
<time>2017-12-19T15:43:25Z</time>
</trkpt>
<trkpt lat="53.8672360" lon="16.8737990">
<ele>203</ele>
<time>2017-12-19T15:43:31Z</time>
</trkpt>
<trkpt lat="53.8662678" lon="16.8748964">
<ele>203</ele>
<time>2017-12-19T15:43:37Z</time>
</trkpt>
<trkpt lat="53.8653006" lon="16.8759772">
<ele>202</ele>
<time>2017-12-19T15:43:43Z</time>
</trkpt>
<trkpt lat="53.8643276" lon="16.8770776">
<ele>202</ele>
<time>2017-12-19T15:43:49Z</time>
</trkpt>
<trkpt lat="53.8633307" lon="16.8781842">
<ele>201</ele>
<time>2017-12-19T15:43:55Z</time>
</trkpt>
<trkpt lat="53.8613026" lon="16.8804462">
<ele>202</ele>
<time>2017-12-19T15:44:07Z</time>
</trkpt>
<trkpt lat="53.8602911" lon="16.8815696">
<ele>202</ele>
<time>2017-12-19T15:44:13Z</time>
</trkpt>
<trkpt lat="53.8592776" lon="16.8826967">
<ele>203</ele>
<time>2017-12-19T15:44:19Z</time>
</trkpt>
<trkpt lat="53.8582685" lon="16.8838186">
<ele>202</ele>
<time>2017-12-19T15:44:25Z</time>
</trkpt>
<trkpt lat="53.8572701" lon="16.8849265">
<ele>201</ele>
<time>2017-12-19T15:44:31Z</time>
</trkpt>
<trkpt lat="53.8562616" lon="16.8860673">
<ele>200</ele>
<time>2017-12-19T15:44:37Z</time>
</trkpt>
<trkpt lat="53.8552349" lon="16.8872159">
<ele>200</ele>
<time>2017-12-19T15:44:43Z</time>
</trkpt>
<trkpt lat="53.8541915" lon="16.8883642">
<ele>199</ele>
<time>2017-12-19T15:44:49Z</time>
</trkpt>
<trkpt lat="53.8531274" lon="16.8895343">
<ele>198</ele>
<time>2017-12-19T15:44:55Z</time>
</trkpt>
<trkpt lat="53.8520607" lon="16.8907087">
<ele>198</ele>
<time>2017-12-19T15:45:01Z</time>
</trkpt>
<trkpt lat="53.8509800" lon="16.8918954">
<ele>197</ele>
<time>2017-12-19T15:45:07Z</time>
</trkpt>
<trkpt lat="53.8499001" lon="16.8931005">
<ele>197</ele>
<time>2017-12-19T15:45:13Z</time>
</trkpt>
<trkpt lat="53.8488350" lon="16.8942877">
<ele>197</ele>
<time>2017-12-19T15:45:19Z</time>
</trkpt>
<trkpt lat="53.8477871" lon="16.8954655">
<ele>196</ele>
<time>2017-12-19T15:45:25Z</time>
</trkpt>
<trkpt lat="53.8467378" lon="16.8966368">
<ele>196</ele>
<time>2017-12-19T15:45:31Z</time>
</trkpt>
<trkpt lat="53.8458834" lon="16.8981165">
<ele>195</ele>
<time>2017-12-19T15:45:37Z</time>
</trkpt>
<trkpt lat="53.8452271" lon="16.8997799">
<ele>194</ele>
<time>2017-12-19T15:45:43Z</time>
</trkpt>
<trkpt lat="53.8445675" lon="16.9014421">
<ele>193</ele>
<time>2017-12-19T15:45:49Z</time>
</trkpt>
<trkpt lat="53.8438805" lon="16.9031675">
<ele>193</ele>
<time>2017-12-19T15:45:55Z</time>
</trkpt>
<trkpt lat="53.8432142" lon="16.9048974">
<ele>193</ele>
<time>2017-12-19T15:46:01Z</time>
</trkpt>
<trkpt lat="53.8425599" lon="16.9065871">
<ele>192</ele>
<time>2017-12-19T15:46:07Z</time>
</trkpt>
<trkpt lat="53.8419083" lon="16.9082450">
<ele>192</ele>
<time>2017-12-19T15:46:13Z</time>
</trkpt>
<trkpt lat="53.8412540" lon="16.9099092">
<ele>190</ele>
<time>2017-12-19T15:46:19Z</time>
</trkpt>
<trkpt lat="53.8405958" lon="16.9115490">
<ele>190</ele>
<time>2017-12-19T15:46:25Z</time>
</trkpt>
<trkpt lat="53.8399732" lon="16.9130964">
<ele>190</ele>
<time>2017-12-19T15:46:31Z</time>
</trkpt>
<trkpt lat="53.8394351" lon="16.9144831">
<ele>189</ele>
<time>2017-12-19T15:46:37Z</time>
</trkpt>
<trkpt lat="53.8391064" lon="16.9158744">
<ele>188</ele>
<time>2017-12-19T15:46:43Z</time>
</trkpt>
<trkpt lat="53.8388438" lon="16.9172017">
<ele>187</ele>
<time>2017-12-19T15:46:49Z</time>
</trkpt>
<trkpt lat="53.8385979" lon="16.9184479">
<ele>188</ele>
<time>2017-12-19T15:46:55Z</time>
</trkpt>
<trkpt lat="53.8383208" lon="16.9196171">
<ele>187</ele>
<time>2017-12-19T15:47:01Z</time>
</trkpt>
<trkpt lat="53.8380338" lon="16.9207644">
<ele>187</ele>
<time>2017-12-19T15:47:07Z</time>
</trkpt>
<trkpt lat="53.8377887" lon="16.9219515">
<ele>186</ele>
<time>2017-12-19T15:47:13Z</time>
</trkpt>
<trkpt lat="53.8375502" lon="16.9230639">
<ele>187</ele>
<time>2017-12-19T15:47:19Z</time>
</trkpt>
<trkpt lat="53.8372464" lon="16.9239956">
<ele>186</ele>
<time>2017-12-19T15:47:25Z</time>
</trkpt>
<trkpt lat="53.8368758" lon="16.9248423">
<ele>187</ele>
<time>2017-12-19T15:47:31Z</time>
</trkpt>
<trkpt lat="53.8365590" lon="16.9257310">
<ele>188</ele>
<time>2017-12-19T15:47:37Z</time>
</trkpt>
<trkpt lat="53.8362169" lon="16.9266283">
<ele>188</ele>
<time>2017-12-19T15:47:43Z</time>
</trkpt>
<trkpt lat="53.8358646" lon="16.9275516">
<ele>189</ele>
<time>2017-12-19T15:47:49Z</time>
</trkpt>
<trkpt lat="53.8355126" lon="16.9284814">
<ele>190</ele>
<time>2017-12-19T15:47:55Z</time>
</trkpt>
<trkpt lat="53.8351634" lon="16.9294472">
<ele>190</ele>
<time>2017-12-19T15:48:01Z</time>
</trkpt>
<trkpt lat="53.8347988" lon="16.9304657">
<ele>191</ele>
<time>2017-12-19T15:48:07Z</time>
</trkpt>
<trkpt lat="53.8343535" lon="16.9315302">
<ele>190</ele>
<time>2017-12-19T15:48:13Z</time>
</trkpt>
<trkpt lat="53.8337140" lon="16.9325218">
<ele>188</ele>
<time>2017-12-19T15:48:19Z</time>
</trkpt>
<trkpt lat="53.8330227" lon="16.9335942">
<ele>187</ele>
<time>2017-12-19T15:48:25Z</time>
</trkpt>
<trkpt lat="53.8322676" lon="16.9347792">
<ele>187</ele>
<time>2017-12-19T15:48:31Z</time>
</trkpt>
<trkpt lat="53.8314636" lon="16.9359640">
<ele>189</ele>
<time>2017-12-19T15:48:37Z</time>
</trkpt>
<trkpt lat="53.8306072" lon="16.9370947">
<ele>192</ele>
<time>2017-12-19T15:48:43Z</time>
</trkpt>
<trkpt lat="53.8297255" lon="16.9382922">
<ele>192</ele>
<time>2017-12-19T15:48:49Z</time>
</trkpt>
<trkpt lat="53.8288005" lon="16.9395468">
<ele>190</ele>
<time>2017-12-19T15:48:55Z</time>
</trkpt>
<trkpt lat="53.8278522" lon="16.9408174">
<ele>190</ele>
<time>2017-12-19T15:49:01Z</time>
</trkpt>
<trkpt lat="53.8269100" lon="16.9421153">
<ele>190</ele>
<time>2017-12-19T15:49:07Z</time>
</trkpt>
<trkpt lat="53.8259424" lon="16.9434288">
<ele>189</ele>
<time>2017-12-19T15:49:13Z</time>
</trkpt>
<trkpt lat="53.8249674" lon="16.9447478">
<ele>189</ele>
<time>2017-12-19T15:49:19Z</time>
</trkpt>
<trkpt lat="53.8239888" lon="16.9460597">
<ele>189</ele>
<time>2017-12-19T15:49:25Z</time>
</trkpt>
<trkpt lat="53.8230307" lon="16.9473544">
<ele>189</ele>
<time>2017-12-19T15:49:31Z</time>
</trkpt>
<trkpt lat="53.8221021" lon="16.9485968">
<ele>188</ele>
<time>2017-12-19T15:49:37Z</time>
</trkpt>
<trkpt lat="53.8213412" lon="16.9499833">
<ele>188</ele>
<time>2017-12-19T15:49:43Z</time>
</trkpt>
<trkpt lat="53.8208982" lon="16.9517801">
<ele>186</ele>
<time>2017-12-19T15:49:49Z</time>
</trkpt>
<trkpt lat="53.8204005" lon="16.9536577">
<ele>184</ele>
<time>2017-12-19T15:49:55Z</time>
</trkpt>
<trkpt lat="53.8198825" lon="16.9556116">
<ele>184</ele>
<time>2017-12-19T15:50:01Z</time>
</trkpt>
<trkpt lat="53.8193714" lon="16.9575840">
<ele>184</ele>
<time>2017-12-19T15:50:07Z</time>
</trkpt>
<trkpt lat="53.8188586" lon="16.9595596">
<ele>183</ele>
<time>2017-12-19T15:50:13Z</time>
</trkpt>
<trkpt lat="53.8183694" lon="16.9614791">
<ele>183</ele>
<time>2017-12-19T15:50:19Z</time>
</trkpt>
<trkpt lat="53.8178850" lon="16.9633390">
<ele>182</ele>
<time>2017-12-19T15:50:25Z</time>
</trkpt>
<trkpt lat="53.8173938" lon="16.9651787">
<ele>181</ele>
<time>2017-12-19T15:50:31Z</time>
</trkpt>
<trkpt lat="53.8169119" lon="16.9670388">
<ele>181</ele>
<time>2017-12-19T15:50:37Z</time>
</trkpt>
<trkpt lat="53.8164273" lon="16.9688619">
<ele>181</ele>
<time>2017-12-19T15:50:43Z</time>
</trkpt>
<trkpt lat="53.8159580" lon="16.9706743">
<ele>180</ele>
<time>2017-12-19T15:50:49Z</time>
</trkpt>
<trkpt lat="53.8154818" lon="16.9725286">
<ele>179</ele>
<time>2017-12-19T15:50:55Z</time>
</trkpt>
<trkpt lat="53.8149821" lon="16.9744549">
<ele>179</ele>
<time>2017-12-19T15:51:01Z</time>
</trkpt>
<trkpt lat="53.8145108" lon="16.9763181">
<ele>180</ele>
<time>2017-12-19T15:51:07Z</time>
</trkpt>
<trkpt lat="53.8140390" lon="16.9781252">
<ele>179</ele>
<time>2017-12-19T15:51:13Z</time>
</trkpt>
<trkpt lat="53.8135598" lon="16.9799290">
<ele>178</ele>
<time>2017-12-19T15:51:19Z</time>
</trkpt>
<trkpt lat="53.8130889" lon="16.9817382">
<ele>178</ele>
<time>2017-12-19T15:51:25Z</time>
</trkpt>
<trkpt lat="53.8126236" lon="16.9835499">
<ele>177</ele>
<time>2017-12-19T15:51:31Z</time>
</trkpt>
<trkpt lat="53.8121582" lon="16.9853449">
<ele>177</ele>
<time>2017-12-19T15:51:37Z</time>
</trkpt>
<trkpt lat="53.8116974" lon="16.9871353">
<ele>176</ele>
<time>2017-12-19T15:51:43Z</time>
</trkpt>
<trkpt lat="53.8112329" lon="16.9889238">
<ele>176</ele>
<time>2017-12-19T15:51:49Z</time>
</trkpt>
<trkpt lat="53.8107744" lon="16.9907088">
<ele>175</ele>
<time>2017-12-19T15:51:55Z</time>
</trkpt>
<trkpt lat="53.8103106" lon="16.9924715">
<ele>175</ele>
<time>2017-12-19T15:52:01Z</time>
</trkpt>
<trkpt lat="53.8098594" lon="16.9942050">
<ele>175</ele>
<time>2017-12-19T15:52:07Z</time>
</trkpt>
<trkpt lat="53.8094135" lon="16.9959211">
<ele>175</ele>
<time>2017-12-19T15:52:13Z</time>
</trkpt>
<trkpt lat="53.8089615" lon="16.9976510">
<ele>174</ele>
<time>2017-12-19T15:52:19Z</time>
</trkpt>
<trkpt lat="53.8085183" lon="16.9993788">
<ele>173</ele>
<time>2017-12-19T15:52:25Z</time>
</trkpt>
<trkpt lat="53.8080680" lon="17.0011095">
<ele>172</ele>
<time>2017-12-19T15:52:31Z</time>
</trkpt>
<trkpt lat="53.8076136" lon="17.0028484">
<ele>172</ele>
<time>2017-12-19T15:52:37Z</time>
</trkpt>
<trkpt lat="53.8067196" lon="17.0063284">
<ele>172</ele>
<time>2017-12-19T15:52:49Z</time>
</trkpt>
<trkpt lat="53.8062852" lon="17.0080419">
<ele>172</ele>
<time>2017-12-19T15:52:55Z</time>
</trkpt>
<trkpt lat="53.8058911" lon="17.0097574">
<ele>173</ele>
<time>2017-12-19T15:53:01Z</time>
</trkpt>
<trkpt lat="53.8055603" lon="17.0114080">
<ele>174</ele>
<time>2017-12-19T15:53:07Z</time>
</trkpt>
<trkpt lat="53.8052402" lon="17.0130171">
<ele>174</ele>
<time>2017-12-19T15:53:13Z</time>
</trkpt>
<trkpt lat="53.8049277" lon="17.0145819">
<ele>174</ele>
<time>2017-12-19T15:53:19Z</time>
</trkpt>
<trkpt lat="53.8046132" lon="17.0161558">
<ele>174</ele>
<time>2017-12-19T15:53:25Z</time>
</trkpt>
<trkpt lat="53.8042961" lon="17.0178079">
<ele>175</ele>
<time>2017-12-19T15:53:31Z</time>
</trkpt>
<trkpt lat="53.8039627" lon="17.0195547">
<ele>175</ele>
<time>2017-12-19T15:53:37Z</time>
</trkpt>
<trkpt lat="53.8036095" lon="17.0213577">
<ele>176</ele>
<time>2017-12-19T15:53:43Z</time>
</trkpt>
<trkpt lat="53.8032807" lon="17.0231282">
<ele>176</ele>
<time>2017-12-19T15:53:49Z</time>
</trkpt>
<trkpt lat="53.8030221" lon="17.0249504">
<ele>177</ele>
<time>2017-12-19T15:53:55Z</time>
</trkpt>
<trkpt lat="53.8027676" lon="17.0268096">
<ele>178</ele>
<time>2017-12-19T15:54:01Z</time>
</trkpt>
<trkpt lat="53.8023549" lon="17.0285808">
<ele>177</ele>
<time>2017-12-19T15:54:07Z</time>
</trkpt>
<trkpt lat="53.8017936" lon="17.0302966">
<ele>177</ele>
<time>2017-12-19T15:54:13Z</time>
</trkpt>
<trkpt lat="53.8012623" lon="17.0319665">
<ele>176</ele>
<time>2017-12-19T15:54:19Z</time>
</trkpt>
<trkpt lat="53.8007331" lon="17.0336344">
<ele>175</ele>
<time>2017-12-19T15:54:25Z</time>
</trkpt>
<trkpt lat="53.8001872" lon="17.0353134">
<ele>174</ele>
<time>2017-12-19T15:54:31Z</time>
</trkpt>
<trkpt lat="53.7996575" lon="17.0369929">
<ele>173</ele>
<time>2017-12-19T15:54:37Z</time>
</trkpt>
<trkpt lat="53.7986204" lon="17.0402775">
<ele>172</ele>
<time>2017-12-19T15:54:49Z</time>
</trkpt>
<trkpt lat="53.7981074" lon="17.0418910">
<ele>170</ele>
<time>2017-12-19T15:54:55Z</time>
</trkpt>
<trkpt lat="53.7970425" lon="17.0452543">
<ele>170</ele>
<time>2017-12-19T15:55:07Z</time>
</trkpt>
<trkpt lat="53.7964978" lon="17.0469569">
<ele>169</ele>
<time>2017-12-19T15:55:13Z</time>
</trkpt>
<trkpt lat="53.7959630" lon="17.0486382">
<ele>168</ele>
<time>2017-12-19T15:55:19Z</time>
</trkpt>
<trkpt lat="53.7954355" lon="17.0502850">
<ele>167</ele>
<time>2017-12-19T15:55:25Z</time>
</trkpt>
<trkpt lat="53.7949114" lon="17.0519259">
<ele>166</ele>
<time>2017-12-19T15:55:31Z</time>
</trkpt>
<trkpt lat="53.7944021" lon="17.0535178">
<ele>166</ele>
<time>2017-12-19T15:55:37Z</time>
</trkpt>
<trkpt lat="53.7938764" lon="17.0551242">
<ele>166</ele>
<time>2017-12-19T15:55:43Z</time>
</trkpt>
<trkpt lat="53.7933651" lon="17.0567343">
<ele>167</ele>
<time>2017-12-19T15:55:49Z</time>
</trkpt>
<trkpt lat="53.7928367" lon="17.0583000">
<ele>167</ele>
<time>2017-12-19T15:55:55Z</time>
</trkpt>
<trkpt lat="53.7920619" lon="17.0595956">
<ele>167</ele>
<time>2017-12-19T15:56:01Z</time>
</trkpt>
<trkpt lat="53.7912592" lon="17.0608197">
<ele>170</ele>
<time>2017-12-19T15:56:07Z</time>
</trkpt>
<trkpt lat="53.7904855" lon="17.0620565">
<ele>172</ele>
<time>2017-12-19T15:56:13Z</time>
</trkpt>
<trkpt lat="53.7897123" lon="17.0632704">
<ele>174</ele>
<time>2017-12-19T15:56:19Z</time>
</trkpt>
<trkpt lat="53.7889212" lon="17.0645199">
<ele>176</ele>
<time>2017-12-19T15:56:25Z</time>
</trkpt>
<trkpt lat="53.7881135" lon="17.0657969">
<ele>176</ele>
<time>2017-12-19T15:56:31Z</time>
</trkpt>
<trkpt lat="53.7872824" lon="17.0671216">
<ele>177</ele>
<time>2017-12-19T15:56:37Z</time>
</trkpt>
<trkpt lat="53.7864278" lon="17.0684540">
<ele>179</ele>
<time>2017-12-19T15:56:43Z</time>
</trkpt>
<trkpt lat="53.7855710" lon="17.0698135">
<ele>180</ele>
<time>2017-12-19T15:56:49Z</time>
</trkpt>
<trkpt lat="53.7847302" lon="17.0711366">
<ele>179</ele>
<time>2017-12-19T15:56:55Z</time>
</trkpt>
<trkpt lat="53.7839098" lon="17.0724416">
<ele>178</ele>
<time>2017-12-19T15:57:01Z</time>
</trkpt>
<trkpt lat="53.7830995" lon="17.0737296">
<ele>177</ele>
<time>2017-12-19T15:57:07Z</time>
</trkpt>
<trkpt lat="53.7822832" lon="17.0750644">
<ele>177</ele>
<time>2017-12-19T15:57:13Z</time>
</trkpt>
<trkpt lat="53.7814555" lon="17.0763596">
<ele>177</ele>
<time>2017-12-19T15:57:19Z</time>
</trkpt>
<trkpt lat="53.7806263" lon="17.0776270">
<ele>178</ele>
<time>2017-12-19T15:57:25Z</time>
</trkpt>
<trkpt lat="53.7798120" lon="17.0789780">
<ele>178</ele>
<time>2017-12-19T15:57:31Z</time>
</trkpt>
<trkpt lat="53.7789590" lon="17.0803159">
<ele>178</ele>
<time>2017-12-19T15:57:37Z</time>
</trkpt>
<trkpt lat="53.7781020" lon="17.0816742">
<ele>178</ele>
<time>2017-12-19T15:57:43Z</time>
</trkpt>
<trkpt lat="53.7772449" lon="17.0830667">
<ele>178</ele>
<time>2017-12-19T15:57:49Z</time>
</trkpt>
<trkpt lat="53.7764030" lon="17.0844057">
<ele>178</ele>
<time>2017-12-19T15:57:55Z</time>
</trkpt>
<trkpt lat="53.7755996" lon="17.0856777">
<ele>178</ele>
<time>2017-12-19T15:58:01Z</time>
</trkpt>
<trkpt lat="53.7748116" lon="17.0869455">
<ele>178</ele>
<time>2017-12-19T15:58:07Z</time>
</trkpt>
<trkpt lat="53.7740261" lon="17.0882187">
<ele>177</ele>
<time>2017-12-19T15:58:13Z</time>
</trkpt>
<trkpt lat="53.7732328" lon="17.0894838">
<ele>176</ele>
<time>2017-12-19T15:58:19Z</time>
</trkpt>
<trkpt lat="53.7724467" lon="17.0907517">
<ele>176</ele>
<time>2017-12-19T15:58:25Z</time>
</trkpt>
<trkpt lat="53.7716501" lon="17.0920028">
<ele>176</ele>
<time>2017-12-19T15:58:31Z</time>
</trkpt>
<trkpt lat="53.7708246" lon="17.0932856">
<ele>177</ele>
<time>2017-12-19T15:58:37Z</time>
</trkpt>
<trkpt lat="53.7699840" lon="17.0945961">
<ele>176</ele>
<time>2017-12-19T15:58:43Z</time>
</trkpt>
<trkpt lat="53.7691622" lon="17.0958597">
<ele>177</ele>
<time>2017-12-19T15:58:49Z</time>
</trkpt>
<trkpt lat="53.7683603" lon="17.0971007">
<ele>178</ele>
<time>2017-12-19T15:58:55Z</time>
</trkpt>
<trkpt lat="53.7675635" lon="17.0983494">
<ele>179</ele>
<time>2017-12-19T15:59:01Z</time>
</trkpt>
<trkpt lat="53.7667867" lon="17.0995519">
<ele>182</ele>
<time>2017-12-19T15:59:07Z</time>
</trkpt>
<trkpt lat="53.7660128" lon="17.1007355">
<ele>183</ele>
<time>2017-12-19T15:59:13Z</time>
</trkpt>
<trkpt lat="53.7652131" lon="17.1019818">
<ele>185</ele>
<time>2017-12-19T15:59:19Z</time>
</trkpt>
<trkpt lat="53.7644166" lon="17.1032232">
<ele>185</ele>
<time>2017-12-19T15:59:25Z</time>
</trkpt>
<trkpt lat="53.7636251" lon="17.1044549">
<ele>186</ele>
<time>2017-12-19T15:59:31Z</time>
</trkpt>
<trkpt lat="53.7629124" lon="17.1055827">
<ele>185</ele>
<time>2017-12-19T15:59:37Z</time>
</trkpt>
<trkpt lat="53.7622799" lon="17.1065598">
<ele>185</ele>
<time>2017-12-19T15:59:43Z</time>
</trkpt>
<trkpt lat="53.7616474" lon="17.1072872">
<ele>185</ele>
<time>2017-12-19T15:59:49Z</time>
</trkpt>
<trkpt lat="53.7610191" lon="17.1075360">
<ele>186</ele>
<time>2017-12-19T15:59:55Z</time>
</trkpt>
<trkpt lat="53.7604130" lon="17.1075324">
<ele>185</ele>
<time>2017-12-19T16:00:01Z</time>
</trkpt>
<trkpt lat="53.7597729" lon="17.1074835">
<ele>185</ele>
<time>2017-12-19T16:00:07Z</time>
</trkpt>
<trkpt lat="53.7591368" lon="17.1074779">
<ele>186</ele>
<time>2017-12-19T16:00:13Z</time>
</trkpt>
<trkpt lat="53.7587505" lon="17.1075099">
<ele>186</ele>
<time>2017-12-19T16:00:19Z</time>
</trkpt>
<trkpt lat="53.7583602" lon="17.1076025">
<ele>185</ele>
<time>2017-12-19T16:00:25Z</time>
</trkpt>
<trkpt lat="53.7580914" lon="17.1076627">
<ele>185</ele>
<time>2017-12-19T16:00:31Z</time>
</trkpt>
<trkpt lat="53.7579906" lon="17.1076790">
<ele>184</ele>
<time>2017-12-19T16:00:37Z</time>
</trkpt>
<trkpt lat="53.7578130" lon="17.1076575">
<ele>183</ele>
<time>2017-12-19T16:00:43Z</time>
</trkpt>
<trkpt lat="53.7576543" lon="17.1076247">
<ele>181</ele>
<time>2017-12-19T16:00:49Z</time>
</trkpt>
<trkpt lat="53.7576003" lon="17.1080411">
<ele>181</ele>
<time>2017-12-19T16:00:55Z</time>
</trkpt>
<trkpt lat="53.7574804" lon="17.1085299">
<ele>182</ele>
<time>2017-12-19T16:01:01Z</time>
</trkpt>
<trkpt lat="53.7572893" lon="17.1092266">
<ele>181</ele>
<time>2017-12-19T16:01:07Z</time>
</trkpt>
<trkpt lat="53.7570920" lon="17.1099913">
<ele>182</ele>
<time>2017-12-19T16:01:13Z</time>
</trkpt>
<trkpt lat="53.7568628" lon="17.1109229">
<ele>181</ele>
<time>2017-12-19T16:01:19Z</time>
</trkpt>
<trkpt lat="53.7566739" lon="17.1119303">
<ele>181</ele>
<time>2017-12-19T16:01:25Z</time>
</trkpt>
<trkpt lat="53.7564883" lon="17.1129620">
<ele>181</ele>
<time>2017-12-19T16:01:31Z</time>
</trkpt>
<trkpt lat="53.7562073" lon="17.1139220">
<ele>179</ele>
<time>2017-12-19T16:01:37Z</time>
</trkpt>
<trkpt lat="53.7557759" lon="17.1147707">
<ele>179</ele>
<time>2017-12-19T16:01:43Z</time>
</trkpt>
<trkpt lat="53.7553821" lon="17.1156796">
<ele>180</ele>
<time>2017-12-19T16:01:49Z</time>
</trkpt>
<trkpt lat="53.7551444" lon="17.1167602">
<ele>180</ele>
<time>2017-12-19T16:01:55Z</time>
</trkpt>
<trkpt lat="53.7552317" lon="17.1178247">
<ele>180</ele>
<time>2017-12-19T16:02:01Z</time>
</trkpt>
<trkpt lat="53.7553962" lon="17.1188977">
<ele>179</ele>
<time>2017-12-19T16:02:07Z</time>
</trkpt>
<trkpt lat="53.7555563" lon="17.1199757">
<ele>180</ele>
<time>2017-12-19T16:02:13Z</time>
</trkpt>
<trkpt lat="53.7555322" lon="17.1211411">
<ele>180</ele>
<time>2017-12-19T16:02:19Z</time>
</trkpt>
<trkpt lat="53.7553080" lon="17.1223920">
<ele>181</ele>
<time>2017-12-19T16:02:25Z</time>
</trkpt>
<trkpt lat="53.7550854" lon="17.1237259">
<ele>182</ele>
<time>2017-12-19T16:02:31Z</time>
</trkpt>
<trkpt lat="53.7548558" lon="17.1251125">
<ele>182</ele>
<time>2017-12-19T16:02:37Z</time>
</trkpt>
<trkpt lat="53.7546067" lon="17.1265714">
<ele>183</ele>
<time>2017-12-19T16:02:43Z</time>
</trkpt>
<trkpt lat="53.7543485" lon="17.1281224">
<ele>184</ele>
<time>2017-12-19T16:02:49Z</time>
</trkpt>
<trkpt lat="53.7540700" lon="17.1297418">
<ele>185</ele>
<time>2017-12-19T16:02:55Z</time>
</trkpt>
<trkpt lat="53.7537828" lon="17.1314162">
<ele>186</ele>
<time>2017-12-19T16:03:01Z</time>
</trkpt>
<trkpt lat="53.7534905" lon="17.1331534">
<ele>187</ele>
<time>2017-12-19T16:03:07Z</time>
</trkpt>
<trkpt lat="53.7531934" lon="17.1349241">
<ele>187</ele>
<time>2017-12-19T16:03:13Z</time>
</trkpt>
<trkpt lat="53.7528829" lon="17.1367333">
<ele>187</ele>
<time>2017-12-19T16:03:19Z</time>
</trkpt>
<trkpt lat="53.7525791" lon="17.1385701">
<ele>186</ele>
<time>2017-12-19T16:03:25Z</time>
</trkpt>
<trkpt lat="53.7522639" lon="17.1404377">
<ele>186</ele>
<time>2017-12-19T16:03:31Z</time>
</trkpt>
<trkpt lat="53.7519451" lon="17.1423180">
<ele>186</ele>
<time>2017-12-19T16:03:37Z</time>
</trkpt>
<trkpt lat="53.7516205" lon="17.1442024">
<ele>186</ele>
<time>2017-12-19T16:03:43Z</time>
</trkpt>
<trkpt lat="53.7513072" lon="17.1461489">
<ele>184</ele>
<time>2017-12-19T16:03:49Z</time>
</trkpt>
<trkpt lat="53.7510410" lon="17.1481392">
<ele>184</ele>
<time>2017-12-19T16:03:55Z</time>
</trkpt>
<trkpt lat="53.7507879" lon="17.1500870">
<ele>184</ele>
<time>2017-12-19T16:04:01Z</time>
</trkpt>
<trkpt lat="53.7505419" lon="17.1520124">
<ele>184</ele>
<time>2017-12-19T16:04:07Z</time>
</trkpt>
<trkpt lat="53.7503005" lon="17.1539739">
<ele>185</ele>
<time>2017-12-19T16:04:13Z</time>
</trkpt>
<trkpt lat="53.7500567" lon="17.1559190">
<ele>186</ele>
<time>2017-12-19T16:04:19Z</time>
</trkpt>
<trkpt lat="53.7498026" lon="17.1577667">
<ele>186</ele>
<time>2017-12-19T16:04:25Z</time>
</trkpt>
<trkpt lat="53.7494562" lon="17.1594998">
<ele>184</ele>
<time>2017-12-19T16:04:31Z</time>
</trkpt>
<trkpt lat="53.7490958" lon="17.1612822">
<ele>185</ele>
<time>2017-12-19T16:04:37Z</time>
</trkpt>
<trkpt lat="53.7487383" lon="17.1630766">
<ele>185</ele>
<time>2017-12-19T16:04:43Z</time>
</trkpt>
<trkpt lat="53.7483731" lon="17.1649025">
<ele>185</ele>
<time>2017-12-19T16:04:49Z</time>
</trkpt>
<trkpt lat="53.7480052" lon="17.1667001">
<ele>186</ele>
<time>2017-12-19T16:04:55Z</time>
</trkpt>
<trkpt lat="53.7476605" lon="17.1683645">
<ele>188</ele>
<time>2017-12-19T16:05:01Z</time>
</trkpt>
<trkpt lat="53.7473221" lon="17.1700110">
<ele>186</ele>
<time>2017-12-19T16:05:07Z</time>
</trkpt>
<trkpt lat="53.7469419" lon="17.1716580">
<ele>183</ele>
<time>2017-12-19T16:05:13Z</time>
</trkpt>
<trkpt lat="53.7461717" lon="17.1728989">
<ele>184</ele>
<time>2017-12-19T16:05:19Z</time>
</trkpt>
<trkpt lat="53.7453341" lon="17.1740361">
<ele>187</ele>
<time>2017-12-19T16:05:25Z</time>
</trkpt>
<trkpt lat="53.7445450" lon="17.1751730">
<ele>187</ele>
<time>2017-12-19T16:05:31Z</time>
</trkpt>
<trkpt lat="53.7437521" lon="17.1762965">
<ele>187</ele>
<time>2017-12-19T16:05:37Z</time>
</trkpt>
<trkpt lat="53.7429436" lon="17.1774299">
<ele>187</ele>
<time>2017-12-19T16:05:43Z</time>
</trkpt>
<trkpt lat="53.7421902" lon="17.1786711">
<ele>187</ele>
<time>2017-12-19T16:05:49Z</time>
</trkpt>
<trkpt lat="53.7416497" lon="17.1802493">
<ele>186</ele>
<time>2017-12-19T16:05:55Z</time>
</trkpt>
<trkpt lat="53.7411449" lon="17.1818101">
<ele>186</ele>
<time>2017-12-19T16:06:01Z</time>
</trkpt>
<trkpt lat="53.7406905" lon="17.1832737">
<ele>186</ele>
<time>2017-12-19T16:06:07Z</time>
</trkpt>
<trkpt lat="53.7402290" lon="17.1846848">
<ele>186</ele>
<time>2017-12-19T16:06:13Z</time>
</trkpt>
<trkpt lat="53.7397694" lon="17.1861639">
<ele>186</ele>
<time>2017-12-19T16:06:19Z</time>
</trkpt>
<trkpt lat="53.7393021" lon="17.1876325">
<ele>186</ele>
<time>2017-12-19T16:06:25Z</time>
</trkpt>
<trkpt lat="53.7388672" lon="17.1889200">
<ele>186</ele>
<time>2017-12-19T16:06:31Z</time>
</trkpt>
<trkpt lat="53.7384771" lon="17.1900121">
<ele>185</ele>
<time>2017-12-19T16:06:37Z</time>
</trkpt>
<trkpt lat="53.7381403" lon="17.1911666">
<ele>183</ele>
<time>2017-12-19T16:06:43Z</time>
</trkpt>
<trkpt lat="53.7376105" lon="17.1920702">
<ele>183</ele>
<time>2017-12-19T16:06:49Z</time>
</trkpt>
<trkpt lat="53.7369548" lon="17.1925403">
<ele>183</ele>
<time>2017-12-19T16:06:55Z</time>
</trkpt>
<trkpt lat="53.7362640" lon="17.1930102">
<ele>185</ele>
<time>2017-12-19T16:07:01Z</time>
</trkpt>
<trkpt lat="53.7357660" lon="17.1939651">
<ele>185</ele>
<time>2017-12-19T16:07:07Z</time>
</trkpt>
<trkpt lat="53.7353439" lon="17.1950391">
<ele>185</ele>
<time>2017-12-19T16:07:13Z</time>
</trkpt>
<trkpt lat="53.7348945" lon="17.1960461">
<ele>185</ele>
<time>2017-12-19T16:07:19Z</time>
</trkpt>
<trkpt lat="53.7346243" lon="17.1972103">
<ele>186</ele>
<time>2017-12-19T16:07:25Z</time>
</trkpt>
<trkpt lat="53.7342031" lon="17.1982522">
<ele>186</ele>
<time>2017-12-19T16:07:31Z</time>
</trkpt>
<trkpt lat="53.7337588" lon="17.1993246">
<ele>186</ele>
<time>2017-12-19T16:07:37Z</time>
</trkpt>
<trkpt lat="53.7334403" lon="17.2005662">
<ele>186</ele>
<time>2017-12-19T16:07:43Z</time>
</trkpt>
<trkpt lat="53.7330694" lon="17.2019539">
<ele>185</ele>
<time>2017-12-19T16:07:49Z</time>
</trkpt>
<trkpt lat="53.7326464" lon="17.2034575">
<ele>183</ele>
<time>2017-12-19T16:07:55Z</time>
</trkpt>
<trkpt lat="53.7321860" lon="17.2050769">
<ele>181</ele>
<time>2017-12-19T16:08:01Z</time>
</trkpt>
<trkpt lat="53.7317265" lon="17.2066883">
<ele>178</ele>
<time>2017-12-19T16:08:07Z</time>
</trkpt>
<trkpt lat="53.7316994" lon="17.2080934">
<ele>172</ele>
<time>2017-12-19T16:08:13Z</time>
</trkpt>
<trkpt lat="53.7318566" lon="17.2095806">
<ele>166</ele>
<time>2017-12-19T16:08:19Z</time>
</trkpt>
<trkpt lat="53.7320149" lon="17.2111247">
<ele>160</ele>
<time>2017-12-19T16:08:25Z</time>
</trkpt>
<trkpt lat="53.7321588" lon="17.2126481">
<ele>157</ele>
<time>2017-12-19T16:08:31Z</time>
</trkpt>
<trkpt lat="53.7323022" lon="17.2139760">
<ele>156</ele>
<time>2017-12-19T16:08:37Z</time>
</trkpt>
<trkpt lat="53.7324254" lon="17.2153077">
<ele>155</ele>
<time>2017-12-19T16:08:43Z</time>
</trkpt>
<trkpt lat="53.7321576" lon="17.2165050">
<ele>156</ele>
<time>2017-12-19T16:08:49Z</time>
</trkpt>
<trkpt lat="53.7316826" lon="17.2175826">
<ele>158</ele>
<time>2017-12-19T16:08:55Z</time>
</trkpt>
<trkpt lat="53.7312140" lon="17.2187387">
<ele>160</ele>
<time>2017-12-19T16:09:01Z</time>
</trkpt>
<trkpt lat="53.7306930" lon="17.2200099">
<ele>162</ele>
<time>2017-12-19T16:09:07Z</time>
</trkpt>
<trkpt lat="53.7303135" lon="17.2212943">
<ele>166</ele>
<time>2017-12-19T16:09:13Z</time>
</trkpt>
<trkpt lat="53.7301543" lon="17.2226823">
<ele>169</ele>
<time>2017-12-19T16:09:19Z</time>
</trkpt>
<trkpt lat="53.7299966" lon="17.2239580">
<ele>173</ele>
<time>2017-12-19T16:09:25Z</time>
</trkpt>
<trkpt lat="53.7298522" lon="17.2251496">
<ele>177</ele>
<time>2017-12-19T16:09:31Z</time>
</trkpt>
<trkpt lat="53.7297080" lon="17.2263124">
<ele>181</ele>
<time>2017-12-19T16:09:37Z</time>
</trkpt>
<trkpt lat="53.7293635" lon="17.2273433">
<ele>185</ele>
<time>2017-12-19T16:09:43Z</time>
</trkpt>
<trkpt lat="53.7289047" lon="17.2283634">
<ele>187</ele>
<time>2017-12-19T16:09:49Z</time>
</trkpt>
<trkpt lat="53.7283819" lon="17.2295475">
<ele>188</ele>
<time>2017-12-19T16:09:55Z</time>
</trkpt>
<trkpt lat="53.7277896" lon="17.2308821">
<ele>189</ele>
<time>2017-12-19T16:10:01Z</time>
</trkpt>
<trkpt lat="53.7271623" lon="17.2323185">
<ele>189</ele>
<time>2017-12-19T16:10:07Z</time>
</trkpt>
<trkpt lat="53.7265062" lon="17.2338571">
<ele>190</ele>
<time>2017-12-19T16:10:13Z</time>
</trkpt>
<trkpt lat="53.7258441" lon="17.2353921">
<ele>191</ele>
<time>2017-12-19T16:10:19Z</time>
</trkpt>
<trkpt lat="53.7250930" lon="17.2366325">
<ele>192</ele>
<time>2017-12-19T16:10:25Z</time>
</trkpt>
<trkpt lat="53.7243047" lon="17.2376770">
<ele>192</ele>
<time>2017-12-19T16:10:31Z</time>
</trkpt>
<trkpt lat="53.7236154" lon="17.2387881">
<ele>192</ele>
<time>2017-12-19T16:10:37Z</time>
</trkpt>
<trkpt lat="53.7230176" lon="17.2400068">
<ele>191</ele>
<time>2017-12-19T16:10:43Z</time>
</trkpt>
<trkpt lat="53.7224120" lon="17.2412418">
<ele>191</ele>
<time>2017-12-19T16:10:49Z</time>
</trkpt>
<trkpt lat="53.7217893" lon="17.2424501">
<ele>191</ele>
<time>2017-12-19T16:10:55Z</time>
</trkpt>
<trkpt lat="53.7210801" lon="17.2436407">
<ele>192</ele>
<time>2017-12-19T16:11:01Z</time>
</trkpt>
<trkpt lat="53.7203352" lon="17.2448351">
<ele>194</ele>
<time>2017-12-19T16:11:07Z</time>
</trkpt>
<trkpt lat="53.7196408" lon="17.2460223">
<ele>195</ele>
<time>2017-12-19T16:11:13Z</time>
</trkpt>
<trkpt lat="53.7189343" lon="17.2469902">
<ele>195</ele>
<time>2017-12-19T16:11:19Z</time>
</trkpt>
<trkpt lat="53.7180747" lon="17.2474647">
<ele>196</ele>
<time>2017-12-19T16:11:25Z</time>
</trkpt>
<trkpt lat="53.7172783" lon="17.2479287">
<ele>197</ele>
<time>2017-12-19T16:11:31Z</time>
</trkpt>
<trkpt lat="53.7164952" lon="17.2483774">
<ele>197</ele>
<time>2017-12-19T16:11:37Z</time>
</trkpt>
<trkpt lat="53.7157227" lon="17.2488277">
<ele>196</ele>
<time>2017-12-19T16:11:43Z</time>
</trkpt>
<trkpt lat="53.7149388" lon="17.2493142">
<ele>196</ele>
<time>2017-12-19T16:11:49Z</time>
</trkpt>
<trkpt lat="53.7141346" lon="17.2498187">
<ele>196</ele>
<time>2017-12-19T16:11:55Z</time>
</trkpt>
<trkpt lat="53.7134023" lon="17.2506100">
<ele>196</ele>
<time>2017-12-19T16:12:01Z</time>
</trkpt>
<trkpt lat="53.7128339" lon="17.2517337">
<ele>196</ele>
<time>2017-12-19T16:12:07Z</time>
</trkpt>
<trkpt lat="53.7122941" lon="17.2528139">
<ele>195</ele>
<time>2017-12-19T16:12:13Z</time>
</trkpt>
<trkpt lat="53.7117655" lon="17.2538887">
<ele>195</ele>
<time>2017-12-19T16:12:19Z</time>
</trkpt>
<trkpt lat="53.7112232" lon="17.2549778">
<ele>195</ele>
<time>2017-12-19T16:12:25Z</time>
</trkpt>
<trkpt lat="53.7106455" lon="17.2561093">
<ele>194</ele>
<time>2017-12-19T16:12:31Z</time>
</trkpt>
<trkpt lat="53.7100790" lon="17.2572431">
<ele>194</ele>
<time>2017-12-19T16:12:37Z</time>
</trkpt>
<trkpt lat="53.7095258" lon="17.2583501">
<ele>194</ele>
<time>2017-12-19T16:12:43Z</time>
</trkpt>
<trkpt lat="53.7090063" lon="17.2593662">
<ele>195</ele>
<time>2017-12-19T16:12:49Z</time>
</trkpt>
<trkpt lat="53.7084815" lon="17.2603984">
<ele>195</ele>
<time>2017-12-19T16:12:55Z</time>
</trkpt>
<trkpt lat="53.7078981" lon="17.2615452">
<ele>195</ele>
<time>2017-12-19T16:13:01Z</time>
</trkpt>
<trkpt lat="53.7072552" lon="17.2628179">
<ele>194</ele>
<time>2017-12-19T16:13:07Z</time>
</trkpt>
<trkpt lat="53.7065755" lon="17.2641801">
<ele>192</ele>
<time>2017-12-19T16:13:13Z</time>
</trkpt>
<trkpt lat="53.7058604" lon="17.2655844">
<ele>191</ele>
<time>2017-12-19T16:13:19Z</time>
</trkpt>
<trkpt lat="53.7051239" lon="17.2670086">
<ele>191</ele>
<time>2017-12-19T16:13:25Z</time>
</trkpt>
<trkpt lat="53.7043902" lon="17.2684399">
<ele>191</ele>
<time>2017-12-19T16:13:31Z</time>
</trkpt>
<trkpt lat="53.7037348" lon="17.2697172">
<ele>191</ele>
<time>2017-12-19T16:13:37Z</time>
</trkpt>
<trkpt lat="53.7031277" lon="17.2708732">
<ele>190</ele>
<time>2017-12-19T16:13:43Z</time>
</trkpt>
<trkpt lat="53.7028014" lon="17.2721292">
<ele>191</ele>
<time>2017-12-19T16:13:49Z</time>
</trkpt>
<trkpt lat="53.7026573" lon="17.2734911">
<ele>190</ele>
<time>2017-12-19T16:13:55Z</time>
</trkpt>
<trkpt lat="53.7024576" lon="17.2749130">
<ele>189</ele>
<time>2017-12-19T16:14:01Z</time>
</trkpt>
<trkpt lat="53.7021099" lon="17.2762727">
<ele>191</ele>
<time>2017-12-19T16:14:07Z</time>
</trkpt>
<trkpt lat="53.7017697" lon="17.2777094">
<ele>189</ele>
<time>2017-12-19T16:14:13Z</time>
</trkpt>
<trkpt lat="53.7014098" lon="17.2791814">
<ele>189</ele>
<time>2017-12-19T16:14:19Z</time>
</trkpt>
<trkpt lat="53.7010406" lon="17.2807278">
<ele>187</ele>
<time>2017-12-19T16:14:25Z</time>
</trkpt>
<trkpt lat="53.7006543" lon="17.2822890">
<ele>188</ele>
<time>2017-12-19T16:14:31Z</time>
</trkpt>
<trkpt lat="53.7002725" lon="17.2838974">
<ele>186</ele>
<time>2017-12-19T16:14:37Z</time>
</trkpt>
<trkpt lat="53.6998745" lon="17.2854568">
<ele>186</ele>
<time>2017-12-19T16:14:43Z</time>
</trkpt>
<trkpt lat="53.6994864" lon="17.2870546">
<ele>186</ele>
<time>2017-12-19T16:14:49Z</time>
</trkpt>
<trkpt lat="53.6990978" lon="17.2886336">
<ele>187</ele>
<time>2017-12-19T16:14:55Z</time>
</trkpt>
<trkpt lat="53.6987199" lon="17.2901616">
<ele>187</ele>
<time>2017-12-19T16:15:01Z</time>
</trkpt>
<trkpt lat="53.6983285" lon="17.2914964">
<ele>186</ele>
<time>2017-12-19T16:15:07Z</time>
</trkpt>
<trkpt lat="53.6977471" lon="17.2925277">
<ele>186</ele>
<time>2017-12-19T16:15:13Z</time>
</trkpt>
<trkpt lat="53.6971358" lon="17.2935604">
<ele>187</ele>
<time>2017-12-19T16:15:19Z</time>
</trkpt>
<trkpt lat="53.6965149" lon="17.2946065">
<ele>188</ele>
<time>2017-12-19T16:15:25Z</time>
</trkpt>
<trkpt lat="53.6958809" lon="17.2956825">
<ele>187</ele>
<time>2017-12-19T16:15:31Z</time>
</trkpt>
<trkpt lat="53.6952214" lon="17.2967848">
<ele>186</ele>
<time>2017-12-19T16:15:37Z</time>
</trkpt>
<trkpt lat="53.6945703" lon="17.2979239">
<ele>186</ele>
<time>2017-12-19T16:15:43Z</time>
</trkpt>
<trkpt lat="53.6938685" lon="17.2990825">
<ele>188</ele>
<time>2017-12-19T16:15:49Z</time>
</trkpt>
<trkpt lat="53.6931541" lon="17.3003114">
<ele>188</ele>
<time>2017-12-19T16:15:55Z</time>
</trkpt>
<trkpt lat="53.6924260" lon="17.3015638">
<ele>187</ele>
<time>2017-12-19T16:16:01Z</time>
</trkpt>
<trkpt lat="53.6917072" lon="17.3028089">
<ele>189</ele>
<time>2017-12-19T16:16:07Z</time>
</trkpt>
<trkpt lat="53.6911660" lon="17.3040830">
<ele>191</ele>
<time>2017-12-19T16:16:13Z</time>
</trkpt>
<trkpt lat="53.6908914" lon="17.3054505">
<ele>192</ele>
<time>2017-12-19T16:16:19Z</time>
</trkpt>
<trkpt lat="53.6906046" lon="17.3067838">
<ele>192</ele>
<time>2017-12-19T16:16:25Z</time>
</trkpt>
<trkpt lat="53.6902986" lon="17.3081666">
<ele>192</ele>
<time>2017-12-19T16:16:31Z</time>
</trkpt>
<trkpt lat="53.6899988" lon="17.3095615">
<ele>192</ele>
<time>2017-12-19T16:16:37Z</time>
</trkpt>
<trkpt lat="53.6896874" lon="17.3109463">
<ele>192</ele>
<time>2017-12-19T16:16:43Z</time>
</trkpt>
<trkpt lat="53.6893743" lon="17.3123356">
<ele>192</ele>
<time>2017-12-19T16:16:49Z</time>
</trkpt>
<trkpt lat="53.6890680" lon="17.3137275">
<ele>193</ele>
<time>2017-12-19T16:16:55Z</time>
</trkpt>
<trkpt lat="53.6887496" lon="17.3151413">
<ele>193</ele>
<time>2017-12-19T16:17:01Z</time>
</trkpt>
<trkpt lat="53.6884218" lon="17.3166123">
<ele>192</ele>
<time>2017-12-19T16:17:07Z</time>
</trkpt>
<trkpt lat="53.6880804" lon="17.3181805">
<ele>191</ele>
<time>2017-12-19T16:17:13Z</time>
</trkpt>
<trkpt lat="53.6877144" lon="17.3198435">
<ele>189</ele>
<time>2017-12-19T16:17:19Z</time>
</trkpt>
<trkpt lat="53.6873365" lon="17.3215323">
<ele>188</ele>
<time>2017-12-19T16:17:25Z</time>
</trkpt>
<trkpt lat="53.6869554" lon="17.3232334">
<ele>187</ele>
<time>2017-12-19T16:17:31Z</time>
</trkpt>
<trkpt lat="53.6866888" lon="17.3246324">
<ele>186</ele>
<time>2017-12-19T16:17:37Z</time>
</trkpt>
<trkpt lat="53.6866607" lon="17.3259398">
<ele>184</ele>
<time>2017-12-19T16:17:43Z</time>
</trkpt>
<trkpt lat="53.6865460" lon="17.3272619">
<ele>183</ele>
<time>2017-12-19T16:17:49Z</time>
</trkpt>
<trkpt lat="53.6861635" lon="17.3283086">
<ele>184</ele>
<time>2017-12-19T16:17:55Z</time>
</trkpt>
<trkpt lat="53.6856816" lon="17.3292004">
<ele>186</ele>
<time>2017-12-19T16:18:01Z</time>
</trkpt>
<trkpt lat="53.6852089" lon="17.3301182">
<ele>187</ele>
<time>2017-12-19T16:18:07Z</time>
</trkpt>
<trkpt lat="53.6846945" lon="17.3310985">
<ele>188</ele>
<time>2017-12-19T16:18:13Z</time>
</trkpt>
<trkpt lat="53.6841345" lon="17.3321614">
<ele>189</ele>
<time>2017-12-19T16:18:19Z</time>
</trkpt>
<trkpt lat="53.6834728" lon="17.3332301">
<ele>188</ele>
<time>2017-12-19T16:18:25Z</time>
</trkpt>
<trkpt lat="53.6827173" lon="17.3342664">
<ele>189</ele>
<time>2017-12-19T16:18:31Z</time>
</trkpt>
<trkpt lat="53.6819340" lon="17.3353492">
<ele>189</ele>
<time>2017-12-19T16:18:37Z</time>
</trkpt>
<trkpt lat="53.6811497" lon="17.3364446">
<ele>190</ele>
<time>2017-12-19T16:18:43Z</time>
</trkpt>
<trkpt lat="53.6803667" lon="17.3375600">
<ele>191</ele>
<time>2017-12-19T16:18:49Z</time>
</trkpt>
<trkpt lat="53.6795886" lon="17.3386431">
<ele>193</ele>
<time>2017-12-19T16:18:55Z</time>
</trkpt>
<trkpt lat="53.6788728" lon="17.3396328">
<ele>194</ele>
<time>2017-12-19T16:19:01Z</time>
</trkpt>
<trkpt lat="53.6782264" lon="17.3405416">
<ele>195</ele>
<time>2017-12-19T16:19:07Z</time>
</trkpt>
<trkpt lat="53.6775932" lon="17.3414379">
<ele>194</ele>
<time>2017-12-19T16:19:13Z</time>
</trkpt>
<trkpt lat="53.6769398" lon="17.3423219">
<ele>195</ele>
<time>2017-12-19T16:19:19Z</time>
</trkpt>
<trkpt lat="53.6762768" lon="17.3432459">
<ele>196</ele>
<time>2017-12-19T16:19:25Z</time>
</trkpt>
<trkpt lat="53.6756198" lon="17.3441782">
<ele>197</ele>
<time>2017-12-19T16:19:31Z</time>
</trkpt>
<trkpt lat="53.6749686" lon="17.3450879">
<ele>199</ele>
<time>2017-12-19T16:19:37Z</time>
</trkpt>
<trkpt lat="53.6742975" lon="17.3459793">
<ele>200</ele>
<time>2017-12-19T16:19:43Z</time>
</trkpt>
<trkpt lat="53.6736435" lon="17.3469078">
<ele>200</ele>
<time>2017-12-19T16:19:49Z</time>
</trkpt>
<trkpt lat="53.6730191" lon="17.3477845">
<ele>200</ele>
<time>2017-12-19T16:19:55Z</time>
</trkpt>
<trkpt lat="53.6724147" lon="17.3486163">
<ele>200</ele>
<time>2017-12-19T16:20:01Z</time>
</trkpt>
<trkpt lat="53.6721050" lon="17.3490278">
<ele>200</ele>
<time>2017-12-19T16:20:07Z</time>
</trkpt>
<trkpt lat="53.6720720" lon="17.3490654">
<ele>200</ele>
<time>2017-12-19T16:20:13Z</time>
</trkpt>
<trkpt lat="53.6720684" lon="17.3490714">
<ele>200</ele>
<time>2017-12-19T16:20:19Z</time>
</trkpt>
<trkpt lat="53.6720573" lon="17.3490940">
<ele>200</ele>
<time>2017-12-19T16:20:25Z</time>
</trkpt>
<trkpt lat="53.6718817" lon="17.3493388">
<ele>201</ele>
<time>2017-12-19T16:20:31Z</time>
</trkpt>
<trkpt lat="53.6716557" lon="17.3496518">
<ele>201</ele>
<time>2017-12-19T16:20:37Z</time>
</trkpt>
<trkpt lat="53.6713866" lon="17.3500004">
<ele>202</ele>
<time>2017-12-19T16:20:43Z</time>
</trkpt>
<trkpt lat="53.6710725" lon="17.3504463">
<ele>203</ele>
<time>2017-12-19T16:20:49Z</time>
</trkpt>
<trkpt lat="53.6707241" lon="17.3509510">
<ele>204</ele>
<time>2017-12-19T16:20:55Z</time>
</trkpt>
<trkpt lat="53.6704082" lon="17.3514285">
<ele>204</ele>
<time>2017-12-19T16:21:01Z</time>
</trkpt>
<trkpt lat="53.6702053" lon="17.3517055">
<ele>204</ele>
<time>2017-12-19T16:21:07Z</time>
</trkpt>
<trkpt lat="53.6701592" lon="17.3517757">
<ele>204</ele>
<time>2017-12-19T16:21:13Z</time>
</trkpt>
<trkpt lat="53.6701592" lon="17.3517757">
<ele>204</ele>
<time>2017-12-19T16:21:19Z</time>
</trkpt>
<trkpt lat="53.6701592" lon="17.3517757">
<ele>204</ele>
<time>2017-12-19T16:21:25Z</time>
</trkpt>
<trkpt lat="53.6701592" lon="17.3517757">
<ele>204</ele>
<time>2017-12-19T16:21:31Z</time>
</trkpt>
<trkpt lat="53.6701592" lon="17.3517757">
<ele>204</ele>
<time>2017-12-19T16:21:37Z</time>
</trkpt>
<trkpt lat="53.6701592" lon="17.3517757">
<ele>204</ele>
<time>2017-12-19T16:21:43Z</time>
</trkpt>
<trkpt lat="53.6701592" lon="17.3517757">
<ele>204</ele>
<time>2017-12-19T16:21:49Z</time>
</trkpt>
<trkpt lat="53.6701592" lon="17.3517757">
<ele>204</ele>
<time>2017-12-19T16:21:55Z</time>
</trkpt>
<trkpt lat="53.6701592" lon="17.3517757">
<ele>204</ele>
<time>2017-12-19T16:22:01Z</time>
</trkpt>
<trkpt lat="53.6701592" lon="17.3517757">
<ele>204</ele>
<time>2017-12-19T16:22:07Z</time>
</trkpt>
<trkpt lat="53.6701592" lon="17.3517757">
<ele>204</ele>
<time>2017-12-19T16:22:13Z</time>
</trkpt>
<trkpt lat="53.6701592" lon="17.3517757">
<ele>204</ele>
<time>2017-12-19T16:22:19Z</time>
</trkpt>
<trkpt lat="53.6701592" lon="17.3517757">
<ele>204</ele>
<time>2017-12-19T16:22:25Z</time>
</trkpt>
<trkpt lat="53.6701592" lon="17.3517757">
<ele>204</ele>
<time>2017-12-19T16:22:31Z</time>
</trkpt>
<trkpt lat="53.6700932" lon="17.3518892">
<ele>204</ele>
<time>2017-12-19T16:22:37Z</time>
</trkpt>
<trkpt lat="53.6699320" lon="17.3521364">
<ele>204</ele>
<time>2017-12-19T16:22:43Z</time>
</trkpt>
<trkpt lat="53.6697955" lon="17.3524316">
<ele>205</ele>
<time>2017-12-19T16:22:49Z</time>
</trkpt>
<trkpt lat="53.6698839" lon="17.3528819">
<ele>205</ele>
<time>2017-12-19T16:22:55Z</time>
</trkpt>
<trkpt lat="53.6700792" lon="17.3534730">
<ele>205</ele>
<time>2017-12-19T16:23:01Z</time>
</trkpt>
<trkpt lat="53.6703484" lon="17.3541685">
<ele>202</ele>
<time>2017-12-19T16:23:07Z</time>
</trkpt>
<trkpt lat="53.6706829" lon="17.3548839">
<ele>199</ele>
<time>2017-12-19T16:23:13Z</time>
</trkpt>
<trkpt lat="53.6710702" lon="17.3556980">
<ele>199</ele>
<time>2017-12-19T16:23:19Z</time>
</trkpt>
<trkpt lat="53.6715271" lon="17.3565629">
<ele>199</ele>
<time>2017-12-19T16:23:25Z</time>
</trkpt>
<trkpt lat="53.6720134" lon="17.3575165">
<ele>198</ele>
<time>2017-12-19T16:23:31Z</time>
</trkpt>
<trkpt lat="53.6724780" lon="17.3584583">
<ele>198</ele>
<time>2017-12-19T16:23:37Z</time>
</trkpt>
<trkpt lat="53.6728614" lon="17.3594938">
<ele>199</ele>
<time>2017-12-19T16:23:43Z</time>
</trkpt>
<trkpt lat="53.6731179" lon="17.3606410">
<ele>198</ele>
<time>2017-12-19T16:23:49Z</time>
</trkpt>
<trkpt lat="53.6732874" lon="17.3618315">
<ele>196</ele>
<time>2017-12-19T16:23:55Z</time>
</trkpt>
<trkpt lat="53.6733439" lon="17.3631034">
<ele>195</ele>
<time>2017-12-19T16:24:01Z</time>
</trkpt>
<trkpt lat="53.6732852" lon="17.3644722">
<ele>194</ele>
<time>2017-12-19T16:24:07Z</time>
</trkpt>
<trkpt lat="53.6732213" lon="17.3658569">
<ele>194</ele>
<time>2017-12-19T16:24:13Z</time>
</trkpt>
<trkpt lat="53.6731582" lon="17.3671208">
<ele>193</ele>
<time>2017-12-19T16:24:19Z</time>
</trkpt>
<trkpt lat="53.6731249" lon="17.3677597">
<ele>194</ele>
<time>2017-12-19T16:24:25Z</time>
</trkpt>
<trkpt lat="53.6730647" lon="17.3680556">
<ele>194</ele>
<time>2017-12-19T16:24:31Z</time>
</trkpt>
<trkpt lat="53.6732035" lon="17.3686400">
<ele>197</ele>
<time>2017-12-19T16:24:37Z</time>
</trkpt>
<trkpt lat="53.6732676" lon="17.3694151">
<ele>197</ele>
<time>2017-12-19T16:24:43Z</time>
</trkpt>
<trkpt lat="53.6733943" lon="17.3701447">
<ele>198</ele>
<time>2017-12-19T16:24:49Z</time>
</trkpt>
<trkpt lat="53.6735633" lon="17.3709303">
<ele>198</ele>
<time>2017-12-19T16:24:55Z</time>
</trkpt>
<trkpt lat="53.6737286" lon="17.3717835">
<ele>198</ele>
<time>2017-12-19T16:25:01Z</time>
</trkpt>
<trkpt lat="53.6738996" lon="17.3726265">
<ele>198</ele>
<time>2017-12-19T16:25:07Z</time>
</trkpt>
<trkpt lat="53.6740747" lon="17.3734633">
<ele>200</ele>
<time>2017-12-19T16:25:13Z</time>
</trkpt>
<trkpt lat="53.6742572" lon="17.3743253">
<ele>199</ele>
<time>2017-12-19T16:25:19Z</time>
</trkpt>
<trkpt lat="53.6744280" lon="17.3751381">
<ele>200</ele>
<time>2017-12-19T16:25:25Z</time>
</trkpt>
<trkpt lat="53.6745863" lon="17.3759001">
<ele>201</ele>
<time>2017-12-19T16:25:31Z</time>
</trkpt>
<trkpt lat="53.6747657" lon="17.3768002">
<ele>201</ele>
<time>2017-12-19T16:25:37Z</time>
</trkpt>
<trkpt lat="53.6749700" lon="17.3778335">
<ele>201</ele>
<time>2017-12-19T16:25:43Z</time>
</trkpt>
<trkpt lat="53.6751632" lon="17.3788273">
<ele>201</ele>
<time>2017-12-19T16:25:49Z</time>
</trkpt>
<trkpt lat="53.6753722" lon="17.3798670">
<ele>200</ele>
<time>2017-12-19T16:25:55Z</time>
</trkpt>
<trkpt lat="53.6755670" lon="17.3807505">
<ele>200</ele>
<time>2017-12-19T16:26:01Z</time>
</trkpt>
<trkpt lat="53.6757339" lon="17.3815863">
<ele>201</ele>
<time>2017-12-19T16:26:07Z</time>
</trkpt>
<trkpt lat="53.6758917" lon="17.3824094">
<ele>201</ele>
<time>2017-12-19T16:26:13Z</time>
</trkpt>
<trkpt lat="53.6760153" lon="17.3829812">
<ele>201</ele>
<time>2017-12-19T16:26:19Z</time>
</trkpt>
<trkpt lat="53.6761336" lon="17.3835920">
<ele>201</ele>
<time>2017-12-19T16:26:25Z</time>
</trkpt>
<trkpt lat="53.6762863" lon="17.3843772">
<ele>200</ele>
<time>2017-12-19T16:26:31Z</time>
</trkpt>
<trkpt lat="53.6764664" lon="17.3853018">
<ele>199</ele>
<time>2017-12-19T16:26:37Z</time>
</trkpt>
<trkpt lat="53.6766782" lon="17.3863324">
<ele>199</ele>
<time>2017-12-19T16:26:43Z</time>
</trkpt>
<trkpt lat="53.6769386" lon="17.3875821">
<ele>199</ele>
<time>2017-12-19T16:26:49Z</time>
</trkpt>
<trkpt lat="53.6771342" lon="17.3885533">
<ele>199</ele>
<time>2017-12-19T16:26:55Z</time>
</trkpt>
<trkpt lat="53.6773228" lon="17.3894637">
<ele>198</ele>
<time>2017-12-19T16:27:01Z</time>
</trkpt>
<trkpt lat="53.6775394" lon="17.3905340">
<ele>196</ele>
<time>2017-12-19T16:27:07Z</time>
</trkpt>
<trkpt lat="53.6777869" lon="17.3917646">
<ele>194</ele>
<time>2017-12-19T16:27:13Z</time>
</trkpt>
<trkpt lat="53.6780429" lon="17.3930264">
<ele>191</ele>
<time>2017-12-19T16:27:19Z</time>
</trkpt>
<trkpt lat="53.6783228" lon="17.3944310">
<ele>189</ele>
<time>2017-12-19T16:27:25Z</time>
</trkpt>
<trkpt lat="53.6786234" lon="17.3959158">
<ele>190</ele>
<time>2017-12-19T16:27:31Z</time>
</trkpt>
<trkpt lat="53.6789419" lon="17.3974742">
<ele>191</ele>
<time>2017-12-19T16:27:37Z</time>
</trkpt>
<trkpt lat="53.6792707" lon="17.3991320">
<ele>192</ele>
<time>2017-12-19T16:27:43Z</time>
</trkpt>
<trkpt lat="53.6796277" lon="17.4008319">
<ele>195</ele>
<time>2017-12-19T16:27:49Z</time>
</trkpt>
<trkpt lat="53.6799558" lon="17.4024869">
<ele>198</ele>
<time>2017-12-19T16:27:55Z</time>
</trkpt>
<trkpt lat="53.6803085" lon="17.4042507">
<ele>198</ele>
<time>2017-12-19T16:28:01Z</time>
</trkpt>
<trkpt lat="53.6806932" lon="17.4061241">
<ele>196</ele>
<time>2017-12-19T16:28:07Z</time>
</trkpt>
<trkpt lat="53.6811012" lon="17.4081578">
<ele>195</ele>
<time>2017-12-19T16:28:13Z</time>
</trkpt>
<trkpt lat="53.6815293" lon="17.4102485">
<ele>195</ele>
<time>2017-12-19T16:28:19Z</time>
</trkpt>
<trkpt lat="53.6819258" lon="17.4122278">
<ele>195</ele>
<time>2017-12-19T16:28:25Z</time>
</trkpt>
<trkpt lat="53.6822936" lon="17.4140365">
<ele>199</ele>
<time>2017-12-19T16:28:31Z</time>
</trkpt>
<trkpt lat="53.6826211" lon="17.4157172">
<ele>199</ele>
<time>2017-12-19T16:28:37Z</time>
</trkpt>
<trkpt lat="53.6829680" lon="17.4174394">
<ele>200</ele>
<time>2017-12-19T16:28:43Z</time>
</trkpt>
<trkpt lat="53.6833276" lon="17.4192140">
<ele>199</ele>
<time>2017-12-19T16:28:49Z</time>
</trkpt>
<trkpt lat="53.6836901" lon="17.4209373">
<ele>197</ele>
<time>2017-12-19T16:28:55Z</time>
</trkpt>
<trkpt lat="53.6840313" lon="17.4225812">
<ele>195</ele>
<time>2017-12-19T16:29:01Z</time>
</trkpt>
<trkpt lat="53.6843193" lon="17.4240061">
<ele>195</ele>
<time>2017-12-19T16:29:07Z</time>
</trkpt>
<trkpt lat="53.6845604" lon="17.4252267">
<ele>194</ele>
<time>2017-12-19T16:29:13Z</time>
</trkpt>
<trkpt lat="53.6846864" lon="17.4263641">
<ele>194</ele>
<time>2017-12-19T16:29:19Z</time>
</trkpt>
<trkpt lat="53.6847960" lon="17.4275762">
<ele>193</ele>
<time>2017-12-19T16:29:25Z</time>
</trkpt>
<trkpt lat="53.6849231" lon="17.4288366">
<ele>194</ele>
<time>2017-12-19T16:29:31Z</time>
</trkpt>
<trkpt lat="53.6850581" lon="17.4303135">
<ele>194</ele>
<time>2017-12-19T16:29:37Z</time>
</trkpt>
<trkpt lat="53.6852250" lon="17.4320052">
<ele>191</ele>
<time>2017-12-19T16:29:43Z</time>
</trkpt>
<trkpt lat="53.6854074" lon="17.4339082">
<ele>192</ele>
<time>2017-12-19T16:29:49Z</time>
</trkpt>
<trkpt lat="53.6856109" lon="17.4359507">
<ele>192</ele>
<time>2017-12-19T16:29:55Z</time>
</trkpt>
<trkpt lat="53.6857922" lon="17.4379888">
<ele>191</ele>
<time>2017-12-19T16:30:01Z</time>
</trkpt>
<trkpt lat="53.6859759" lon="17.4399776">
<ele>193</ele>
<time>2017-12-19T16:30:07Z</time>
</trkpt>
<trkpt lat="53.6861647" lon="17.4418896">
<ele>196</ele>
<time>2017-12-19T16:30:13Z</time>
</trkpt>
<trkpt lat="53.6863527" lon="17.4438659">
<ele>198</ele>
<time>2017-12-19T16:30:19Z</time>
</trkpt>
<trkpt lat="53.6865325" lon="17.4458516">
<ele>197</ele>
<time>2017-12-19T16:30:25Z</time>
</trkpt>
<trkpt lat="53.6867290" lon="17.4478158">
<ele>197</ele>
<time>2017-12-19T16:30:31Z</time>
</trkpt>
<trkpt lat="53.6869082" lon="17.4496878">
<ele>200</ele>
<time>2017-12-19T16:30:37Z</time>
</trkpt>
<trkpt lat="53.6871186" lon="17.4516002">
<ele>199</ele>
<time>2017-12-19T16:30:43Z</time>
</trkpt>
<trkpt lat="53.6873212" lon="17.4534526">
<ele>198</ele>
<time>2017-12-19T16:30:49Z</time>
</trkpt>
<trkpt lat="53.6874961" lon="17.4553045">
<ele>202</ele>
<time>2017-12-19T16:30:55Z</time>
</trkpt>
<trkpt lat="53.6876901" lon="17.4571680">
<ele>201</ele>
<time>2017-12-19T16:31:01Z</time>
</trkpt>
<trkpt lat="53.6878971" lon="17.4591142">
<ele>201</ele>
<time>2017-12-19T16:31:07Z</time>
</trkpt>
<trkpt lat="53.6880941" lon="17.4610586">
<ele>202</ele>
<time>2017-12-19T16:31:13Z</time>
</trkpt>
<trkpt lat="53.6882840" lon="17.4629706">
<ele>203</ele>
<time>2017-12-19T16:31:19Z</time>
</trkpt>
<trkpt lat="53.6884780" lon="17.4648879">
<ele>203</ele>
<time>2017-12-19T16:31:25Z</time>
</trkpt>
<trkpt lat="53.6886651" lon="17.4667997">
<ele>203</ele>
<time>2017-12-19T16:31:31Z</time>
</trkpt>
<trkpt lat="53.6888318" lon="17.4704339">
<ele>203</ele>
<time>2017-12-19T16:31:43Z</time>
</trkpt>
<trkpt lat="53.6887871" lon="17.4721521">
<ele>204</ele>
<time>2017-12-19T16:31:49Z</time>
</trkpt>
<trkpt lat="53.6886743" lon="17.4737118">
<ele>204</ele>
<time>2017-12-19T16:31:55Z</time>
</trkpt>
<trkpt lat="53.6884978" lon="17.4752952">
<ele>206</ele>
<time>2017-12-19T16:32:01Z</time>
</trkpt>
<trkpt lat="53.6882294" lon="17.4769925">
<ele>206</ele>
<time>2017-12-19T16:32:07Z</time>
</trkpt>
<trkpt lat="53.6878429" lon="17.4788103">
<ele>205</ele>
<time>2017-12-19T16:32:13Z</time>
</trkpt>
<trkpt lat="53.6873423" lon="17.4807006">
<ele>205</ele>
<time>2017-12-19T16:32:19Z</time>
</trkpt>
<trkpt lat="53.6868298" lon="17.4826576">
<ele>206</ele>
<time>2017-12-19T16:32:25Z</time>
</trkpt>
<trkpt lat="53.6863166" lon="17.4847357">
<ele>206</ele>
<time>2017-12-19T16:32:31Z</time>
</trkpt>
<trkpt lat="53.6858591" lon="17.4869510">
<ele>205</ele>
<time>2017-12-19T16:32:37Z</time>
</trkpt>
<trkpt lat="53.6854598" lon="17.4892103">
<ele>204</ele>
<time>2017-12-19T16:32:43Z</time>
</trkpt>
<trkpt lat="53.6851358" lon="17.4915117">
<ele>202</ele>
<time>2017-12-19T16:32:49Z</time>
</trkpt>
<trkpt lat="53.6848959" lon="17.4937970">
<ele>201</ele>
<time>2017-12-19T16:32:55Z</time>
</trkpt>
<trkpt lat="53.6847336" lon="17.4960541">
<ele>200</ele>
<time>2017-12-19T16:33:01Z</time>
</trkpt>
<trkpt lat="53.6846276" lon="17.4983259">
<ele>200</ele>
<time>2017-12-19T16:33:07Z</time>
</trkpt>
<trkpt lat="53.6845126" lon="17.5005396">
<ele>202</ele>
<time>2017-12-19T16:33:13Z</time>
</trkpt>
<trkpt lat="53.6844028" lon="17.5026938">
<ele>203</ele>
<time>2017-12-19T16:33:19Z</time>
</trkpt>
<trkpt lat="53.6842980" lon="17.5048228">
<ele>204</ele>
<time>2017-12-19T16:33:25Z</time>
</trkpt>
<trkpt lat="53.6841969" lon="17.5069728">
<ele>204</ele>
<time>2017-12-19T16:33:31Z</time>
</trkpt>
<trkpt lat="53.6840845" lon="17.5091723">
<ele>203</ele>
<time>2017-12-19T16:33:37Z</time>
</trkpt>
<trkpt lat="53.6839638" lon="17.5113076">
<ele>202</ele>
<time>2017-12-19T16:33:43Z</time>
</trkpt>
<trkpt lat="53.6838728" lon="17.5133451">
<ele>201</ele>
<time>2017-12-19T16:33:49Z</time>
</trkpt>
<trkpt lat="53.6837733" lon="17.5153434">
<ele>200</ele>
<time>2017-12-19T16:33:55Z</time>
</trkpt>
<trkpt lat="53.6836637" lon="17.5173135">
<ele>199</ele>
<time>2017-12-19T16:34:01Z</time>
</trkpt>
<trkpt lat="53.6835564" lon="17.5192932">
<ele>198</ele>
<time>2017-12-19T16:34:07Z</time>
</trkpt>
<trkpt lat="53.6834680" lon="17.5212910">
<ele>196</ele>
<time>2017-12-19T16:34:13Z</time>
</trkpt>
<trkpt lat="53.6833669" lon="17.5233339">
<ele>195</ele>
<time>2017-12-19T16:34:19Z</time>
</trkpt>
<trkpt lat="53.6832591" lon="17.5254009">
<ele>194</ele>
<time>2017-12-19T16:34:25Z</time>
</trkpt>
<trkpt lat="53.6831405" lon="17.5273975">
<ele>194</ele>
<time>2017-12-19T16:34:31Z</time>
</trkpt>
<trkpt lat="53.6829740" lon="17.5293892">
<ele>193</ele>
<time>2017-12-19T16:34:37Z</time>
</trkpt>
<trkpt lat="53.6827786" lon="17.5313811">
<ele>194</ele>
<time>2017-12-19T16:34:43Z</time>
</trkpt>
<trkpt lat="53.6825615" lon="17.5332726">
<ele>195</ele>
<time>2017-12-19T16:34:49Z</time>
</trkpt>
<trkpt lat="53.6823319" lon="17.5351024">
<ele>196</ele>
<time>2017-12-19T16:34:55Z</time>
</trkpt>
<trkpt lat="53.6821110" lon="17.5368787">
<ele>197</ele>
<time>2017-12-19T16:35:01Z</time>
</trkpt>
<trkpt lat="53.6818871" lon="17.5386891">
<ele>198</ele>
<time>2017-12-19T16:35:07Z</time>
</trkpt>
<trkpt lat="53.6816656" lon="17.5405248">
<ele>198</ele>
<time>2017-12-19T16:35:13Z</time>
</trkpt>
<trkpt lat="53.6814319" lon="17.5424041">
<ele>198</ele>
<time>2017-12-19T16:35:19Z</time>
</trkpt>
<trkpt lat="53.6811939" lon="17.5443250">
<ele>197</ele>
<time>2017-12-19T16:35:25Z</time>
</trkpt>
<trkpt lat="53.6809515" lon="17.5463097">
<ele>196</ele>
<time>2017-12-19T16:35:31Z</time>
</trkpt>
<trkpt lat="53.6807035" lon="17.5483491">
<ele>195</ele>
<time>2017-12-19T16:35:37Z</time>
</trkpt>
<trkpt lat="53.6804611" lon="17.5504206">
<ele>194</ele>
<time>2017-12-19T16:35:43Z</time>
</trkpt>
<trkpt lat="53.6802749" lon="17.5525466">
<ele>192</ele>
<time>2017-12-19T16:35:49Z</time>
</trkpt>
<trkpt lat="53.6802088" lon="17.5546356">
<ele>190</ele>
<time>2017-12-19T16:35:55Z</time>
</trkpt>
<trkpt lat="53.6802701" lon="17.5567213">
<ele>188</ele>
<time>2017-12-19T16:36:01Z</time>
</trkpt>
<trkpt lat="53.6803781" lon="17.5587952">
<ele>186</ele>
<time>2017-12-19T16:36:07Z</time>
</trkpt>
<trkpt lat="53.6804817" lon="17.5608404">
<ele>184</ele>
<time>2017-12-19T16:36:13Z</time>
</trkpt>
<trkpt lat="53.6805900" lon="17.5628270">
<ele>185</ele>
<time>2017-12-19T16:36:19Z</time>
</trkpt>
<trkpt lat="53.6806482" lon="17.5647055">
<ele>186</ele>
<time>2017-12-19T16:36:25Z</time>
</trkpt>
<trkpt lat="53.6806233" lon="17.5665343">
<ele>187</ele>
<time>2017-12-19T16:36:31Z</time>
</trkpt>
<trkpt lat="53.6805137" lon="17.5683376">
<ele>189</ele>
<time>2017-12-19T16:36:37Z</time>
</trkpt>
<trkpt lat="53.6800220" lon="17.5718877">
<ele>192</ele>
<time>2017-12-19T16:36:49Z</time>
</trkpt>
<trkpt lat="53.6797294" lon="17.5737259">
<ele>194</ele>
<time>2017-12-19T16:36:55Z</time>
</trkpt>
<trkpt lat="53.6794360" lon="17.5756080">
<ele>194</ele>
<time>2017-12-19T16:37:01Z</time>
</trkpt>
<trkpt lat="53.6791584" lon="17.5775524">
<ele>194</ele>
<time>2017-12-19T16:37:07Z</time>
</trkpt>
<trkpt lat="53.6789561" lon="17.5795834">
<ele>194</ele>
<time>2017-12-19T16:37:13Z</time>
</trkpt>
<trkpt lat="53.6788295" lon="17.5816572">
<ele>195</ele>
<time>2017-12-19T16:37:19Z</time>
</trkpt>
<trkpt lat="53.6788003" lon="17.5835589">
<ele>195</ele>
<time>2017-12-19T16:37:25Z</time>
</trkpt>
<trkpt lat="53.6788440" lon="17.5854596">
<ele>196</ele>
<time>2017-12-19T16:37:31Z</time>
</trkpt>
<trkpt lat="53.6789709" lon="17.5873334">
<ele>195</ele>
<time>2017-12-19T16:37:37Z</time>
</trkpt>
<trkpt lat="53.6791743" lon="17.5891627">
<ele>195</ele>
<time>2017-12-19T16:37:43Z</time>
</trkpt>
<trkpt lat="53.6794285" lon="17.5909536">
<ele>195</ele>
<time>2017-12-19T16:37:49Z</time>
</trkpt>
<trkpt lat="53.6797678" lon="17.5927258">
<ele>196</ele>
<time>2017-12-19T16:37:55Z</time>
</trkpt>
<trkpt lat="53.6801789" lon="17.5944466">
<ele>197</ele>
<time>2017-12-19T16:38:01Z</time>
</trkpt>
<trkpt lat="53.6806748" lon="17.5961318">
<ele>199</ele>
<time>2017-12-19T16:38:07Z</time>
</trkpt>
<trkpt lat="53.6812303" lon="17.5978205">
<ele>201</ele>
<time>2017-12-19T16:38:13Z</time>
</trkpt>
<trkpt lat="53.6818162" lon="17.5995090">
<ele>202</ele>
<time>2017-12-19T16:38:19Z</time>
</trkpt>
<trkpt lat="53.6824124" lon="17.6011912">
<ele>203</ele>
<time>2017-12-19T16:38:25Z</time>
</trkpt>
<trkpt lat="53.6830137" lon="17.6028975">
<ele>203</ele>
<time>2017-12-19T16:38:31Z</time>
</trkpt>
<trkpt lat="53.6836130" lon="17.6045833">
<ele>204</ele>
<time>2017-12-19T16:38:37Z</time>
</trkpt>
<trkpt lat="53.6842130" lon="17.6062792">
<ele>206</ele>
<time>2017-12-19T16:38:43Z</time>
</trkpt>
<trkpt lat="53.6847977" lon="17.6079395">
<ele>207</ele>
<time>2017-12-19T16:38:49Z</time>
</trkpt>
<trkpt lat="53.6853752" lon="17.6095421">
<ele>208</ele>
<time>2017-12-19T16:38:55Z</time>
</trkpt>
<trkpt lat="53.6859685" lon="17.6111977">
<ele>208</ele>
<time>2017-12-19T16:39:01Z</time>
</trkpt>
<trkpt lat="53.6865381" lon="17.6128322">
<ele>207</ele>
<time>2017-12-19T16:39:07Z</time>
</trkpt>
<trkpt lat="53.6870573" lon="17.6143505">
<ele>207</ele>
<time>2017-12-19T16:39:13Z</time>
</trkpt>
<trkpt lat="53.6875621" lon="17.6156094">
<ele>206</ele>
<time>2017-12-19T16:39:19Z</time>
</trkpt>
<trkpt lat="53.6879988" lon="17.6166735">
<ele>205</ele>
<time>2017-12-19T16:39:25Z</time>
</trkpt>
<trkpt lat="53.6881963" lon="17.6178195">
<ele>206</ele>
<time>2017-12-19T16:39:31Z</time>
</trkpt>
<trkpt lat="53.6881295" lon="17.6188296">
<ele>206</ele>
<time>2017-12-19T16:39:37Z</time>
</trkpt>
<trkpt lat="53.6883318" lon="17.6195563">
<ele>208</ele>
<time>2017-12-19T16:39:43Z</time>
</trkpt>
<trkpt lat="53.6886799" lon="17.6198258">
<ele>210</ele>
<time>2017-12-19T16:39:49Z</time>
</trkpt>
<trkpt lat="53.6890143" lon="17.6199987">
<ele>212</ele>
<time>2017-12-19T16:39:55Z</time>
</trkpt>
<trkpt lat="53.6890421" lon="17.6200156">
<ele>211</ele>
<time>2017-12-19T16:40:01Z</time>
</trkpt>
<trkpt lat="53.6890421" lon="17.6200156">
<ele>211</ele>
<time>2017-12-19T16:40:07Z</time>
</trkpt>
<trkpt lat="53.6890421" lon="17.6200156">
<ele>211</ele>
<time>2017-12-19T16:40:13Z</time>
</trkpt>
<trkpt lat="53.6891250" lon="17.6201225">
<ele>212</ele>
<time>2017-12-19T16:40:19Z</time>
</trkpt>
<trkpt lat="53.6890961" lon="17.6206595">
<ele>212</ele>
<time>2017-12-19T16:40:25Z</time>
</trkpt>
<trkpt lat="53.6888927" lon="17.6214086">
<ele>211</ele>
<time>2017-12-19T16:40:31Z</time>
</trkpt>
<trkpt lat="53.6886524" lon="17.6225164">
<ele>211</ele>
<time>2017-12-19T16:40:37Z</time>
</trkpt>
<trkpt lat="53.6883658" lon="17.6237588">
<ele>211</ele>
<time>2017-12-19T16:40:43Z</time>
</trkpt>
<trkpt lat="53.6880288" lon="17.6251460">
<ele>210</ele>
<time>2017-12-19T16:40:49Z</time>
</trkpt>
<trkpt lat="53.6876200" lon="17.6266343">
<ele>209</ele>
<time>2017-12-19T16:40:55Z</time>
</trkpt>
<trkpt lat="53.6871614" lon="17.6281168">
<ele>209</ele>
<time>2017-12-19T16:41:01Z</time>
</trkpt>
<trkpt lat="53.6866507" lon="17.6296776">
<ele>208</ele>
<time>2017-12-19T16:41:07Z</time>
</trkpt>
<trkpt lat="53.6859860" lon="17.6310967">
<ele>207</ele>
<time>2017-12-19T16:41:13Z</time>
</trkpt>
<trkpt lat="53.6852943" lon="17.6322251">
<ele>205</ele>
<time>2017-12-19T16:41:19Z</time>
</trkpt>
<trkpt lat="53.6845733" lon="17.6331724">
<ele>204</ele>
<time>2017-12-19T16:41:25Z</time>
</trkpt>
<trkpt lat="53.6839057" lon="17.6342950">
<ele>204</ele>
<time>2017-12-19T16:41:31Z</time>
</trkpt>
<trkpt lat="53.6833631" lon="17.6356649">
<ele>202</ele>
<time>2017-12-19T16:41:37Z</time>
</trkpt>
<trkpt lat="53.6828030" lon="17.6370141">
<ele>200</ele>
<time>2017-12-19T16:41:43Z</time>
</trkpt>
<trkpt lat="53.6822277" lon="17.6384107">
<ele>198</ele>
<time>2017-12-19T16:41:49Z</time>
</trkpt>
<trkpt lat="53.6816582" lon="17.6397383">
<ele>198</ele>
<time>2017-12-19T16:41:55Z</time>
</trkpt>
<trkpt lat="53.6810866" lon="17.6408878">
<ele>200</ele>
<time>2017-12-19T16:42:01Z</time>
</trkpt>
<trkpt lat="53.6803044" lon="17.6417270">
<ele>198</ele>
<time>2017-12-19T16:42:07Z</time>
</trkpt>
<trkpt lat="53.6795244" lon="17.6425400">
<ele>197</ele>
<time>2017-12-19T16:42:13Z</time>
</trkpt>
<trkpt lat="53.6787357" lon="17.6433651">
<ele>198</ele>
<time>2017-12-19T16:42:19Z</time>
</trkpt>
<trkpt lat="53.6779620" lon="17.6441777">
<ele>200</ele>
<time>2017-12-19T16:42:25Z</time>
</trkpt>
<trkpt lat="53.6771979" lon="17.6449792">
<ele>204</ele>
<time>2017-12-19T16:42:31Z</time>
</trkpt>
<trkpt lat="53.6765149" lon="17.6460572">
<ele>206</ele>
<time>2017-12-19T16:42:37Z</time>
</trkpt>
<trkpt lat="53.6758334" lon="17.6473866">
<ele>204</ele>
<time>2017-12-19T16:42:43Z</time>
</trkpt>
<trkpt lat="53.6750899" lon="17.6487996">
<ele>203</ele>
<time>2017-12-19T16:42:49Z</time>
</trkpt>
<trkpt lat="53.6743348" lon="17.6502367">
<ele>202</ele>
<time>2017-12-19T16:42:55Z</time>
</trkpt>
<trkpt lat="53.6736054" lon="17.6516333">
<ele>202</ele>
<time>2017-12-19T16:43:01Z</time>
</trkpt>
<trkpt lat="53.6728932" lon="17.6530278">
<ele>199</ele>
<time>2017-12-19T16:43:07Z</time>
</trkpt>
<trkpt lat="53.6721514" lon="17.6544381">
<ele>198</ele>
<time>2017-12-19T16:43:13Z</time>
</trkpt>
<trkpt lat="53.6713939" lon="17.6558717">
<ele>196</ele>
<time>2017-12-19T16:43:19Z</time>
</trkpt>
<trkpt lat="53.6706022" lon="17.6573724">
<ele>195</ele>
<time>2017-12-19T16:43:25Z</time>
</trkpt>
<trkpt lat="53.6698520" lon="17.6587930">
<ele>193</ele>
<time>2017-12-19T16:43:31Z</time>
</trkpt>
<trkpt lat="53.6691767" lon="17.6600595">
<ele>190</ele>
<time>2017-12-19T16:43:37Z</time>
</trkpt>
<trkpt lat="53.6685674" lon="17.6612142">
<ele>188</ele>
<time>2017-12-19T16:43:43Z</time>
</trkpt>
<trkpt lat="53.6679641" lon="17.6623607">
<ele>189</ele>
<time>2017-12-19T16:43:49Z</time>
</trkpt>
<trkpt lat="53.6673718" lon="17.6635160">
<ele>189</ele>
<time>2017-12-19T16:43:55Z</time>
</trkpt>
<trkpt lat="53.6667538" lon="17.6646795">
<ele>189</ele>
<time>2017-12-19T16:44:01Z</time>
</trkpt>
<trkpt lat="53.6661431" lon="17.6658530">
<ele>188</ele>
<time>2017-12-19T16:44:07Z</time>
</trkpt>
<trkpt lat="53.6654995" lon="17.6670633">
<ele>187</ele>
<time>2017-12-19T16:44:13Z</time>
</trkpt>
<trkpt lat="53.6648393" lon="17.6683112">
<ele>187</ele>
<time>2017-12-19T16:44:19Z</time>
</trkpt>
<trkpt lat="53.6641224" lon="17.6696423">
<ele>186</ele>
<time>2017-12-19T16:44:25Z</time>
</trkpt>
<trkpt lat="53.6634493" lon="17.6709994">
<ele>187</ele>
<time>2017-12-19T16:44:31Z</time>
</trkpt>
<trkpt lat="53.6630186" lon="17.6723473">
<ele>187</ele>
<time>2017-12-19T16:44:37Z</time>
</trkpt>
<trkpt lat="53.6626639" lon="17.6735849">
<ele>188</ele>
<time>2017-12-19T16:44:43Z</time>
</trkpt>
<trkpt lat="53.6623302" lon="17.6748436">
<ele>188</ele>
<time>2017-12-19T16:44:49Z</time>
</trkpt>
<trkpt lat="53.6620053" lon="17.6761078">
<ele>189</ele>
<time>2017-12-19T16:44:55Z</time>
</trkpt>
<trkpt lat="53.6616853" lon="17.6773566">
<ele>188</ele>
<time>2017-12-19T16:45:01Z</time>
</trkpt>
<trkpt lat="53.6613545" lon="17.6786238">
<ele>187</ele>
<time>2017-12-19T16:45:07Z</time>
</trkpt>
<trkpt lat="53.6610135" lon="17.6799177">
<ele>187</ele>
<time>2017-12-19T16:45:13Z</time>
</trkpt>
<trkpt lat="53.6606760" lon="17.6812018">
<ele>186</ele>
<time>2017-12-19T16:45:19Z</time>
</trkpt>
<trkpt lat="53.6602770" lon="17.6824482">
<ele>184</ele>
<time>2017-12-19T16:45:25Z</time>
</trkpt>
<trkpt lat="53.6596639" lon="17.6835287">
<ele>183</ele>
<time>2017-12-19T16:45:31Z</time>
</trkpt>
<trkpt lat="53.6589706" lon="17.6847154">
<ele>180</ele>
<time>2017-12-19T16:45:37Z</time>
</trkpt>
<trkpt lat="53.6582554" lon="17.6859595">
<ele>178</ele>
<time>2017-12-19T16:45:43Z</time>
</trkpt>
<trkpt lat="53.6575385" lon="17.6872034">
<ele>178</ele>
<time>2017-12-19T16:45:49Z</time>
</trkpt>
<trkpt lat="53.6568121" lon="17.6884760">
<ele>176</ele>
<time>2017-12-19T16:45:55Z</time>
</trkpt>
<trkpt lat="53.6560959" lon="17.6896863">
<ele>174</ele>
<time>2017-12-19T16:46:01Z</time>
</trkpt>
<trkpt lat="53.6554490" lon="17.6907619">
<ele>172</ele>
<time>2017-12-19T16:46:07Z</time>
</trkpt>
<trkpt lat="53.6549074" lon="17.6917440">
<ele>173</ele>
<time>2017-12-19T16:46:13Z</time>
</trkpt>
<trkpt lat="53.6543773" lon="17.6926665">
<ele>172</ele>
<time>2017-12-19T16:46:19Z</time>
</trkpt>
<trkpt lat="53.6538753" lon="17.6934447">
<ele>170</ele>
<time>2017-12-19T16:46:25Z</time>
</trkpt>
<trkpt lat="53.6534043" lon="17.6942835">
<ele>170</ele>
<time>2017-12-19T16:46:31Z</time>
</trkpt>
<trkpt lat="53.6529633" lon="17.6951248">
<ele>169</ele>
<time>2017-12-19T16:46:37Z</time>
</trkpt>
<trkpt lat="53.6524901" lon="17.6959365">
<ele>168</ele>
<time>2017-12-19T16:46:43Z</time>
</trkpt>
<trkpt lat="53.6519752" lon="17.6968063">
<ele>168</ele>
<time>2017-12-19T16:46:49Z</time>
</trkpt>
<trkpt lat="53.6514644" lon="17.6976994">
<ele>168</ele>
<time>2017-12-19T16:46:55Z</time>
</trkpt>
<trkpt lat="53.6510116" lon="17.6985445">
<ele>169</ele>
<time>2017-12-19T16:47:01Z</time>
</trkpt>
<trkpt lat="53.6505912" lon="17.6994910">
<ele>168</ele>
<time>2017-12-19T16:47:07Z</time>
</trkpt>
<trkpt lat="53.6501717" lon="17.7004681">
<ele>167</ele>
<time>2017-12-19T16:47:13Z</time>
</trkpt>
<trkpt lat="53.6497679" lon="17.7013725">
<ele>166</ele>
<time>2017-12-19T16:47:19Z</time>
</trkpt>
<trkpt lat="53.6494172" lon="17.7023291">
<ele>164</ele>
<time>2017-12-19T16:47:25Z</time>
</trkpt>
<trkpt lat="53.6490546" lon="17.7033497">
<ele>162</ele>
<time>2017-12-19T16:47:31Z</time>
</trkpt>
<trkpt lat="53.6487296" lon="17.7041650">
<ele>161</ele>
<time>2017-12-19T16:47:37Z</time>
</trkpt>
<trkpt lat="53.6484166" lon="17.7048267">
<ele>162</ele>
<time>2017-12-19T16:47:43Z</time>
</trkpt>
<trkpt lat="53.6480510" lon="17.7056010">
<ele>163</ele>
<time>2017-12-19T16:47:49Z</time>
</trkpt>
<trkpt lat="53.6476684" lon="17.7064769">
<ele>165</ele>
<time>2017-12-19T16:47:55Z</time>
</trkpt>
<trkpt lat="53.6472513" lon="17.7074442">
<ele>165</ele>
<time>2017-12-19T16:48:01Z</time>
</trkpt>
<trkpt lat="53.6466965" lon="17.7084232">
<ele>165</ele>
<time>2017-12-19T16:48:07Z</time>
</trkpt>
<trkpt lat="53.6461819" lon="17.7094899">
<ele>165</ele>
<time>2017-12-19T16:48:13Z</time>
</trkpt>
<trkpt lat="53.6457264" lon="17.7106518">
<ele>164</ele>
<time>2017-12-19T16:48:19Z</time>
</trkpt>
<trkpt lat="53.6452073" lon="17.7120108">
<ele>165</ele>
<time>2017-12-19T16:48:25Z</time>
</trkpt>
<trkpt lat="53.6445930" lon="17.7134674">
<ele>165</ele>
<time>2017-12-19T16:48:31Z</time>
</trkpt>
<trkpt lat="53.6438532" lon="17.7148664">
<ele>165</ele>
<time>2017-12-19T16:48:37Z</time>
</trkpt>
<trkpt lat="53.6431001" lon="17.7162576">
<ele>164</ele>
<time>2017-12-19T16:48:43Z</time>
</trkpt>
<trkpt lat="53.6423791" lon="17.7176268">
<ele>163</ele>
<time>2017-12-19T16:48:49Z</time>
</trkpt>
<trkpt lat="53.6416891" lon="17.7191912">
<ele>160</ele>
<time>2017-12-19T16:48:55Z</time>
</trkpt>
<trkpt lat="53.6411018" lon="17.7210026">
<ele>156</ele>
<time>2017-12-19T16:49:01Z</time>
</trkpt>
<trkpt lat="53.6406065" lon="17.7226432">
<ele>155</ele>
<time>2017-12-19T16:49:07Z</time>
</trkpt>
<trkpt lat="53.6402655" lon="17.7242893">
<ele>154</ele>
<time>2017-12-19T16:49:13Z</time>
</trkpt>
<trkpt lat="53.6400007" lon="17.7260543">
<ele>155</ele>
<time>2017-12-19T16:49:19Z</time>
</trkpt>
<trkpt lat="53.6395719" lon="17.7277164">
<ele>157</ele>
<time>2017-12-19T16:49:25Z</time>
</trkpt>
<trkpt lat="53.6389743" lon="17.7292949">
<ele>161</ele>
<time>2017-12-19T16:49:31Z</time>
</trkpt>
<trkpt lat="53.6383556" lon="17.7309141">
<ele>162</ele>
<time>2017-12-19T16:49:37Z</time>
</trkpt>
<trkpt lat="53.6377111" lon="17.7325985">
<ele>163</ele>
<time>2017-12-19T16:49:43Z</time>
</trkpt>
<trkpt lat="53.6370644" lon="17.7343155">
<ele>163</ele>
<time>2017-12-19T16:49:49Z</time>
</trkpt>
<trkpt lat="53.6364864" lon="17.7358738">
<ele>164</ele>
<time>2017-12-19T16:49:55Z</time>
</trkpt>
<trkpt lat="53.6359666" lon="17.7373000">
<ele>166</ele>
<time>2017-12-19T16:50:01Z</time>
</trkpt>
<trkpt lat="53.6354805" lon="17.7386225">
<ele>167</ele>
<time>2017-12-19T16:50:07Z</time>
</trkpt>
<trkpt lat="53.6349792" lon="17.7399783">
<ele>168</ele>
<time>2017-12-19T16:50:13Z</time>
</trkpt>
<trkpt lat="53.6344045" lon="17.7414019">
<ele>167</ele>
<time>2017-12-19T16:50:19Z</time>
</trkpt>
<trkpt lat="53.6337805" lon="17.7429364">
<ele>167</ele>
<time>2017-12-19T16:50:25Z</time>
</trkpt>
<trkpt lat="53.6331298" lon="17.7445536">
<ele>167</ele>
<time>2017-12-19T16:50:31Z</time>
</trkpt>
<trkpt lat="53.6324657" lon="17.7461939">
<ele>166</ele>
<time>2017-12-19T16:50:37Z</time>
</trkpt>
<trkpt lat="53.6317613" lon="17.7479240">
<ele>166</ele>
<time>2017-12-19T16:50:43Z</time>
</trkpt>
<trkpt lat="53.6310416" lon="17.7497074">
<ele>167</ele>
<time>2017-12-19T16:50:49Z</time>
</trkpt>
<trkpt lat="53.6303659" lon="17.7513992">
<ele>167</ele>
<time>2017-12-19T16:50:55Z</time>
</trkpt>
<trkpt lat="53.6297011" lon="17.7530591">
<ele>167</ele>
<time>2017-12-19T16:51:01Z</time>
</trkpt>
<trkpt lat="53.6290316" lon="17.7547157">
<ele>168</ele>
<time>2017-12-19T16:51:07Z</time>
</trkpt>
<trkpt lat="53.6283306" lon="17.7564252">
<ele>169</ele>
<time>2017-12-19T16:51:13Z</time>
</trkpt>
<trkpt lat="53.6276443" lon="17.7581202">
<ele>169</ele>
<time>2017-12-19T16:51:19Z</time>
</trkpt>
<trkpt lat="53.6269673" lon="17.7598043">
<ele>169</ele>
<time>2017-12-19T16:51:25Z</time>
</trkpt>
<trkpt lat="53.6263223" lon="17.7614712">
<ele>168</ele>
<time>2017-12-19T16:51:31Z</time>
</trkpt>
<trkpt lat="53.6256767" lon="17.7631780">
<ele>164</ele>
<time>2017-12-19T16:51:37Z</time>
</trkpt>
<trkpt lat="53.6250097" lon="17.7649267">
<ele>160</ele>
<time>2017-12-19T16:51:43Z</time>
</trkpt>
<trkpt lat="53.6242597" lon="17.7664584">
<ele>161</ele>
<time>2017-12-19T16:51:49Z</time>
</trkpt>
<trkpt lat="53.6232298" lon="17.7671499">
<ele>161</ele>
<time>2017-12-19T16:51:55Z</time>
</trkpt>
<trkpt lat="53.6221452" lon="17.7678400">
<ele>160</ele>
<time>2017-12-19T16:52:01Z</time>
</trkpt>
<trkpt lat="53.6210660" lon="17.7685383">
<ele>159</ele>
<time>2017-12-19T16:52:07Z</time>
</trkpt>
<trkpt lat="53.6200062" lon="17.7692212">
<ele>160</ele>
<time>2017-12-19T16:52:13Z</time>
</trkpt>
<trkpt lat="53.6190929" lon="17.7698203">
<ele>162</ele>
<time>2017-12-19T16:52:19Z</time>
</trkpt>
<trkpt lat="53.6183361" lon="17.7703130">
<ele>165</ele>
<time>2017-12-19T16:52:25Z</time>
</trkpt>
<trkpt lat="53.6176135" lon="17.7707771">
<ele>168</ele>
<time>2017-12-19T16:52:31Z</time>
</trkpt>
<trkpt lat="53.6168959" lon="17.7712443">
<ele>170</ele>
<time>2017-12-19T16:52:37Z</time>
</trkpt>
<trkpt lat="53.6161614" lon="17.7717116">
<ele>171</ele>
<time>2017-12-19T16:52:43Z</time>
</trkpt>
<trkpt lat="53.6154262" lon="17.7721901">
<ele>171</ele>
<time>2017-12-19T16:52:49Z</time>
</trkpt>
<trkpt lat="53.6146955" lon="17.7727567">
<ele>170</ele>
<time>2017-12-19T16:52:55Z</time>
</trkpt>
<trkpt lat="53.6132" lon="17.7762">
<ele>174</ele>
<time>2017-12-19T16:53:13Z</time>
</trkpt>
<trkpt lat="53.6127" lon="17.7773">
<ele>177</ele>
<time>2017-12-19T16:53:19Z</time>
</trkpt>
<trkpt lat="53.6123" lon="17.7785">
<ele>180</ele>
<time>2017-12-19T16:53:25Z</time>
</trkpt>
<trkpt lat="53.6119" lon="17.7797">
<ele>178</ele>
<time>2017-12-19T16:53:31Z</time>
</trkpt>
<trkpt lat="53.6114" lon="17.7811">
<ele>180</ele>
<time>2017-12-19T16:53:37Z</time>
</trkpt>
<trkpt lat="53.611" lon="17.7826">
<ele>181</ele>
<time>2017-12-19T16:53:43Z</time>
</trkpt>
<trkpt lat="53.6105" lon="17.7841">
<ele>180</ele>
<time>2017-12-19T16:53:49Z</time>
</trkpt>
<trkpt lat="53.6099653" lon="17.7856067">
<ele>180</ele>
<time>2017-12-19T16:53:55Z</time>
</trkpt>
<trkpt lat="53.6094282" lon="17.7872242">
<ele>179</ele>
<time>2017-12-19T16:54:01Z</time>
</trkpt>
<trkpt lat="53.6088883" lon="17.7888963">
<ele>179</ele>
<time>2017-12-19T16:54:07Z</time>
</trkpt>
<trkpt lat="53.6083382" lon="17.7905954">
<ele>180</ele>
<time>2017-12-19T16:54:13Z</time>
</trkpt>
<trkpt lat="53.6077809" lon="17.7923213">
<ele>181</ele>
<time>2017-12-19T16:54:19Z</time>
</trkpt>
<trkpt lat="53.6073353" lon="17.7936988">
<ele>182</ele>
<time>2017-12-19T16:54:25Z</time>
</trkpt>
<trkpt lat="53.6069550" lon="17.7948505">
<ele>183</ele>
<time>2017-12-19T16:54:31Z</time>
</trkpt>
<trkpt lat="53.6065235" lon="17.7961334">
<ele>184</ele>
<time>2017-12-19T16:54:37Z</time>
</trkpt>
<trkpt lat="53.6061063" lon="17.7976546">
<ele>184</ele>
<time>2017-12-19T16:54:43Z</time>
</trkpt>
<trkpt lat="53.6057282" lon="17.7993598">
<ele>185</ele>
<time>2017-12-19T16:54:49Z</time>
</trkpt>
<trkpt lat="53.6053551" lon="17.8011393">
<ele>186</ele>
<time>2017-12-19T16:54:55Z</time>
</trkpt>
<trkpt lat="53.6049904" lon="17.8028623">
<ele>189</ele>
<time>2017-12-19T16:55:01Z</time>
</trkpt>
<trkpt lat="53.6046308" lon="17.8045243">
<ele>189</ele>
<time>2017-12-19T16:55:07Z</time>
</trkpt>
<trkpt lat="53.6042748" lon="17.8062214">
<ele>188</ele>
<time>2017-12-19T16:55:13Z</time>
</trkpt>
<trkpt lat="53.6037571" lon="17.8074850">
<ele>186</ele>
<time>2017-12-19T16:55:19Z</time>
</trkpt>
<trkpt lat="53.6029544" lon="17.8084610">
<ele>188</ele>
<time>2017-12-19T16:55:25Z</time>
</trkpt>
<trkpt lat="53.6021372" lon="17.8095397">
<ele>187</ele>
<time>2017-12-19T16:55:31Z</time>
</trkpt>
<trkpt lat="53.6013775" lon="17.8105506">
<ele>186</ele>
<time>2017-12-19T16:55:37Z</time>
</trkpt>
<trkpt lat="53.6002614" lon="17.8121090">
<ele>183</ele>
<time>2017-12-19T16:55:49Z</time>
</trkpt>
<trkpt lat="53.5996520" lon="17.8129677">
<ele>184</ele>
<time>2017-12-19T16:55:55Z</time>
</trkpt>
<trkpt lat="53.5990499" lon="17.8137965">
<ele>186</ele>
<time>2017-12-19T16:56:01Z</time>
</trkpt>
<trkpt lat="53.5984682" lon="17.8145793">
<ele>185</ele>
<time>2017-12-19T16:56:07Z</time>
</trkpt>
<trkpt lat="53.5978795" lon="17.8153051">
<ele>184</ele>
<time>2017-12-19T16:56:13Z</time>
</trkpt>
<trkpt lat="53.5972723" lon="17.8158638">
<ele>182</ele>
<time>2017-12-19T16:56:19Z</time>
</trkpt>
<trkpt lat="53.5966558" lon="17.8163716">
<ele>180</ele>
<time>2017-12-19T16:56:25Z</time>
</trkpt>
<trkpt lat="53.5960643" lon="17.8168554">
<ele>179</ele>
<time>2017-12-19T16:56:31Z</time>
</trkpt>
<trkpt lat="53.5955340" lon="17.8173843">
<ele>179</ele>
<time>2017-12-19T16:56:37Z</time>
</trkpt>
<trkpt lat="53.5951035" lon="17.8181627">
<ele>177</ele>
<time>2017-12-19T16:56:43Z</time>
</trkpt>
<trkpt lat="53.5949693" lon="17.8191389">
<ele>176</ele>
<time>2017-12-19T16:56:49Z</time>
</trkpt>
<trkpt lat="53.5952008" lon="17.8200117">
<ele>173</ele>
<time>2017-12-19T16:56:55Z</time>
</trkpt>
<trkpt lat="53.5953834" lon="17.8208824">
<ele>173</ele>
<time>2017-12-19T16:57:01Z</time>
</trkpt>
<trkpt lat="53.5955050" lon="17.8217945">
<ele>175</ele>
<time>2017-12-19T16:57:07Z</time>
</trkpt>
<trkpt lat="53.5955864" lon="17.8228896">
<ele>175</ele>
<time>2017-12-19T16:57:13Z</time>
</trkpt>
<trkpt lat="53.5956488" lon="17.8241867">
<ele>175</ele>
<time>2017-12-19T16:57:19Z</time>
</trkpt>
<trkpt lat="53.5956913" lon="17.8256109">
<ele>175</ele>
<time>2017-12-19T16:57:25Z</time>
</trkpt>
<trkpt lat="53.5957302" lon="17.8271048">
<ele>173</ele>
<time>2017-12-19T16:57:31Z</time>
</trkpt>
<trkpt lat="53.5957739" lon="17.8286601">
<ele>172</ele>
<time>2017-12-19T16:57:37Z</time>
</trkpt>
<trkpt lat="53.5958395" lon="17.8302604">
<ele>171</ele>
<time>2017-12-19T16:57:43Z</time>
</trkpt>
<trkpt lat="53.5959085" lon="17.8319277">
<ele>169</ele>
<time>2017-12-19T16:57:49Z</time>
</trkpt>
<trkpt lat="53.5959807" lon="17.8336427">
<ele>168</ele>
<time>2017-12-19T16:57:55Z</time>
</trkpt>
<trkpt lat="53.5960465" lon="17.8353748">
<ele>167</ele>
<time>2017-12-19T16:58:01Z</time>
</trkpt>
<trkpt lat="53.5960922" lon="17.8371122">
<ele>166</ele>
<time>2017-12-19T16:58:07Z</time>
</trkpt>
<trkpt lat="53.5961021" lon="17.8388842">
<ele>163</ele>
<time>2017-12-19T16:58:13Z</time>
</trkpt>
<trkpt lat="53.5961072" lon="17.8405119">
<ele>161</ele>
<time>2017-12-19T16:58:19Z</time>
</trkpt>
<trkpt lat="53.5961131" lon="17.8420331">
<ele>160</ele>
<time>2017-12-19T16:58:25Z</time>
</trkpt>
<trkpt lat="53.5961177" lon="17.8434199">
<ele>161</ele>
<time>2017-12-19T16:58:31Z</time>
</trkpt>
<trkpt lat="53.5961149" lon="17.8445888">
<ele>159</ele>
<time>2017-12-19T16:58:37Z</time>
</trkpt>
<trkpt lat="53.5961287" lon="17.8457300">
<ele>158</ele>
<time>2017-12-19T16:58:43Z</time>
</trkpt>
<trkpt lat="53.5961248" lon="17.8469363">
<ele>158</ele>
<time>2017-12-19T16:58:49Z</time>
</trkpt>
<trkpt lat="53.5960608" lon="17.8480850">
<ele>159</ele>
<time>2017-12-19T16:58:55Z</time>
</trkpt>
<trkpt lat="53.5956764" lon="17.8491902">
<ele>157</ele>
<time>2017-12-19T16:59:01Z</time>
</trkpt>
<trkpt lat="53.5952448" lon="17.8503585">
<ele>155</ele>
<time>2017-12-19T16:59:07Z</time>
</trkpt>
<trkpt lat="53.5948635" lon="17.8514453">
<ele>153</ele>
<time>2017-12-19T16:59:13Z</time>
</trkpt>
<trkpt lat="53.5944893" lon="17.8525008">
<ele>152</ele>
<time>2017-12-19T16:59:19Z</time>
</trkpt>
<trkpt lat="53.5941597" lon="17.8534559">
<ele>150</ele>
<time>2017-12-19T16:59:25Z</time>
</trkpt>
<trkpt lat="53.5938533" lon="17.8543621">
<ele>149</ele>
<time>2017-12-19T16:59:31Z</time>
</trkpt>
<trkpt lat="53.5935988" lon="17.8550670">
<ele>147</ele>
<time>2017-12-19T16:59:37Z</time>
</trkpt>
<trkpt lat="53.5932368" lon="17.8557554">
<ele>145</ele>
<time>2017-12-19T16:59:43Z</time>
</trkpt>
<trkpt lat="53.5930806" lon="17.8567201">
<ele>149</ele>
<time>2017-12-19T16:59:49Z</time>
</trkpt>
<trkpt lat="53.5931309" lon="17.8574944">
<ele>152</ele>
<time>2017-12-19T16:59:55Z</time>
</trkpt>
<trkpt lat="53.5932076" lon="17.8582829">
<ele>152</ele>
<time>2017-12-19T17:00:01Z</time>
</trkpt>
<trkpt lat="53.5932381" lon="17.8593575">
<ele>154</ele>
<time>2017-12-19T17:00:07Z</time>
</trkpt>
<trkpt lat="53.5932405" lon="17.8605402">
<ele>155</ele>
<time>2017-12-19T17:00:13Z</time>
</trkpt>
<trkpt lat="53.5932298" lon="17.8616588">
<ele>156</ele>
<time>2017-12-19T17:00:19Z</time>
</trkpt>
<trkpt lat="53.5931984" lon="17.8628199">
<ele>156</ele>
<time>2017-12-19T17:00:25Z</time>
</trkpt>
<trkpt lat="53.5932238" lon="17.8640089">
<ele>154</ele>
<time>2017-12-19T17:00:31Z</time>
</trkpt>
<trkpt lat="53.5931050" lon="17.8651678">
<ele>157</ele>
<time>2017-12-19T17:00:37Z</time>
</trkpt>
<trkpt lat="53.5928369" lon="17.8659060">
<ele>159</ele>
<time>2017-12-19T17:00:43Z</time>
</trkpt>
<trkpt lat="53.5923707" lon="17.8662763">
<ele>157</ele>
<time>2017-12-19T17:00:49Z</time>
</trkpt>
<trkpt lat="53.5918569" lon="17.8659628">
<ele>156</ele>
<time>2017-12-19T17:00:55Z</time>
</trkpt>
<trkpt lat="53.5912806" lon="17.8654373">
<ele>154</ele>
<time>2017-12-19T17:01:01Z</time>
</trkpt>
<trkpt lat="53.5908294" lon="17.8648657">
<ele>155</ele>
<time>2017-12-19T17:01:07Z</time>
</trkpt>
<trkpt lat="53.5906425" lon="17.8649595">
<ele>154</ele>
<time>2017-12-19T17:01:13Z</time>
</trkpt>
<trkpt lat="53.5903973" lon="17.8654800">
<ele>154</ele>
<time>2017-12-19T17:01:19Z</time>
</trkpt>
<trkpt lat="53.5901492" lon="17.8658263">
<ele>154</ele>
<time>2017-12-19T17:01:25Z</time>
</trkpt>
<trkpt lat="53.5901135" lon="17.8658808">
<ele>154</ele>
<time>2017-12-19T17:01:31Z</time>
</trkpt>
<trkpt lat="53.5901135" lon="17.8658808">
<ele>154</ele>
<time>2017-12-19T17:01:37Z</time>
</trkpt>
<trkpt lat="53.5901135" lon="17.8658808">
<ele>154</ele>
<time>2017-12-19T17:01:43Z</time>
</trkpt>
<trkpt lat="53.5901135" lon="17.8658808">
<ele>154</ele>
<time>2017-12-19T17:01:49Z</time>
</trkpt>
<trkpt lat="53.5901135" lon="17.8658808">
<ele>154</ele>
<time>2017-12-19T17:01:55Z</time>
</trkpt>
<trkpt lat="53.5901135" lon="17.8658808">
<ele>154</ele>
<time>2017-12-19T17:02:01Z</time>
</trkpt>
<trkpt lat="53.5901135" lon="17.8658808">
<ele>154</ele>
<time>2017-12-19T17:02:07Z</time>
</trkpt>
<trkpt lat="53.5901135" lon="17.8658808">
<ele>154</ele>
<time>2017-12-19T17:02:13Z</time>
</trkpt>
<trkpt lat="53.5901135" lon="17.8658808">
<ele>154</ele>
<time>2017-12-19T17:02:19Z</time>
</trkpt>
<trkpt lat="53.5901135" lon="17.8658808">
<ele>154</ele>
<time>2017-12-19T17:02:25Z</time>
</trkpt>
<trkpt lat="53.5900803" lon="17.8659128">
<ele>154</ele>
<time>2017-12-19T17:02:31Z</time>
</trkpt>
<trkpt lat="53.5900026" lon="17.8660314">
<ele>155</ele>
<time>2017-12-19T17:02:37Z</time>
</trkpt>
<trkpt lat="53.5898192" lon="17.8662908">
<ele>155</ele>
<time>2017-12-19T17:02:43Z</time>
</trkpt>
<trkpt lat="53.5895639" lon="17.8666871">
<ele>156</ele>
<time>2017-12-19T17:02:49Z</time>
</trkpt>
<trkpt lat="53.5893355" lon="17.8670039">
<ele>154</ele>
<time>2017-12-19T17:02:55Z</time>
</trkpt>
<trkpt lat="53.5890157" lon="17.8675788">
<ele>153</ele>
<time>2017-12-19T17:03:01Z</time>
</trkpt>
<trkpt lat="53.5886718" lon="17.8682726">
<ele>153</ele>
<time>2017-12-19T17:03:07Z</time>
</trkpt>
<trkpt lat="53.5882997" lon="17.8689659">
<ele>154</ele>
<time>2017-12-19T17:03:13Z</time>
</trkpt>
<trkpt lat="53.5879506" lon="17.8696605">
<ele>154</ele>
<time>2017-12-19T17:03:19Z</time>
</trkpt>
<trkpt lat="53.5875815" lon="17.8703715">
<ele>155</ele>
<time>2017-12-19T17:03:25Z</time>
</trkpt>
<trkpt lat="53.5871934" lon="17.8710819">
<ele>155</ele>
<time>2017-12-19T17:03:31Z</time>
</trkpt>
<trkpt lat="53.5867910" lon="17.8718438">
<ele>156</ele>
<time>2017-12-19T17:03:37Z</time>
</trkpt>
<trkpt lat="53.5865046" lon="17.8727457">
<ele>158</ele>
<time>2017-12-19T17:03:43Z</time>
</trkpt>
<trkpt lat="53.5862491" lon="17.8735050">
<ele>159</ele>
<time>2017-12-19T17:03:49Z</time>
</trkpt>
<trkpt lat="53.5860083" lon="17.8742399">
<ele>160</ele>
<time>2017-12-19T17:03:55Z</time>
</trkpt>
<trkpt lat="53.5857902" lon="17.8750179">
<ele>160</ele>
<time>2017-12-19T17:04:01Z</time>
</trkpt>
<trkpt lat="53.5854868" lon="17.8757525">
<ele>161</ele>
<time>2017-12-19T17:04:07Z</time>
</trkpt>
<trkpt lat="53.5850809" lon="17.8759563">
<ele>161</ele>
<time>2017-12-19T17:04:13Z</time>
</trkpt>
<trkpt lat="53.5846248" lon="17.8753298">
<ele>161</ele>
<time>2017-12-19T17:04:19Z</time>
</trkpt>
<trkpt lat="53.5842107" lon="17.8748284">
<ele>159</ele>
<time>2017-12-19T17:04:25Z</time>
</trkpt>
<trkpt lat="53.5841249" lon="17.8747270">
<ele>160</ele>
<time>2017-12-19T17:04:31Z</time>
</trkpt>
<trkpt lat="53.5841246" lon="17.8747314">
<ele>160</ele>
<time>2017-12-19T17:04:37Z</time>
</trkpt>
<trkpt lat="53.5841246" lon="17.8747314">
<ele>160</ele>
<time>2017-12-19T17:04:43Z</time>
</trkpt>
<trkpt lat="53.5841093" lon="17.8747107">
<ele>159</ele>
<time>2017-12-19T17:04:49Z</time>
</trkpt>
<trkpt lat="53.5838682" lon="17.8744148">
<ele>158</ele>
<time>2017-12-19T17:04:55Z</time>
</trkpt>
<trkpt lat="53.5834540" lon="17.8738789">
<ele>157</ele>
<time>2017-12-19T17:05:01Z</time>
</trkpt>
<trkpt lat="53.5829699" lon="17.8732567">
<ele>156</ele>
<time>2017-12-19T17:05:07Z</time>
</trkpt>
<trkpt lat="53.5824164" lon="17.8725314">
<ele>154</ele>
<time>2017-12-19T17:05:13Z</time>
</trkpt>
<trkpt lat="53.5818774" lon="17.8718511">
<ele>153</ele>
<time>2017-12-19T17:05:19Z</time>
</trkpt>
<trkpt lat="53.5815728" lon="17.8714580">
<ele>153</ele>
<time>2017-12-19T17:05:25Z</time>
</trkpt>
<trkpt lat="53.5814517" lon="17.8712879">
<ele>153</ele>
<time>2017-12-19T17:05:31Z</time>
</trkpt>
<trkpt lat="53.5813618" lon="17.8711169">
<ele>154</ele>
<time>2017-12-19T17:05:37Z</time>
</trkpt>
<trkpt lat="53.5811782" lon="17.8713786">
<ele>157</ele>
<time>2017-12-19T17:05:43Z</time>
</trkpt>
<trkpt lat="53.5809289" lon="17.8720117">
<ele>155</ele>
<time>2017-12-19T17:05:49Z</time>
</trkpt>
<trkpt lat="53.5805638" lon="17.8727983">
<ele>155</ele>
<time>2017-12-19T17:05:55Z</time>
</trkpt>
<trkpt lat="53.5801402" lon="17.8737009">
<ele>157</ele>
<time>2017-12-19T17:06:01Z</time>
</trkpt>
<trkpt lat="53.5797317" lon="17.8746608">
<ele>155</ele>
<time>2017-12-19T17:06:07Z</time>
</trkpt>
<trkpt lat="53.5792917" lon="17.8756723">
<ele>154</ele>
<time>2017-12-19T17:06:13Z</time>
</trkpt>
<trkpt lat="53.5788680" lon="17.8766316">
<ele>153</ele>
<time>2017-12-19T17:06:19Z</time>
</trkpt>
<trkpt lat="53.5784164" lon="17.8775242">
<ele>152</ele>
<time>2017-12-19T17:06:25Z</time>
</trkpt>
<trkpt lat="53.5778362" lon="17.8783483">
<ele>152</ele>
<time>2017-12-19T17:06:31Z</time>
</trkpt>
<trkpt lat="53.5772061" lon="17.8792629">
<ele>153</ele>
<time>2017-12-19T17:06:37Z</time>
</trkpt>
<trkpt lat="53.5765598" lon="17.8802225">
<ele>153</ele>
<time>2017-12-19T17:06:43Z</time>
</trkpt>
<trkpt lat="53.5758887" lon="17.8812198">
<ele>153</ele>
<time>2017-12-19T17:06:49Z</time>
</trkpt>
<trkpt lat="53.5752305" lon="17.8821996">
<ele>154</ele>
<time>2017-12-19T17:06:55Z</time>
</trkpt>
<trkpt lat="53.5745467" lon="17.8831907">
<ele>156</ele>
<time>2017-12-19T17:07:01Z</time>
</trkpt>
<trkpt lat="53.5738422" lon="17.8842360">
<ele>156</ele>
<time>2017-12-19T17:07:07Z</time>
</trkpt>
<trkpt lat="53.5731589" lon="17.8852512">
<ele>157</ele>
<time>2017-12-19T17:07:13Z</time>
</trkpt>
<trkpt lat="53.5725521" lon="17.8861421">
<ele>159</ele>
<time>2017-12-19T17:07:19Z</time>
</trkpt>
<trkpt lat="53.5719210" lon="17.8870936">
<ele>157</ele>
<time>2017-12-19T17:07:25Z</time>
</trkpt>
<trkpt lat="53.5712834" lon="17.8880573">
<ele>158</ele>
<time>2017-12-19T17:07:31Z</time>
</trkpt>
<trkpt lat="53.5706947" lon="17.8889108">
<ele>157</ele>
<time>2017-12-19T17:07:37Z</time>
</trkpt>
<trkpt lat="53.5701782" lon="17.8896643">
<ele>156</ele>
<time>2017-12-19T17:07:43Z</time>
</trkpt>
<trkpt lat="53.5696787" lon="17.8904026">
<ele>156</ele>
<time>2017-12-19T17:07:49Z</time>
</trkpt>
<trkpt lat="53.5691754" lon="17.8911404">
<ele>157</ele>
<time>2017-12-19T17:07:55Z</time>
</trkpt>
<trkpt lat="53.5686785" lon="17.8918792">
<ele>157</ele>
<time>2017-12-19T17:08:01Z</time>
</trkpt>
<trkpt lat="53.5681705" lon="17.8926353">
<ele>156</ele>
<time>2017-12-19T17:08:07Z</time>
</trkpt>
<trkpt lat="53.5676343" lon="17.8934360">
<ele>156</ele>
<time>2017-12-19T17:08:13Z</time>
</trkpt>
<trkpt lat="53.5670628" lon="17.8942841">
<ele>155</ele>
<time>2017-12-19T17:08:19Z</time>
</trkpt>
<trkpt lat="53.5664902" lon="17.8951070">
<ele>154</ele>
<time>2017-12-19T17:08:25Z</time>
</trkpt>
<trkpt lat="53.5659732" lon="17.8958676">
<ele>153</ele>
<time>2017-12-19T17:08:31Z</time>
</trkpt>
<trkpt lat="53.5655047" lon="17.8965647">
<ele>152</ele>
<time>2017-12-19T17:08:37Z</time>
</trkpt>
<trkpt lat="53.5650536" lon="17.8972180">
<ele>151</ele>
<time>2017-12-19T17:08:43Z</time>
</trkpt>
<trkpt lat="53.5646121" lon="17.8978549">
<ele>149</ele>
<time>2017-12-19T17:08:49Z</time>
</trkpt>
<trkpt lat="53.5641660" lon="17.8985723">
<ele>150</ele>
<time>2017-12-19T17:08:55Z</time>
</trkpt>
<trkpt lat="53.5638078" lon="17.8994282">
<ele>148</ele>
<time>2017-12-19T17:09:01Z</time>
</trkpt>
<trkpt lat="53.5635022" lon="17.9002631">
<ele>147</ele>
<time>2017-12-19T17:09:07Z</time>
</trkpt>
<trkpt lat="53.5630339" lon="17.9008616">
<ele>145</ele>
<time>2017-12-19T17:09:13Z</time>
</trkpt>
<trkpt lat="53.5623767" lon="17.9009331">
<ele>143</ele>
<time>2017-12-19T17:09:19Z</time>
</trkpt>
<trkpt lat="53.5616752" lon="17.9009631">
<ele>145</ele>
<time>2017-12-19T17:09:25Z</time>
</trkpt>
<trkpt lat="53.5610206" lon="17.9012080">
<ele>144</ele>
<time>2017-12-19T17:09:31Z</time>
</trkpt>
<trkpt lat="53.5603166" lon="17.9015112">
<ele>144</ele>
<time>2017-12-19T17:09:37Z</time>
</trkpt>
<trkpt lat="53.5596396" lon="17.9016940">
<ele>144</ele>
<time>2017-12-19T17:09:43Z</time>
</trkpt>
<trkpt lat="53.5588750" lon="17.9015695">
<ele>146</ele>
<time>2017-12-19T17:09:49Z</time>
</trkpt>
<trkpt lat="53.5580100" lon="17.9014270">
<ele>144</ele>
<time>2017-12-19T17:09:55Z</time>
</trkpt>
<trkpt lat="53.5570678" lon="17.9012937">
<ele>140</ele>
<time>2017-12-19T17:10:01Z</time>
</trkpt>
<trkpt lat="53.5561577" lon="17.9011577">
<ele>139</ele>
<time>2017-12-19T17:10:07Z</time>
</trkpt>
<trkpt lat="53.5553141" lon="17.9011827">
<ele>135</ele>
<time>2017-12-19T17:10:13Z</time>
</trkpt>
<trkpt lat="53.5547162" lon="17.9021261">
<ele>129</ele>
<time>2017-12-19T17:10:19Z</time>
</trkpt>
<trkpt lat="53.5543680" lon="17.9035419">
<ele>131</ele>
<time>2017-12-19T17:10:25Z</time>
</trkpt>
<trkpt lat="53.5543606" lon="17.9050342">
<ele>135</ele>
<time>2017-12-19T17:10:31Z</time>
</trkpt>
<trkpt lat="53.5544824" lon="17.9064748">
<ele>138</ele>
<time>2017-12-19T17:10:37Z</time>
</trkpt>
<trkpt lat="53.5544131" lon="17.9079357">
<ele>141</ele>
<time>2017-12-19T17:10:43Z</time>
</trkpt>
<trkpt lat="53.5541544" lon="17.9093490">
<ele>142</ele>
<time>2017-12-19T17:10:49Z</time>
</trkpt>
<trkpt lat="53.5538822" lon="17.9108263">
<ele>144</ele>
<time>2017-12-19T17:10:55Z</time>
</trkpt>
<trkpt lat="53.5535996" lon="17.9122792">
<ele>144</ele>
<time>2017-12-19T17:11:01Z</time>
</trkpt>
<trkpt lat="53.5533148" lon="17.9137664">
<ele>141</ele>
<time>2017-12-19T17:11:07Z</time>
</trkpt>
<trkpt lat="53.5530361" lon="17.9153198">
<ele>140</ele>
<time>2017-12-19T17:11:13Z</time>
</trkpt>
<trkpt lat="53.5527253" lon="17.9169238">
<ele>138</ele>
<time>2017-12-19T17:11:19Z</time>
</trkpt>
<trkpt lat="53.5523868" lon="17.9185072">
<ele>137</ele>
<time>2017-12-19T17:11:25Z</time>
</trkpt>
<trkpt lat="53.5520429" lon="17.9200618">
<ele>135</ele>
<time>2017-12-19T17:11:31Z</time>
</trkpt>
<trkpt lat="53.5517310" lon="17.9215306">
<ele>134</ele>
<time>2017-12-19T17:11:37Z</time>
</trkpt>
<trkpt lat="53.5514025" lon="17.9229156">
<ele>134</ele>
<time>2017-12-19T17:11:43Z</time>
</trkpt>
<trkpt lat="53.5509349" lon="17.9241513">
<ele>133</ele>
<time>2017-12-19T17:11:49Z</time>
</trkpt>
<trkpt lat="53.5493606" lon="17.9260670">
<ele>130</ele>
<time>2017-12-19T17:12:01Z</time>
</trkpt>
<trkpt lat="53.5485755" lon="17.9269681">
<ele>133</ele>
<time>2017-12-19T17:12:07Z</time>
</trkpt>
<trkpt lat="53.5478522" lon="17.9278155">
<ele>135</ele>
<time>2017-12-19T17:12:13Z</time>
</trkpt>
<trkpt lat="53.5471671" lon="17.9286210">
<ele>135</ele>
<time>2017-12-19T17:12:19Z</time>
</trkpt>
<trkpt lat="53.5463936" lon="17.9294907">
<ele>136</ele>
<time>2017-12-19T17:12:25Z</time>
</trkpt>
<trkpt lat="53.5455248" lon="17.9304527">
<ele>136</ele>
<time>2017-12-19T17:12:31Z</time>
</trkpt>
<trkpt lat="53.5445838" lon="17.9315285">
<ele>137</ele>
<time>2017-12-19T17:12:37Z</time>
</trkpt>
<trkpt lat="53.5435874" lon="17.9326633">
<ele>139</ele>
<time>2017-12-19T17:12:43Z</time>
</trkpt>
<trkpt lat="53.5425269" lon="17.9338259">
<ele>138</ele>
<time>2017-12-19T17:12:49Z</time>
</trkpt>
<trkpt lat="53.5403625" lon="17.9364518">
<ele>138</ele>
<time>2017-12-19T17:13:01Z</time>
</trkpt>
<trkpt lat="53.5392466" lon="17.9377484">
<ele>137</ele>
<time>2017-12-19T17:13:07Z</time>
</trkpt>
<trkpt lat="53.5382683" lon="17.9389198">
<ele>137</ele>
<time>2017-12-19T17:13:13Z</time>
</trkpt>
<trkpt lat="53.5374186" lon="17.9399267">
<ele>138</ele>
<time>2017-12-19T17:13:19Z</time>
</trkpt>
<trkpt lat="53.5366798" lon="17.9408090">
<ele>137</ele>
<time>2017-12-19T17:13:25Z</time>
</trkpt>
<trkpt lat="53.5360538" lon="17.9415623">
<ele>137</ele>
<time>2017-12-19T17:13:31Z</time>
</trkpt>
<trkpt lat="53.5355057" lon="17.9421818">
<ele>136</ele>
<time>2017-12-19T17:13:37Z</time>
</trkpt>
<trkpt lat="53.5348740" lon="17.9425916">
<ele>134</ele>
<time>2017-12-19T17:13:43Z</time>
</trkpt>
<trkpt lat="53.5342269" lon="17.9428791">
<ele>133</ele>
<time>2017-12-19T17:13:49Z</time>
</trkpt>
<trkpt lat="53.5336437" lon="17.9435203">
<ele>133</ele>
<time>2017-12-19T17:13:55Z</time>
</trkpt>
<trkpt lat="53.5329971" lon="17.9441383">
<ele>133</ele>
<time>2017-12-19T17:14:01Z</time>
</trkpt>
<trkpt lat="53.5322597" lon="17.9445668">
<ele>133</ele>
<time>2017-12-19T17:14:07Z</time>
</trkpt>
<trkpt lat="53.5314950" lon="17.9448354">
<ele>133</ele>
<time>2017-12-19T17:14:13Z</time>
</trkpt>
<trkpt lat="53.5307673" lon="17.9452753">
<ele>133</ele>
<time>2017-12-19T17:14:19Z</time>
</trkpt>
<trkpt lat="53.5300519" lon="17.9459984">
<ele>133</ele>
<time>2017-12-19T17:14:25Z</time>
</trkpt>
<trkpt lat="53.5292232" lon="17.9465367">
<ele>133</ele>
<time>2017-12-19T17:14:31Z</time>
</trkpt>
<trkpt lat="53.5284192" lon="17.9469839">
<ele>134</ele>
<time>2017-12-19T17:14:37Z</time>
</trkpt>
<trkpt lat="53.5277112" lon="17.9473891">
<ele>135</ele>
<time>2017-12-19T17:14:43Z</time>
</trkpt>
<trkpt lat="53.5270082" lon="17.9478015">
<ele>134</ele>
<time>2017-12-19T17:14:49Z</time>
</trkpt>
<trkpt lat="53.5262263" lon="17.9482461">
<ele>134</ele>
<time>2017-12-19T17:14:55Z</time>
</trkpt>
<trkpt lat="53.5254392" lon="17.9486982">
<ele>133</ele>
<time>2017-12-19T17:15:01Z</time>
</trkpt>
<trkpt lat="53.5246332" lon="17.9491574">
<ele>133</ele>
<time>2017-12-19T17:15:07Z</time>
</trkpt>
<trkpt lat="53.5238643" lon="17.9496142">
<ele>132</ele>
<time>2017-12-19T17:15:13Z</time>
</trkpt>
<trkpt lat="53.5231068" lon="17.9500402">
<ele>132</ele>
<time>2017-12-19T17:15:19Z</time>
</trkpt>
<trkpt lat="53.5223168" lon="17.9505156">
<ele>131</ele>
<time>2017-12-19T17:15:25Z</time>
</trkpt>
<trkpt lat="53.5215033" lon="17.9510366">
<ele>129</ele>
<time>2017-12-19T17:15:31Z</time>
</trkpt>
<trkpt lat="53.5206160" lon="17.9515493">
<ele>128</ele>
<time>2017-12-19T17:15:37Z</time>
</trkpt>
<trkpt lat="53.5197458" lon="17.9520107">
<ele>127</ele>
<time>2017-12-19T17:15:43Z</time>
</trkpt>
<trkpt lat="53.5189114" lon="17.9524535">
<ele>130</ele>
<time>2017-12-19T17:15:49Z</time>
</trkpt>
<trkpt lat="53.5181809" lon="17.9529813">
<ele>131</ele>
<time>2017-12-19T17:15:55Z</time>
</trkpt>
<trkpt lat="53.5176247" lon="17.9536750">
<ele>132</ele>
<time>2017-12-19T17:16:01Z</time>
</trkpt>
<trkpt lat="53.5171984" lon="17.9544605">
<ele>133</ele>
<time>2017-12-19T17:16:07Z</time>
</trkpt>
<trkpt lat="53.5168029" lon="17.9555006">
<ele>136</ele>
<time>2017-12-19T17:16:13Z</time>
</trkpt>
<trkpt lat="53.5165011" lon="17.9567821">
<ele>137</ele>
<time>2017-12-19T17:16:19Z</time>
</trkpt>
<trkpt lat="53.5162153" lon="17.9581841">
<ele>139</ele>
<time>2017-12-19T17:16:25Z</time>
</trkpt>
<trkpt lat="53.5159461" lon="17.9596046">
<ele>140</ele>
<time>2017-12-19T17:16:31Z</time>
</trkpt>
<trkpt lat="53.5156711" lon="17.9610604">
<ele>140</ele>
<time>2017-12-19T17:16:37Z</time>
</trkpt>
<trkpt lat="53.5153910" lon="17.9625352">
<ele>140</ele>
<time>2017-12-19T17:16:43Z</time>
</trkpt>
<trkpt lat="53.5151254" lon="17.9639827">
<ele>140</ele>
<time>2017-12-19T17:16:49Z</time>
</trkpt>
<trkpt lat="53.5148591" lon="17.9654126">
<ele>141</ele>
<time>2017-12-19T17:16:55Z</time>
</trkpt>
<trkpt lat="53.5145802" lon="17.9667171">
<ele>141</ele>
<time>2017-12-19T17:17:01Z</time>
</trkpt>
<trkpt lat="53.5141674" lon="17.9679343">
<ele>140</ele>
<time>2017-12-19T17:17:07Z</time>
</trkpt>
<trkpt lat="53.5136033" lon="17.9691353">
<ele>140</ele>
<time>2017-12-19T17:17:13Z</time>
</trkpt>
<trkpt lat="53.5130199" lon="17.9703755">
<ele>139</ele>
<time>2017-12-19T17:17:19Z</time>
</trkpt>
<trkpt lat="53.5124447" lon="17.9716165">
<ele>139</ele>
<time>2017-12-19T17:17:25Z</time>
</trkpt>
<trkpt lat="53.5118587" lon="17.9728963">
<ele>139</ele>
<time>2017-12-19T17:17:31Z</time>
</trkpt>
<trkpt lat="53.5112488" lon="17.9741833">
<ele>138</ele>
<time>2017-12-19T17:17:37Z</time>
</trkpt>
<trkpt lat="53.5106041" lon="17.9748684">
<ele>138</ele>
<time>2017-12-19T17:17:43Z</time>
</trkpt>
<trkpt lat="53.5099314" lon="17.9753123">
<ele>137</ele>
<time>2017-12-19T17:17:49Z</time>
</trkpt>
<trkpt lat="53.5093009" lon="17.9757535">
<ele>136</ele>
<time>2017-12-19T17:17:55Z</time>
</trkpt>
<trkpt lat="53.5086969" lon="17.9761727">
<ele>136</ele>
<time>2017-12-19T17:18:01Z</time>
</trkpt>
<trkpt lat="53.5080626" lon="17.9766326">
<ele>135</ele>
<time>2017-12-19T17:18:07Z</time>
</trkpt>
<trkpt lat="53.5074706" lon="17.9773908">
<ele>135</ele>
<time>2017-12-19T17:18:13Z</time>
</trkpt>
<trkpt lat="53.5070958" lon="17.9785904">
<ele>136</ele>
<time>2017-12-19T17:18:19Z</time>
</trkpt>
<trkpt lat="53.5067609" lon="17.9798890">
<ele>137</ele>
<time>2017-12-19T17:18:25Z</time>
</trkpt>
<trkpt lat="53.5064579" lon="17.9811071">
<ele>138</ele>
<time>2017-12-19T17:18:31Z</time>
</trkpt>
<trkpt lat="53.5062327" lon="17.9821344">
<ele>138</ele>
<time>2017-12-19T17:18:37Z</time>
</trkpt>
<trkpt lat="53.5059872" lon="17.9832319">
<ele>138</ele>
<time>2017-12-19T17:18:43Z</time>
</trkpt>
<trkpt lat="53.5057308" lon="17.9843425">
<ele>138</ele>
<time>2017-12-19T17:18:49Z</time>
</trkpt>
<trkpt lat="53.5054939" lon="17.9853873">
<ele>140</ele>
<time>2017-12-19T17:18:55Z</time>
</trkpt>
<trkpt lat="53.5054855" lon="17.9866071">
<ele>141</ele>
<time>2017-12-19T17:19:01Z</time>
</trkpt>
<trkpt lat="53.5058274" lon="17.9877748">
<ele>140</ele>
<time>2017-12-19T17:19:07Z</time>
</trkpt>
<trkpt lat="53.5063196" lon="17.9887749">
<ele>140</ele>
<time>2017-12-19T17:19:13Z</time>
</trkpt>
<trkpt lat="53.5069489" lon="17.9896027">
<ele>138</ele>
<time>2017-12-19T17:19:19Z</time>
</trkpt>
<trkpt lat="53.5073093" lon="17.9904096">
<ele>137</ele>
<time>2017-12-19T17:19:25Z</time>
</trkpt>
<trkpt lat="53.5073291" lon="17.9913726">
<ele>140</ele>
<time>2017-12-19T17:19:31Z</time>
</trkpt>
<trkpt lat="53.5073262" lon="17.9923991">
<ele>140</ele>
<time>2017-12-19T17:19:37Z</time>
</trkpt>
<trkpt lat="53.5073593" lon="17.9934309">
<ele>143</ele>
<time>2017-12-19T17:19:43Z</time>
</trkpt>
<trkpt lat="53.5071755" lon="17.9944842">
<ele>145</ele>
<time>2017-12-19T17:19:49Z</time>
</trkpt>
<trkpt lat="53.5068340" lon="17.9954562">
<ele>145</ele>
<time>2017-12-19T17:19:55Z</time>
</trkpt>
<trkpt lat="53.5065078" lon="17.9964506">
<ele>146</ele>
<time>2017-12-19T17:20:01Z</time>
</trkpt>
<trkpt lat="53.5061984" lon="17.9974503">
<ele>146</ele>
<time>2017-12-19T17:20:07Z</time>
</trkpt>
<trkpt lat="53.5061309" lon="17.9983930">
<ele>146</ele>
<time>2017-12-19T17:20:13Z</time>
</trkpt>
<trkpt lat="53.5060726" lon="17.9994016">
<ele>145</ele>
<time>2017-12-19T17:20:19Z</time>
</trkpt>
<trkpt lat="53.5058588" lon="18.0005205">
<ele>146</ele>
<time>2017-12-19T17:20:25Z</time>
</trkpt>
<trkpt lat="53.5056400" lon="18.0017375">
<ele>147</ele>
<time>2017-12-19T17:20:31Z</time>
</trkpt>
<trkpt lat="53.5054364" lon="18.0029556">
<ele>148</ele>
<time>2017-12-19T17:20:37Z</time>
</trkpt>
<trkpt lat="53.5052720" lon="18.0041167">
<ele>148</ele>
<time>2017-12-19T17:20:43Z</time>
</trkpt>
<trkpt lat="53.5051165" lon="18.0052328">
<ele>150</ele>
<time>2017-12-19T17:20:49Z</time>
</trkpt>
<trkpt lat="53.5049604" lon="18.0062114">
<ele>150</ele>
<time>2017-12-19T17:20:55Z</time>
</trkpt>
<trkpt lat="53.5047767" lon="18.0069965">
<ele>150</ele>
<time>2017-12-19T17:21:01Z</time>
</trkpt>
<trkpt lat="53.5045967" lon="18.0078958">
<ele>150</ele>
<time>2017-12-19T17:21:07Z</time>
</trkpt>
<trkpt lat="53.5044254" lon="18.0088817">
<ele>150</ele>
<time>2017-12-19T17:21:13Z</time>
</trkpt>
<trkpt lat="53.5042456" lon="18.0098622">
<ele>150</ele>
<time>2017-12-19T17:21:19Z</time>
</trkpt>
<trkpt lat="53.5040423" lon="18.0109733">
<ele>149</ele>
<time>2017-12-19T17:21:25Z</time>
</trkpt>
<trkpt lat="53.5038232" lon="18.0121758">
<ele>150</ele>
<time>2017-12-19T17:21:31Z</time>
</trkpt>
<trkpt lat="53.5035629" lon="18.0135387">
<ele>150</ele>
<time>2017-12-19T17:21:37Z</time>
</trkpt>
<trkpt lat="53.5032903" lon="18.0149540">
<ele>151</ele>
<time>2017-12-19T17:21:43Z</time>
</trkpt>
<trkpt lat="53.5030209" lon="18.0163524">
<ele>151</ele>
<time>2017-12-19T17:21:49Z</time>
</trkpt>
<trkpt lat="53.5027334" lon="18.0178582">
<ele>151</ele>
<time>2017-12-19T17:21:55Z</time>
</trkpt>
<trkpt lat="53.5024670" lon="18.0193184">
<ele>151</ele>
<time>2017-12-19T17:22:01Z</time>
</trkpt>
<trkpt lat="53.5021690" lon="18.0209630">
<ele>150</ele>
<time>2017-12-19T17:22:07Z</time>
</trkpt>
<trkpt lat="53.5018751" lon="18.0225988">
<ele>149</ele>
<time>2017-12-19T17:22:13Z</time>
</trkpt>
<trkpt lat="53.5016025" lon="18.0241160">
<ele>148</ele>
<time>2017-12-19T17:22:19Z</time>
</trkpt>
<trkpt lat="53.5013113" lon="18.0256700">
<ele>146</ele>
<time>2017-12-19T17:22:25Z</time>
</trkpt>
<trkpt lat="53.5009967" lon="18.0273341">
<ele>145</ele>
<time>2017-12-19T17:22:31Z</time>
</trkpt>
<trkpt lat="53.5006887" lon="18.0289194">
<ele>146</ele>
<time>2017-12-19T17:22:37Z</time>
</trkpt>
<trkpt lat="53.5003811" lon="18.0304996">
<ele>145</ele>
<time>2017-12-19T17:22:43Z</time>
</trkpt>
<trkpt lat="53.5000718" lon="18.0321431">
<ele>145</ele>
<time>2017-12-19T17:22:49Z</time>
</trkpt>
<trkpt lat="53.4997402" lon="18.0338964">
<ele>145</ele>
<time>2017-12-19T17:22:55Z</time>
</trkpt>
<trkpt lat="53.4993986" lon="18.0357718">
<ele>145</ele>
<time>2017-12-19T17:23:01Z</time>
</trkpt>
<trkpt lat="53.4990470" lon="18.0377666">
<ele>145</ele>
<time>2017-12-19T17:23:07Z</time>
</trkpt>
<trkpt lat="53.4986861" lon="18.0396448">
<ele>143</ele>
<time>2017-12-19T17:23:13Z</time>
</trkpt>
<trkpt lat="53.4983569" lon="18.0414085">
<ele>143</ele>
<time>2017-12-19T17:23:19Z</time>
</trkpt>
<trkpt lat="53.4980388" lon="18.0431867">
<ele>143</ele>
<time>2017-12-19T17:23:25Z</time>
</trkpt>
<trkpt lat="53.4977016" lon="18.0450087">
<ele>144</ele>
<time>2017-12-19T17:23:31Z</time>
</trkpt>
<trkpt lat="53.4973594" lon="18.0468325">
<ele>142</ele>
<time>2017-12-19T17:23:37Z</time>
</trkpt>
<trkpt lat="53.4970071" lon="18.0487255">
<ele>142</ele>
<time>2017-12-19T17:23:43Z</time>
</trkpt>
<trkpt lat="53.4967526" lon="18.0505769">
<ele>145</ele>
<time>2017-12-19T17:23:49Z</time>
</trkpt>
<trkpt lat="53.4965781" lon="18.0523542">
<ele>146</ele>
<time>2017-12-19T17:23:55Z</time>
</trkpt>
<trkpt lat="53.4964979" lon="18.0541100">
<ele>147</ele>
<time>2017-12-19T17:24:01Z</time>
</trkpt>
<trkpt lat="53.4964178" lon="18.0559100">
<ele>147</ele>
<time>2017-12-19T17:24:07Z</time>
</trkpt>
<trkpt lat="53.4963250" lon="18.0578214">
<ele>145</ele>
<time>2017-12-19T17:24:13Z</time>
</trkpt>
<trkpt lat="53.4962301" lon="18.0598197">
<ele>145</ele>
<time>2017-12-19T17:24:19Z</time>
</trkpt>
<trkpt lat="53.4961410" lon="18.0619091">
<ele>145</ele>
<time>2017-12-19T17:24:25Z</time>
</trkpt>
<trkpt lat="53.4960217" lon="18.0638977">
<ele>146</ele>
<time>2017-12-19T17:24:31Z</time>
</trkpt>
<trkpt lat="53.4958296" lon="18.0655800">
<ele>147</ele>
<time>2017-12-19T17:24:37Z</time>
</trkpt>
<trkpt lat="53.4956534" lon="18.0671779">
<ele>147</ele>
<time>2017-12-19T17:24:43Z</time>
</trkpt>
<trkpt lat="53.4954832" lon="18.0687473">
<ele>148</ele>
<time>2017-12-19T17:24:49Z</time>
</trkpt>
<trkpt lat="53.4953082" lon="18.0703891">
<ele>148</ele>
<time>2017-12-19T17:24:55Z</time>
</trkpt>
<trkpt lat="53.4951399" lon="18.0720508">
<ele>149</ele>
<time>2017-12-19T17:25:01Z</time>
</trkpt>
<trkpt lat="53.4949595" lon="18.0738049">
<ele>149</ele>
<time>2017-12-19T17:25:07Z</time>
</trkpt>
<trkpt lat="53.4947877" lon="18.0755255">
<ele>148</ele>
<time>2017-12-19T17:25:13Z</time>
</trkpt>
<trkpt lat="53.4946212" lon="18.0771597">
<ele>149</ele>
<time>2017-12-19T17:25:19Z</time>
</trkpt>
<trkpt lat="53.4944964" lon="18.0783292">
<ele>148</ele>
<time>2017-12-19T17:25:25Z</time>
</trkpt>
<trkpt lat="53.4943969" lon="18.0793433">
<ele>148</ele>
<time>2017-12-19T17:25:31Z</time>
</trkpt>
<trkpt lat="53.4943083" lon="18.0801275">
<ele>147</ele>
<time>2017-12-19T17:25:37Z</time>
</trkpt>
<trkpt lat="53.4942200" lon="18.0808218">
<ele>146</ele>
<time>2017-12-19T17:25:43Z</time>
</trkpt>
<trkpt lat="53.4940932" lon="18.0815339">
<ele>145</ele>
<time>2017-12-19T17:25:49Z</time>
</trkpt>
<trkpt lat="53.4939568" lon="18.0822200">
<ele>146</ele>
<time>2017-12-19T17:25:55Z</time>
</trkpt>
<trkpt lat="53.4937484" lon="18.0831346">
<ele>149</ele>
<time>2017-12-19T17:26:01Z</time>
</trkpt>
<trkpt lat="53.4934679" lon="18.0840891">
<ele>149</ele>
<time>2017-12-19T17:26:07Z</time>
</trkpt>
<trkpt lat="53.4932475" lon="18.0847670">
<ele>148</ele>
<time>2017-12-19T17:26:13Z</time>
</trkpt>
<trkpt lat="53.4930162" lon="18.0856913">
<ele>147</ele>
<time>2017-12-19T17:26:19Z</time>
</trkpt>
<trkpt lat="53.4926540" lon="18.0870325">
<ele>147</ele>
<time>2017-12-19T17:26:25Z</time>
</trkpt>
<trkpt lat="53.4922185" lon="18.0886707">
<ele>147</ele>
<time>2017-12-19T17:26:31Z</time>
</trkpt>
<trkpt lat="53.4917379" lon="18.0904563">
<ele>147</ele>
<time>2017-12-19T17:26:37Z</time>
</trkpt>
<trkpt lat="53.4912132" lon="18.0923631">
<ele>147</ele>
<time>2017-12-19T17:26:43Z</time>
</trkpt>
<trkpt lat="53.4906916" lon="18.0942885">
<ele>148</ele>
<time>2017-12-19T17:26:49Z</time>
</trkpt>
<trkpt lat="53.4901834" lon="18.0962363">
<ele>148</ele>
<time>2017-12-19T17:26:55Z</time>
</trkpt>
<trkpt lat="53.4898096" lon="18.0982073">
<ele>149</ele>
<time>2017-12-19T17:27:01Z</time>
</trkpt>
<trkpt lat="53.4895100" lon="18.1002508">
<ele>147</ele>
<time>2017-12-19T17:27:07Z</time>
</trkpt>
<trkpt lat="53.4892067" lon="18.1022943">
<ele>145</ele>
<time>2017-12-19T17:27:13Z</time>
</trkpt>
<trkpt lat="53.4888716" lon="18.1043370">
<ele>145</ele>
<time>2017-12-19T17:27:19Z</time>
</trkpt>
<trkpt lat="53.4885376" lon="18.1064049">
<ele>145</ele>
<time>2017-12-19T17:27:25Z</time>
</trkpt>
<trkpt lat="53.4882266" lon="18.1083576">
<ele>144</ele>
<time>2017-12-19T17:27:31Z</time>
</trkpt>
<trkpt lat="53.4879627" lon="18.1100397">
<ele>144</ele>
<time>2017-12-19T17:27:37Z</time>
</trkpt>
<trkpt lat="53.4877365" lon="18.1114297">
<ele>144</ele>
<time>2017-12-19T17:27:43Z</time>
</trkpt>
<trkpt lat="53.4875396" lon="18.1125819">
<ele>142</ele>
<time>2017-12-19T17:27:49Z</time>
</trkpt>
<trkpt lat="53.4873740" lon="18.1135627">
<ele>140</ele>
<time>2017-12-19T17:27:55Z</time>
</trkpt>
<trkpt lat="53.4872369" lon="18.1144531">
<ele>140</ele>
<time>2017-12-19T17:28:01Z</time>
</trkpt>
<trkpt lat="53.4870905" lon="18.1154854">
<ele>140</ele>
<time>2017-12-19T17:28:07Z</time>
</trkpt>
<trkpt lat="53.4868845" lon="18.1166979">
<ele>142</ele>
<time>2017-12-19T17:28:13Z</time>
</trkpt>
<trkpt lat="53.4866412" lon="18.1181126">
<ele>143</ele>
<time>2017-12-19T17:28:19Z</time>
</trkpt>
<trkpt lat="53.4863599" lon="18.1198310">
<ele>145</ele>
<time>2017-12-19T17:28:25Z</time>
</trkpt>
<trkpt lat="53.4860266" lon="18.1217115">
<ele>144</ele>
<time>2017-12-19T17:28:31Z</time>
</trkpt>
<trkpt lat="53.4856775" lon="18.1236635">
<ele>144</ele>
<time>2017-12-19T17:28:37Z</time>
</trkpt>
<trkpt lat="53.4853703" lon="18.1255457">
<ele>143</ele>
<time>2017-12-19T17:28:43Z</time>
</trkpt>
<trkpt lat="53.4849805" lon="18.1271428">
<ele>143</ele>
<time>2017-12-19T17:28:49Z</time>
</trkpt>
<trkpt lat="53.4844294" lon="18.1284933">
<ele>141</ele>
<time>2017-12-19T17:28:55Z</time>
</trkpt>
<trkpt lat="53.4838291" lon="18.1299854">
<ele>142</ele>
<time>2017-12-19T17:29:01Z</time>
</trkpt>
<trkpt lat="53.4832229" lon="18.1315784">
<ele>143</ele>
<time>2017-12-19T17:29:07Z</time>
</trkpt>
<trkpt lat="53.4826060" lon="18.1331684">
<ele>146</ele>
<time>2017-12-19T17:29:13Z</time>
</trkpt>
<trkpt lat="53.4820021" lon="18.1347557">
<ele>147</ele>
<time>2017-12-19T17:29:19Z</time>
</trkpt>
<trkpt lat="53.4813492" lon="18.1363466">
<ele>146</ele>
<time>2017-12-19T17:29:25Z</time>
</trkpt>
<trkpt lat="53.4807134" lon="18.1379796">
<ele>145</ele>
<time>2017-12-19T17:29:31Z</time>
</trkpt>
<trkpt lat="53.4800489" lon="18.1396449">
<ele>146</ele>
<time>2017-12-19T17:29:37Z</time>
</trkpt>
<trkpt lat="53.4793687" lon="18.1413741">
<ele>146</ele>
<time>2017-12-19T17:29:43Z</time>
</trkpt>
<trkpt lat="53.4786689" lon="18.1431446">
<ele>146</ele>
<time>2017-12-19T17:29:49Z</time>
</trkpt>
<trkpt lat="53.4779706" lon="18.1449077">
<ele>146</ele>
<time>2017-12-19T17:29:55Z</time>
</trkpt>
<trkpt lat="53.4772509" lon="18.1467270">
<ele>145</ele>
<time>2017-12-19T17:30:01Z</time>
</trkpt>
<trkpt lat="53.4765329" lon="18.1485497">
<ele>144</ele>
<time>2017-12-19T17:30:07Z</time>
</trkpt>
<trkpt lat="53.4758270" lon="18.1503422">
<ele>144</ele>
<time>2017-12-19T17:30:13Z</time>
</trkpt>
<trkpt lat="53.4751491" lon="18.1520114">
<ele>145</ele>
<time>2017-12-19T17:30:19Z</time>
</trkpt>
<trkpt lat="53.4744960" lon="18.1536985">
<ele>145</ele>
<time>2017-12-19T17:30:25Z</time>
</trkpt>
<trkpt lat="53.4738140" lon="18.1554527">
<ele>144</ele>
<time>2017-12-19T17:30:31Z</time>
</trkpt>
<trkpt lat="53.4730799" lon="18.1572502">
<ele>146</ele>
<time>2017-12-19T17:30:37Z</time>
</trkpt>
<trkpt lat="53.4723789" lon="18.1589337">
<ele>149</ele>
<time>2017-12-19T17:30:43Z</time>
</trkpt>
<trkpt lat="53.4716986" lon="18.1605787">
<ele>150</ele>
<time>2017-12-19T17:30:49Z</time>
</trkpt>
<trkpt lat="53.4710122" lon="18.1622618">
<ele>153</ele>
<time>2017-12-19T17:30:55Z</time>
</trkpt>
<trkpt lat="53.4703174" lon="18.1639543">
<ele>154</ele>
<time>2017-12-19T17:31:01Z</time>
</trkpt>
<trkpt lat="53.4696163" lon="18.1656651">
<ele>155</ele>
<time>2017-12-19T17:31:07Z</time>
</trkpt>
<trkpt lat="53.4688735" lon="18.1674454">
<ele>154</ele>
<time>2017-12-19T17:31:13Z</time>
</trkpt>
<trkpt lat="53.4681343" lon="18.1692418">
<ele>152</ele>
<time>2017-12-19T17:31:19Z</time>
</trkpt>
<trkpt lat="53.4674027" lon="18.1710350">
<ele>151</ele>
<time>2017-12-19T17:31:25Z</time>
</trkpt>
<trkpt lat="53.4666515" lon="18.1728603">
<ele>151</ele>
<time>2017-12-19T17:31:31Z</time>
</trkpt>
<trkpt lat="53.4651277" lon="18.1765571">
<ele>145</ele>
<time>2017-12-19T17:31:43Z</time>
</trkpt>
<trkpt lat="53.4643920" lon="18.1784136">
<ele>149</ele>
<time>2017-12-19T17:31:49Z</time>
</trkpt>
<trkpt lat="53.4636439" lon="18.1802807">
<ele>149</ele>
<time>2017-12-19T17:31:55Z</time>
</trkpt>
<trkpt lat="53.4629033" lon="18.1820905">
<ele>148</ele>
<time>2017-12-19T17:32:01Z</time>
</trkpt>
<trkpt lat="53.4621679" lon="18.1839105">
<ele>146</ele>
<time>2017-12-19T17:32:07Z</time>
</trkpt>
<trkpt lat="53.4614375" lon="18.1857328">
<ele>144</ele>
<time>2017-12-19T17:32:13Z</time>
</trkpt>
<trkpt lat="53.4607052" lon="18.1875195">
<ele>143</ele>
<time>2017-12-19T17:32:19Z</time>
</trkpt>
<trkpt lat="53.4599952" lon="18.1892861">
<ele>142</ele>
<time>2017-12-19T17:32:25Z</time>
</trkpt>
<trkpt lat="53.4592877" lon="18.1910133">
<ele>142</ele>
<time>2017-12-19T17:32:31Z</time>
</trkpt>
<trkpt lat="53.4585908" lon="18.1927251">
<ele>143</ele>
<time>2017-12-19T17:32:37Z</time>
</trkpt>
<trkpt lat="53.4579057" lon="18.1944434">
<ele>142</ele>
<time>2017-12-19T17:32:43Z</time>
</trkpt>
<trkpt lat="53.4572145" lon="18.1961463">
<ele>142</ele>
<time>2017-12-19T17:32:49Z</time>
</trkpt>
<trkpt lat="53.4565382" lon="18.1978514">
<ele>141</ele>
<time>2017-12-19T17:32:55Z</time>
</trkpt>
<trkpt lat="53.4558567" lon="18.1995432">
<ele>142</ele>
<time>2017-12-19T17:33:01Z</time>
</trkpt>
<trkpt lat="53.4551740" lon="18.2012289">
<ele>141</ele>
<time>2017-12-19T17:33:07Z</time>
</trkpt>
<trkpt lat="53.4545250" lon="18.2028960">
<ele>141</ele>
<time>2017-12-19T17:33:13Z</time>
</trkpt>
<trkpt lat="53.4541426" lon="18.2047623">
<ele>141</ele>
<time>2017-12-19T17:33:19Z</time>
</trkpt>
<trkpt lat="53.4539934" lon="18.2067580">
<ele>141</ele>
<time>2017-12-19T17:33:25Z</time>
</trkpt>
<trkpt lat="53.4537970" lon="18.2087715">
<ele>141</ele>
<time>2017-12-19T17:33:31Z</time>
</trkpt>
<trkpt lat="53.4536227" lon="18.2108035">
<ele>141</ele>
<time>2017-12-19T17:33:37Z</time>
</trkpt>
<trkpt lat="53.4534530" lon="18.2128914">
<ele>141</ele>
<time>2017-12-19T17:33:43Z</time>
</trkpt>
<trkpt lat="53.4532676" lon="18.2150084">
<ele>142</ele>
<time>2017-12-19T17:33:49Z</time>
</trkpt>
<trkpt lat="53.4530661" lon="18.2170444">
<ele>143</ele>
<time>2017-12-19T17:33:55Z</time>
</trkpt>
<trkpt lat="53.4528982" lon="18.2189936">
<ele>143</ele>
<time>2017-12-19T17:34:01Z</time>
</trkpt>
<trkpt lat="53.4526881" lon="18.2210161">
<ele>142</ele>
<time>2017-12-19T17:34:07Z</time>
</trkpt>
<trkpt lat="53.4523546" lon="18.2230709">
<ele>142</ele>
<time>2017-12-19T17:34:13Z</time>
</trkpt>
<trkpt lat="53.4520339" lon="18.2251487">
<ele>143</ele>
<time>2017-12-19T17:34:19Z</time>
</trkpt>
<trkpt lat="53.4514480" lon="18.2288521">
<ele>143</ele>
<time>2017-12-19T17:34:31Z</time>
</trkpt>
<trkpt lat="53.4495781" lon="18.2407423">
<ele>144</ele>
<time>2017-12-19T17:35:13Z</time>
</trkpt>
<trkpt lat="53.4492629" lon="18.2427726">
<ele>146</ele>
<time>2017-12-19T17:35:19Z</time>
</trkpt>
<trkpt lat="53.4489672" lon="18.2445812">
<ele>147</ele>
<time>2017-12-19T17:35:25Z</time>
</trkpt>
<trkpt lat="53.4487217" lon="18.2461925">
<ele>146</ele>
<time>2017-12-19T17:35:31Z</time>
</trkpt>
<trkpt lat="53.4485000" lon="18.2476490">
<ele>143</ele>
<time>2017-12-19T17:35:37Z</time>
</trkpt>
<trkpt lat="53.4482942" lon="18.2489592">
<ele>142</ele>
<time>2017-12-19T17:35:43Z</time>
</trkpt>
<trkpt lat="53.4481093" lon="18.2502089">
<ele>140</ele>
<time>2017-12-19T17:35:49Z</time>
</trkpt>
<trkpt lat="53.4478716" lon="18.2516834">
<ele>139</ele>
<time>2017-12-19T17:35:55Z</time>
</trkpt>
<trkpt lat="53.4475966" lon="18.2534000">
<ele>137</ele>
<time>2017-12-19T17:36:01Z</time>
</trkpt>
<trkpt lat="53.4473549" lon="18.2553401">
<ele>134</ele>
<time>2017-12-19T17:36:07Z</time>
</trkpt>
<trkpt lat="53.4471346" lon="18.2574369">
<ele>132</ele>
<time>2017-12-19T17:36:13Z</time>
</trkpt>
<trkpt lat="53.4469110" lon="18.2596207">
<ele>130</ele>
<time>2017-12-19T17:36:19Z</time>
</trkpt>
<trkpt lat="53.4459683" lon="18.2637158">
<ele>130</ele>
<time>2017-12-19T17:36:31Z</time>
</trkpt>
<trkpt lat="53.4453046" lon="18.2657843">
<ele>132</ele>
<time>2017-12-19T17:36:37Z</time>
</trkpt>
<trkpt lat="53.4446623" lon="18.2678778">
<ele>134</ele>
<time>2017-12-19T17:36:43Z</time>
</trkpt>
<trkpt lat="53.4433933" lon="18.2721005">
<ele>138</ele>
<time>2017-12-19T17:36:55Z</time>
</trkpt>
<trkpt lat="53.4427525" lon="18.2740879">
<ele>138</ele>
<time>2017-12-19T17:37:01Z</time>
</trkpt>
<trkpt lat="53.4421496" lon="18.2759772">
<ele>138</ele>
<time>2017-12-19T17:37:07Z</time>
</trkpt>
<trkpt lat="53.4415716" lon="18.2777221">
<ele>142</ele>
<time>2017-12-19T17:37:13Z</time>
</trkpt>
<trkpt lat="53.4410368" lon="18.2793599">
<ele>143</ele>
<time>2017-12-19T17:37:19Z</time>
</trkpt>
<trkpt lat="53.4405453" lon="18.2809340">
<ele>145</ele>
<time>2017-12-19T17:37:25Z</time>
</trkpt>
<trkpt lat="53.4400235" lon="18.2825705">
<ele>143</ele>
<time>2017-12-19T17:37:31Z</time>
</trkpt>
<trkpt lat="53.4394302" lon="18.2843124">
<ele>140</ele>
<time>2017-12-19T17:37:37Z</time>
</trkpt>
<trkpt lat="53.4387972" lon="18.2862003">
<ele>135</ele>
<time>2017-12-19T17:37:43Z</time>
</trkpt>
<trkpt lat="53.4381792" lon="18.2881830">
<ele>133</ele>
<time>2017-12-19T17:37:49Z</time>
</trkpt>
<trkpt lat="53.4375349" lon="18.2902052">
<ele>131</ele>
<time>2017-12-19T17:37:55Z</time>
</trkpt>
<trkpt lat="53.4368840" lon="18.2921822">
<ele>128</ele>
<time>2017-12-19T17:38:01Z</time>
</trkpt>
<trkpt lat="53.4362615" lon="18.2941132">
<ele>125</ele>
<time>2017-12-19T17:38:07Z</time>
</trkpt>
<trkpt lat="53.4357063" lon="18.2958297">
<ele>123</ele>
<time>2017-12-19T17:38:13Z</time>
</trkpt>
<trkpt lat="53.4351762" lon="18.2974802">
<ele>124</ele>
<time>2017-12-19T17:38:19Z</time>
</trkpt>
<trkpt lat="53.4346623" lon="18.2991321">
<ele>123</ele>
<time>2017-12-19T17:38:25Z</time>
</trkpt>
<trkpt lat="53.4341651" lon="18.3006689">
<ele>120</ele>
<time>2017-12-19T17:38:31Z</time>
</trkpt>
<trkpt lat="53.4336870" lon="18.3021042">
<ele>120</ele>
<time>2017-12-19T17:38:37Z</time>
</trkpt>
<trkpt lat="53.4332541" lon="18.3034154">
<ele>122</ele>
<time>2017-12-19T17:38:43Z</time>
</trkpt>
<trkpt lat="53.4328510" lon="18.3046464">
<ele>124</ele>
<time>2017-12-19T17:38:49Z</time>
</trkpt>
<trkpt lat="53.4324715" lon="18.3058434">
<ele>124</ele>
<time>2017-12-19T17:38:55Z</time>
</trkpt>
<trkpt lat="53.4320763" lon="18.3070622">
<ele>125</ele>
<time>2017-12-19T17:39:01Z</time>
</trkpt>
<trkpt lat="53.4316699" lon="18.3083231">
<ele>127</ele>
<time>2017-12-19T17:39:07Z</time>
</trkpt>
<trkpt lat="53.4312763" lon="18.3095885">
<ele>126</ele>
<time>2017-12-19T17:39:13Z</time>
</trkpt>
<trkpt lat="53.4308764" lon="18.3108526">
<ele>125</ele>
<time>2017-12-19T17:39:19Z</time>
</trkpt>
<trkpt lat="53.4304437" lon="18.3121720">
<ele>124</ele>
<time>2017-12-19T17:39:25Z</time>
</trkpt>
<trkpt lat="53.4299953" lon="18.3135663">
<ele>124</ele>
<time>2017-12-19T17:39:31Z</time>
</trkpt>
<trkpt lat="53.4295221" lon="18.3150387">
<ele>121</ele>
<time>2017-12-19T17:39:37Z</time>
</trkpt>
<trkpt lat="53.4290104" lon="18.3166662">
<ele>117</ele>
<time>2017-12-19T17:39:43Z</time>
</trkpt>
<trkpt lat="53.4284437" lon="18.3184162">
<ele>115</ele>
<time>2017-12-19T17:39:49Z</time>
</trkpt>
<trkpt lat="53.4278584" lon="18.3201988">
<ele>118</ele>
<time>2017-12-19T17:39:55Z</time>
</trkpt>
<trkpt lat="53.4272906" lon="18.3219598">
<ele>122</ele>
<time>2017-12-19T17:40:01Z</time>
</trkpt>
<trkpt lat="53.4267149" lon="18.3237496">
<ele>122</ele>
<time>2017-12-19T17:40:07Z</time>
</trkpt>
<trkpt lat="53.4261283" lon="18.3255519">
<ele>123</ele>
<time>2017-12-19T17:40:13Z</time>
</trkpt>
<trkpt lat="53.4255551" lon="18.3273337">
<ele>124</ele>
<time>2017-12-19T17:40:19Z</time>
</trkpt>
<trkpt lat="53.4249721" lon="18.3291016">
<ele>123</ele>
<time>2017-12-19T17:40:25Z</time>
</trkpt>
<trkpt lat="53.4243885" lon="18.3308964">
<ele>123</ele>
<time>2017-12-19T17:40:31Z</time>
</trkpt>
<trkpt lat="53.4238173" lon="18.3326645">
<ele>123</ele>
<time>2017-12-19T17:40:37Z</time>
</trkpt>
<trkpt lat="53.4232750" lon="18.3344115">
<ele>124</ele>
<time>2017-12-19T17:40:43Z</time>
</trkpt>
<trkpt lat="53.4226921" lon="18.3361859">
<ele>125</ele>
<time>2017-12-19T17:40:49Z</time>
</trkpt>
<trkpt lat="53.4221000" lon="18.3379836">
<ele>127</ele>
<time>2017-12-19T17:40:55Z</time>
</trkpt>
<trkpt lat="53.4215229" lon="18.3397590">
<ele>126</ele>
<time>2017-12-19T17:41:01Z</time>
</trkpt>
<trkpt lat="53.4209981" lon="18.3413656">
<ele>127</ele>
<time>2017-12-19T17:41:07Z</time>
</trkpt>
<trkpt lat="53.4205443" lon="18.3427834">
<ele>126</ele>
<time>2017-12-19T17:41:13Z</time>
</trkpt>
<trkpt lat="53.4200796" lon="18.3442640">
<ele>125</ele>
<time>2017-12-19T17:41:19Z</time>
</trkpt>
<trkpt lat="53.4195921" lon="18.3457783">
<ele>124</ele>
<time>2017-12-19T17:41:25Z</time>
</trkpt>
<trkpt lat="53.4190864" lon="18.3474653">
<ele>121</ele>
<time>2017-12-19T17:41:31Z</time>
</trkpt>
<trkpt lat="53.4186108" lon="18.3493275">
<ele>118</ele>
<time>2017-12-19T17:41:37Z</time>
</trkpt>
<trkpt lat="53.4182248" lon="18.3513267">
<ele>116</ele>
<time>2017-12-19T17:41:43Z</time>
</trkpt>
<trkpt lat="53.4179036" lon="18.3534403">
<ele>113</ele>
<time>2017-12-19T17:41:49Z</time>
</trkpt>
<trkpt lat="53.4175421" lon="18.3556207">
<ele>112</ele>
<time>2017-12-19T17:41:55Z</time>
</trkpt>
<trkpt lat="53.4170411" lon="18.3576505">
<ele>112</ele>
<time>2017-12-19T17:42:01Z</time>
</trkpt>
<trkpt lat="53.4162257" lon="18.3595208">
<ele>108</ele>
<time>2017-12-19T17:42:07Z</time>
</trkpt>
<trkpt lat="53.4153367" lon="18.3612950">
<ele>107</ele>
<time>2017-12-19T17:42:13Z</time>
</trkpt>
<trkpt lat="53.4145332" lon="18.3631262">
<ele>106</ele>
<time>2017-12-19T17:42:19Z</time>
</trkpt>
<trkpt lat="53.4139598" lon="18.3652049">
<ele>103</ele>
<time>2017-12-19T17:42:25Z</time>
</trkpt>
<trkpt lat="53.4135340" lon="18.3673862">
<ele>99</ele>
<time>2017-12-19T17:42:31Z</time>
</trkpt>
<trkpt lat="53.4130983" lon="18.3695191">
<ele>97</ele>
<time>2017-12-19T17:42:37Z</time>
</trkpt>
<trkpt lat="53.4124685" lon="18.3714968">
<ele>95</ele>
<time>2017-12-19T17:42:43Z</time>
</trkpt>
<trkpt lat="53.4115964" lon="18.3732782">
<ele>94</ele>
<time>2017-12-19T17:42:49Z</time>
</trkpt>
<trkpt lat="53.4107085" lon="18.3748563">
<ele>89</ele>
<time>2017-12-19T17:42:55Z</time>
</trkpt>
<trkpt lat="53.4099164" lon="18.3763265">
<ele>87</ele>
<time>2017-12-19T17:43:01Z</time>
</trkpt>
<trkpt lat="53.4092711" lon="18.3778792">
<ele>84</ele>
<time>2017-12-19T17:43:07Z</time>
</trkpt>
<trkpt lat="53.4088054" lon="18.3794305">
<ele>83</ele>
<time>2017-12-19T17:43:13Z</time>
</trkpt>
<trkpt lat="53.4084483" lon="18.3807896">
<ele>83</ele>
<time>2017-12-19T17:43:19Z</time>
</trkpt>
<trkpt lat="53.4081107" lon="18.3820716">
<ele>84</ele>
<time>2017-12-19T17:43:25Z</time>
</trkpt>
<trkpt lat="53.4077225" lon="18.3836267">
<ele>84</ele>
<time>2017-12-19T17:43:31Z</time>
</trkpt>
<trkpt lat="53.4072713" lon="18.3854503">
<ele>82</ele>
<time>2017-12-19T17:43:37Z</time>
</trkpt>
<trkpt lat="53.4067977" lon="18.3873967">
<ele>83</ele>
<time>2017-12-19T17:43:43Z</time>
</trkpt>
<trkpt lat="53.4062968" lon="18.3893491">
<ele>81</ele>
<time>2017-12-19T17:43:49Z</time>
</trkpt>
<trkpt lat="53.4056418" lon="18.3911034">
<ele>80</ele>
<time>2017-12-19T17:43:55Z</time>
</trkpt>
<trkpt lat="53.4048765" lon="18.3925500">
<ele>80</ele>
<time>2017-12-19T17:44:01Z</time>
</trkpt>
<trkpt lat="53.4042027" lon="18.3938225">
<ele>79</ele>
<time>2017-12-19T17:44:07Z</time>
</trkpt>
<trkpt lat="53.4035116" lon="18.3952556">
<ele>78</ele>
<time>2017-12-19T17:44:13Z</time>
</trkpt>
<trkpt lat="53.4027227" lon="18.3967667">
<ele>79</ele>
<time>2017-12-19T17:44:19Z</time>
</trkpt>
<trkpt lat="53.4018380" lon="18.3980851">
<ele>80</ele>
<time>2017-12-19T17:44:25Z</time>
</trkpt>
<trkpt lat="53.4010614" lon="18.3988952">
<ele>79</ele>
<time>2017-12-19T17:44:31Z</time>
</trkpt>
<trkpt lat="53.4001622" lon="18.3995816">
<ele>78</ele>
<time>2017-12-19T17:44:37Z</time>
</trkpt>
<trkpt lat="53.3991071" lon="18.4002089">
<ele>78</ele>
<time>2017-12-19T17:44:43Z</time>
</trkpt>
<trkpt lat="53.3979284" lon="18.4008634">
<ele>77</ele>
<time>2017-12-19T17:44:49Z</time>
</trkpt>
<trkpt lat="53.3966598" lon="18.4015622">
<ele>73</ele>
<time>2017-12-19T17:44:55Z</time>
</trkpt>
<trkpt lat="53.3953607" lon="18.4022828">
<ele>70</ele>
<time>2017-12-19T17:45:01Z</time>
</trkpt>
<trkpt lat="53.3941228" lon="18.4030687">
<ele>66</ele>
<time>2017-12-19T17:45:07Z</time>
</trkpt>
<trkpt lat="53.3928954" lon="18.4040348">
<ele>63</ele>
<time>2017-12-19T17:45:13Z</time>
</trkpt>
<trkpt lat="53.3917284" lon="18.4051620">
<ele>61</ele>
<time>2017-12-19T17:45:19Z</time>
</trkpt>
<trkpt lat="53.3905665" lon="18.4063501">
<ele>62</ele>
<time>2017-12-19T17:45:25Z</time>
</trkpt>
<trkpt lat="53.3894139" lon="18.4075004">
<ele>62</ele>
<time>2017-12-19T17:45:31Z</time>
</trkpt>
<trkpt lat="53.3882691" lon="18.4086648">
<ele>62</ele>
<time>2017-12-19T17:45:37Z</time>
</trkpt>
<trkpt lat="53.3871486" lon="18.4098313">
<ele>61</ele>
<time>2017-12-19T17:45:43Z</time>
</trkpt>
<trkpt lat="53.3860118" lon="18.4109859">
<ele>60</ele>
<time>2017-12-19T17:45:49Z</time>
</trkpt>
<trkpt lat="53.3848625" lon="18.4121729">
<ele>59</ele>
<time>2017-12-19T17:45:55Z</time>
</trkpt>
<trkpt lat="53.3837071" lon="18.4133792">
<ele>59</ele>
<time>2017-12-19T17:46:01Z</time>
</trkpt>
<trkpt lat="53.3825363" lon="18.4146121">
<ele>60</ele>
<time>2017-12-19T17:46:07Z</time>
</trkpt>
<trkpt lat="53.3813677" lon="18.4158218">
<ele>61</ele>
<time>2017-12-19T17:46:13Z</time>
</trkpt>
<trkpt lat="53.3802063" lon="18.4170329">
<ele>60</ele>
<time>2017-12-19T17:46:19Z</time>
</trkpt>
<trkpt lat="53.3790600" lon="18.4182025">
<ele>60</ele>
<time>2017-12-19T17:46:25Z</time>
</trkpt>
<trkpt lat="53.3779569" lon="18.4193317">
<ele>60</ele>
<time>2017-12-19T17:46:31Z</time>
</trkpt>
<trkpt lat="53.3769176" lon="18.4204047">
<ele>59</ele>
<time>2017-12-19T17:46:37Z</time>
</trkpt>
<trkpt lat="53.3758355" lon="18.4215114">
<ele>60</ele>
<time>2017-12-19T17:46:43Z</time>
</trkpt>
<trkpt lat="53.3747518" lon="18.4226389">
<ele>61</ele>
<time>2017-12-19T17:46:49Z</time>
</trkpt>
<trkpt lat="53.3736638" lon="18.4237799">
<ele>63</ele>
<time>2017-12-19T17:46:55Z</time>
</trkpt>
<trkpt lat="53.3725649" lon="18.4249203">
<ele>65</ele>
<time>2017-12-19T17:47:01Z</time>
</trkpt>
<trkpt lat="53.3715168" lon="18.4260026">
<ele>67</ele>
<time>2017-12-19T17:47:07Z</time>
</trkpt>
<trkpt lat="53.3704993" lon="18.4270423">
<ele>67</ele>
<time>2017-12-19T17:47:13Z</time>
</trkpt>
<trkpt lat="53.3694862" lon="18.4280876">
<ele>67</ele>
<time>2017-12-19T17:47:19Z</time>
</trkpt>
<trkpt lat="53.3684687" lon="18.4291509">
<ele>66</ele>
<time>2017-12-19T17:47:25Z</time>
</trkpt>
<trkpt lat="53.3674431" lon="18.4302146">
<ele>66</ele>
<time>2017-12-19T17:47:31Z</time>
</trkpt>
<trkpt lat="53.3664071" lon="18.4312843">
<ele>64</ele>
<time>2017-12-19T17:47:37Z</time>
</trkpt>
<trkpt lat="53.3654189" lon="18.4322977">
<ele>62</ele>
<time>2017-12-19T17:47:43Z</time>
</trkpt>
<trkpt lat="53.3644471" lon="18.4333074">
<ele>61</ele>
<time>2017-12-19T17:47:49Z</time>
</trkpt>
<trkpt lat="53.3633165" lon="18.4344754">
<ele>58</ele>
<time>2017-12-19T17:47:56Z</time>
</trkpt>
<trkpt lat="53.3623501" lon="18.4354701">
<ele>57</ele>
<time>2017-12-19T17:48:02Z</time>
</trkpt>
<trkpt lat="53.3614234" lon="18.4364230">
<ele>56</ele>
<time>2017-12-19T17:48:08Z</time>
</trkpt>
<trkpt lat="53.3605352" lon="18.4376269">
<ele>54</ele>
<time>2017-12-19T17:48:14Z</time>
</trkpt>
<trkpt lat="53.3596931" lon="18.4391066">
<ele>55</ele>
<time>2017-12-19T17:48:20Z</time>
</trkpt>
<trkpt lat="53.3588137" lon="18.4405997">
<ele>54</ele>
<time>2017-12-19T17:48:26Z</time>
</trkpt>
<trkpt lat="53.3579059" lon="18.4421382">
<ele>55</ele>
<time>2017-12-19T17:48:32Z</time>
</trkpt>
<trkpt lat="53.3569728" lon="18.4437234">
<ele>55</ele>
<time>2017-12-19T17:48:38Z</time>
</trkpt>
<trkpt lat="53.3560971" lon="18.4452402">
<ele>56</ele>
<time>2017-12-19T17:48:44Z</time>
</trkpt>
<trkpt lat="53.3552208" lon="18.4467656">
<ele>57</ele>
<time>2017-12-19T17:48:50Z</time>
</trkpt>
<trkpt lat="53.3543483" lon="18.4482330">
<ele>64</ele>
<time>2017-12-19T17:48:56Z</time>
</trkpt>
<trkpt lat="53.3535362" lon="18.4495194">
<ele>71</ele>
<time>2017-12-19T17:49:02Z</time>
</trkpt>
<trkpt lat="53.3530735" lon="18.4500586">
<ele>74</ele>
<time>2017-12-19T17:49:08Z</time>
</trkpt>
<trkpt lat="53.3528900" lon="18.4502284">
<ele>74</ele>
<time>2017-12-19T17:49:14Z</time>
</trkpt>
<trkpt lat="53.3527778" lon="18.4503322">
<ele>73</ele>
<time>2017-12-19T17:49:20Z</time>
</trkpt>
<trkpt lat="53.3525580" lon="18.4505350">
<ele>74</ele>
<time>2017-12-19T17:49:26Z</time>
</trkpt>
<trkpt lat="53.3522334" lon="18.4508009">
<ele>76</ele>
<time>2017-12-19T17:49:32Z</time>
</trkpt>
<trkpt lat="53.3519892" lon="18.4507322">
<ele>78</ele>
<time>2017-12-19T17:49:38Z</time>
</trkpt>
<trkpt lat="53.3517402" lon="18.4501093">
<ele>79</ele>
<time>2017-12-19T17:49:44Z</time>
</trkpt>
<trkpt lat="53.3514594" lon="18.4494307">
<ele>82</ele>
<time>2017-12-19T17:49:50Z</time>
</trkpt>
<trkpt lat="53.3511263" lon="18.4487519">
<ele>85</ele>
<time>2017-12-19T17:49:56Z</time>
</trkpt>
<trkpt lat="53.3507493" lon="18.4480534">
<ele>87</ele>
<time>2017-12-19T17:50:02Z</time>
</trkpt>
<trkpt lat="53.3504061" lon="18.4473837">
<ele>90</ele>
<time>2017-12-19T17:50:08Z</time>
</trkpt>
<trkpt lat="53.3500737" lon="18.4467425">
<ele>93</ele>
<time>2017-12-19T17:50:14Z</time>
</trkpt>
<trkpt lat="53.3497990" lon="18.4462071">
<ele>94</ele>
<time>2017-12-19T17:50:20Z</time>
</trkpt>
<trkpt lat="53.3495156" lon="18.4456278">
<ele>93</ele>
<time>2017-12-19T17:50:26Z</time>
</trkpt>
<trkpt lat="53.3490901" lon="18.4449391">
<ele>92</ele>
<time>2017-12-19T17:50:32Z</time>
</trkpt>
<trkpt lat="53.3487272" lon="18.4448370">
<ele>94</ele>
<time>2017-12-19T17:50:38Z</time>
</trkpt>
<trkpt lat="53.3487173" lon="18.4448430">
<ele>95</ele>
<time>2017-12-19T17:50:44Z</time>
</trkpt>
<trkpt lat="53.3486776" lon="18.4448603">
<ele>95</ele>
<time>2017-12-19T17:50:50Z</time>
</trkpt>
<trkpt lat="53.3483708" lon="18.4448261">
<ele>95</ele>
<time>2017-12-19T17:50:56Z</time>
</trkpt>
<trkpt lat="53.3480010" lon="18.4445907">
<ele>97</ele>
<time>2017-12-19T17:51:02Z</time>
</trkpt>
<trkpt lat="53.3477111" lon="18.4443387">
<ele>96</ele>
<time>2017-12-19T17:51:08Z</time>
</trkpt>
<trkpt lat="53.3474205" lon="18.4447819">
<ele>94</ele>
<time>2017-12-19T17:51:14Z</time>
</trkpt>
<trkpt lat="53.3472449" lon="18.4450671">
<ele>93</ele>
<time>2017-12-19T17:51:20Z</time>
</trkpt>
<trkpt lat="53.3470462" lon="18.4447929">
<ele>91</ele>
<time>2017-12-19T17:51:26Z</time>
</trkpt>
<trkpt lat="53.3469684" lon="18.4441581">
<ele>87</ele>
<time>2017-12-19T17:51:32Z</time>
</trkpt>
<trkpt lat="53.3471757" lon="18.4435371">
<ele>88</ele>
<time>2017-12-19T17:51:38Z</time>
</trkpt>
<trkpt lat="53.3474274" lon="18.4428949">
<ele>90</ele>
<time>2017-12-19T17:51:44Z</time>
</trkpt>
<trkpt lat="53.3478619" lon="18.4421461">
<ele>90</ele>
<time>2017-12-19T17:51:50Z</time>
</trkpt>
<trkpt lat="53.3482760" lon="18.4412167">
<ele>90</ele>
<time>2017-12-19T17:51:56Z</time>
</trkpt>
<trkpt lat="53.3485749" lon="18.4403024">
<ele>93</ele>
<time>2017-12-19T17:52:02Z</time>
</trkpt>
<trkpt lat="53.3488342" lon="18.4394724">
<ele>95</ele>
<time>2017-12-19T17:52:08Z</time>
</trkpt>
<trkpt lat="53.3490364" lon="18.4386652">
<ele>96</ele>
<time>2017-12-19T17:52:14Z</time>
</trkpt>
<trkpt lat="53.3490849" lon="18.4383768">
<ele>98</ele>
<time>2017-12-19T17:52:20Z</time>
</trkpt>
<trkpt lat="53.3490739" lon="18.4383349">
<ele>96</ele>
<time>2017-12-19T17:52:26Z</time>
</trkpt>
<trkpt lat="53.3491353" lon="18.4380525">
<ele>96</ele>
<time>2017-12-19T17:52:32Z</time>
</trkpt>
<trkpt lat="53.3492797" lon="18.4375366">
<ele>97</ele>
<time>2017-12-19T17:52:38Z</time>
</trkpt>
<trkpt lat="53.3494443" lon="18.4368821">
<ele>98</ele>
<time>2017-12-19T17:52:44Z</time>
</trkpt>
<trkpt lat="53.3494199" lon="18.4365380">
<ele>99</ele>
<time>2017-12-19T17:52:50Z</time>
</trkpt>
<trkpt lat="53.3491002" lon="18.4363912">
<ele>99</ele>
<time>2017-12-19T17:52:56Z</time>
</trkpt>
<trkpt lat="53.3489039" lon="18.4362522">
<ele>97</ele>
<time>2017-12-19T17:53:02Z</time>
</trkpt>
<trkpt lat="53.3485850" lon="18.4361456">
<ele>99</ele>
<time>2017-12-19T17:53:09Z</time>
</trkpt>
<trkpt lat="53.3482299" lon="18.4359465">
<ele>99</ele>
<time>2017-12-19T17:53:15Z</time>
</trkpt>
<trkpt lat="53.3480349" lon="18.4358211">
<ele>99</ele>
<time>2017-12-19T17:53:21Z</time>
</trkpt>
<trkpt lat="53.3479684" lon="18.4357592">
<ele>99</ele>
<time>2017-12-19T17:53:27Z</time>
</trkpt>
<trkpt lat="53.3479428" lon="18.4357483">
<ele>100</ele>
<time>2017-12-19T17:53:33Z</time>
</trkpt>
<trkpt lat="53.3478432" lon="18.4357152">
<ele>101</ele>
<time>2017-12-19T17:53:39Z</time>
</trkpt>
<trkpt lat="53.3477768" lon="18.4356603">
<ele>100</ele>
<time>2017-12-19T17:53:45Z</time>
</trkpt>
<trkpt lat="53.3477768" lon="18.4356603">
<ele>100</ele>
<time>2017-12-19T17:53:51Z</time>
</trkpt>
<trkpt lat="53.3477768" lon="18.4356603">
<ele>100</ele>
<time>2017-12-19T17:53:57Z</time>
</trkpt>
<trkpt lat="53.3477807" lon="18.4356624">
<ele>100</ele>
<time>2017-12-19T17:54:03Z</time>
</trkpt>
<trkpt lat="53.3477811" lon="18.4356609">
<ele>100</ele>
<time>2017-12-19T17:54:09Z</time>
</trkpt>
<trkpt lat="53.3477811" lon="18.4356609">
<ele>100</ele>
<time>2017-12-19T17:54:15Z</time>
</trkpt>
<trkpt lat="53.3477811" lon="18.4356609">
<ele>100</ele>
<time>2017-12-19T17:54:21Z</time>
</trkpt>
<trkpt lat="53.3477811" lon="18.4356609">
<ele>100</ele>
<time>2017-12-19T17:54:27Z</time>
</trkpt>
<trkpt lat="53.3477811" lon="18.4356609">
<ele>100</ele>
<time>2017-12-19T17:54:33Z</time>
</trkpt>
<trkpt lat="53.3477811" lon="18.4356609">
<ele>100</ele>
<time>2017-12-19T17:54:39Z</time>
</trkpt>
<trkpt lat="53.3477748" lon="18.4356790">
<ele>100</ele>
<time>2017-12-19T17:54:45Z</time>
</trkpt>
<trkpt lat="53.3477748" lon="18.4356790">
<ele>100</ele>
<time>2017-12-19T17:54:51Z</time>
</trkpt>
<trkpt lat="53.3477748" lon="18.4356790">
<ele>100</ele>
<time>2017-12-19T17:54:57Z</time>
</trkpt>
<trkpt lat="53.3477748" lon="18.4356790">
<ele>100</ele>
<time>2017-12-19T17:55:03Z</time>
</trkpt>
<trkpt lat="53.3477748" lon="18.4356790">
<ele>100</ele>
<time>2017-12-19T17:55:09Z</time>
</trkpt>
<trkpt lat="53.3478188" lon="18.4357280">
<ele>98</ele>
<time>2017-12-19T17:55:15Z</time>
</trkpt>
<trkpt lat="53.3478308" lon="18.4357563">
<ele>97</ele>
<time>2017-12-19T17:55:21Z</time>
</trkpt>
<trkpt lat="53.3478308" lon="18.4357563">
<ele>97</ele>
<time>2017-12-19T17:55:27Z</time>
</trkpt>
<trkpt lat="53.3478308" lon="18.4357563">
<ele>97</ele>
<time>2017-12-19T17:55:33Z</time>
</trkpt>
<trkpt lat="53.3478554" lon="18.4357529">
<ele>97</ele>
<time>2017-12-19T17:55:39Z</time>
</trkpt>
<trkpt lat="53.3479016" lon="18.4357586">
<ele>96</ele>
<time>2017-12-19T17:55:45Z</time>
</trkpt>
<trkpt lat="53.3479088" lon="18.4358479">
<ele>97</ele>
<time>2017-12-19T17:55:51Z</time>
</trkpt>
<trkpt lat="53.3478807" lon="18.4359664">
<ele>95</ele>
<time>2017-12-19T17:55:57Z</time>
</trkpt>
<trkpt lat="53.3478738" lon="18.4359941">
<ele>96</ele>
<time>2017-12-19T17:56:03Z</time>
</trkpt>
<trkpt lat="53.3479397" lon="18.4359919">
<ele>96</ele>
<time>2017-12-19T17:56:09Z</time>
</trkpt>
<trkpt lat="53.3479389" lon="18.4359688">
<ele>96</ele>
<time>2017-12-19T17:56:15Z</time>
</trkpt>
<trkpt lat="53.3479423" lon="18.4359709">
<ele>96</ele>
<time>2017-12-19T17:56:21Z</time>
</trkpt>
<trkpt lat="53.3479423" lon="18.4359709">
<ele>96</ele>
<time>2017-12-19T17:56:27Z</time>
</trkpt>
<trkpt lat="53.3479423" lon="18.4359709">
<ele>96</ele>
<time>2017-12-19T17:56:33Z</time>
</trkpt>
<trkpt lat="53.3479423" lon="18.4359709">
<ele>96</ele>
<time>2017-12-19T17:56:39Z</time>
</trkpt>
<trkpt lat="53.3479423" lon="18.4359709">
<ele>96</ele>
<time>2017-12-19T17:56:45Z</time>
</trkpt>
<trkpt lat="53.3478776" lon="18.4361562">
<ele>95</ele>
<time>2017-12-19T17:56:51Z</time>
</trkpt>
<trkpt lat="53.3478657" lon="18.4361791">
<ele>96</ele>
<time>2017-12-19T17:56:57Z</time>
</trkpt>
<trkpt lat="53.3478858" lon="18.4361805">
<ele>97</ele>
<time>2017-12-19T17:57:03Z</time>
</trkpt>
<trkpt lat="53.3479582" lon="18.4362525">
<ele>97</ele>
<time>2017-12-19T17:57:09Z</time>
</trkpt>
<trkpt lat="53.3479829" lon="18.4363144">
<ele>97</ele>
<time>2017-12-19T17:57:15Z</time>
</trkpt>
<trkpt lat="53.3479704" lon="18.4363035">
<ele>98</ele>
<time>2017-12-19T17:57:21Z</time>
</trkpt>
<trkpt lat="53.3479069" lon="18.4363286">
<ele>99</ele>
<time>2017-12-19T17:57:27Z</time>
</trkpt>
<trkpt lat="53.3478619" lon="18.4363828">
<ele>100</ele>
<time>2017-12-19T17:57:33Z</time>
</trkpt>
<trkpt lat="53.3478555" lon="18.4364579">
<ele>101</ele>
<time>2017-12-19T17:57:39Z</time>
</trkpt>
<trkpt lat="53.3478314" lon="18.4364948">
<ele>103</ele>
<time>2017-12-19T17:57:45Z</time>
</trkpt>
<trkpt lat="53.3478017" lon="18.4364978">
<ele>105</ele>
<time>2017-12-19T17:57:51Z</time>
</trkpt>
<trkpt lat="53.3477942" lon="18.4365671">
<ele>107</ele>
<time>2017-12-19T17:57:57Z</time>
</trkpt>
<trkpt lat="53.3478157" lon="18.4366088">
<ele>108</ele>
<time>2017-12-19T17:58:03Z</time>
</trkpt>
<trkpt lat="53.3478448" lon="18.4365874">
<ele>109</ele>
<time>2017-12-19T17:58:09Z</time>
</trkpt>
<trkpt lat="53.3478560" lon="18.4365410">
<ele>110</ele>
<time>2017-12-19T17:58:15Z</time>
</trkpt>
<trkpt lat="" lon="">
<ele></ele>
<time>2017-12-19TZ</time>
</trkpt>
</trkseg>
</trk>
<wpt lat="" lon="">
	<name></name>
	<desc></desc>
	<cmt></cmt>
	<photoid></photoid>
	<type></type>
</wpt>
</gpx>
